Darstellungsparameter: Aktuell verwendete Einstellungen:
Skalierung der Graphiken ... ?
xyx+y,   Skalierungsfaktor:      Skalierung: Modus: x, Faktor: 1
Darstellungszeitraum ... ?
Vom - - bis: - -   Zeitraum: 04.07.2011 - 03.10.2011
Min/Max/Avg-Anzeige ... ?
Zeige MMA aktuell
Zeige MMA Monat
Zeige MMA alles
Zeige --A aktuell
Zeige --A Monat
Zeige --A alles
Keine MMA-Anzeige
MMA:
Minimum Maximum Average (ber die Originaldaten)
MMA-Basis: 14.04.2020 - 16.05.2020
Quicknavigation für Darstellung... ?
Tage:      1T, 2T, 3T, 5T -1T -2T -3T -5T +1T +2T +3T +5T
Wochen: 1W, 2W, 3W -1W -2W -3W +1W +2W +3W
Monate: 1M, 3M, 6M -1M -3M -6M +1M +3M +6M
Jahre:    1J, 3J, 5J, 10J -1J -3J -5J -10J +1J +3J +5J +10J
Nutze für die Darstellung ... ?
Originaldaten oder Mittelwerte auf ...
Stundenbasis Tagesbasis Wochenbasis
Monatsbasis Jahresbasis      Datenbasis: Original-Daten
Darstellen als:
Statistik (Auto) Statistik J:M      Darstellung:
Zur Graphik,    zurück zur Übersicht aller Sensoren.
 
Tabellarische Datenbersicht: ?
 
Sensor: Nr:Datum:Temp:Abs-Feuchte:Windchill:Wind:
Aussen-T/F 1 04-07-2011 00:11:05 16.2 C 7.58 g/m*3 16.2 C 0 km/h
2 04-07-2011 00:23:05 16.2 C 7.58 g/m*3 16.2 C 0 km/h
3 04-07-2011 00:35:05 16.2 C 7.58 g/m*3 16.2 C 0 km/h
4 04-07-2011 00:47:05 16.2 C 7.58 g/m*3 16.2 C 0 km/h
5 04-07-2011 00:59:05 16.2 C 7.58 g/m*3 16.2 C 0 km/h
6 04-07-2011 01:11:05 16.2 C 7.58 g/m*3 16.2 C 0 km/h
7 04-07-2011 01:23:05 16.2 C 7.58 g/m*3 16.2 C 0 km/h
8 04-07-2011 01:35:05 16.2 C 7.58 g/m*3 16.2 C 0 km/h
9 04-07-2011 01:47:05 16.2 C 7.58 g/m*3 16.2 C 0 km/h
10 04-07-2011 01:59:05 16.2 C 7.58 g/m*3 16.2 C 0 km/h
11 04-07-2011 02:11:05 16.2 C 7.58 g/m*3 16.2 C 0 km/h
12 04-07-2011 02:23:05 16.2 C 7.58 g/m*3 16.2 C 0 km/h
13 04-07-2011 02:35:05 16.2 C 7.58 g/m*3 16.2 C 0 km/h
14 04-07-2011 02:47:05 16.2 C 7.58 g/m*3 16.2 C 0 km/h
15 04-07-2011 02:59:05 16.2 C 7.58 g/m*3 16.2 C 0 km/h
16 04-07-2011 03:11:05 16.2 C 7.58 g/m*3 16.2 C 0 km/h
17 04-07-2011 03:23:05 16.2 C 7.58 g/m*3 16.2 C 0 km/h
18 04-07-2011 03:35:06 16.2 C 7.58 g/m*3 16.2 C 0 km/h
19 04-07-2011 03:47:06 16.2 C 7.58 g/m*3 16.2 C 0 km/h
20 04-07-2011 03:59:06 16.2 C 7.58 g/m*3 16.2 C 0 km/h
21 04-07-2011 04:11:06 16.2 C 7.58 g/m*3 16.2 C 0 km/h
22 04-07-2011 04:23:06 16.2 C 7.58 g/m*3 16.2 C 0 km/h
23 04-07-2011 04:35:06 16.2 C 7.58 g/m*3 16.2 C 0 km/h
24 04-07-2011 04:47:06 16.2 C 7.58 g/m*3 16.2 C 0 km/h
25 04-07-2011 04:59:06 16.2 C 7.58 g/m*3 16.2 C 0 km/h
Sensor: Nr:Datum:Temp:Abs-Feuchte:Windchill:Wind:
Aussen-T/F 26 04-07-2011 05:11:06 16.2 C 7.58 g/m*3 16.2 C 0 km/h
27 04-07-2011 05:23:06 16.2 C 7.58 g/m*3 16.2 C 0 km/h
28 04-07-2011 05:35:06 16.2 C 7.58 g/m*3 16.2 C 0 km/h
29 04-07-2011 05:47:06 16.2 C 7.58 g/m*3 16.2 C 0 km/h
30 04-07-2011 05:59:06 16.2 C 7.58 g/m*3 16.2 C 0 km/h
31 04-07-2011 06:11:06 16.2 C 7.58 g/m*3 16.2 C 0 km/h
32 04-07-2011 06:23:06 16.2 C 7.58 g/m*3 16.2 C 0 km/h
33 04-07-2011 06:35:06 16.2 C 7.58 g/m*3 16.2 C 0 km/h
34 04-07-2011 06:47:06 16.2 C 7.58 g/m*3 16.2 C 0 km/h
35 04-07-2011 06:59:06 16.2 C 7.58 g/m*3 16.2 C 0 km/h
36 04-07-2011 07:11:06 16.2 C 7.58 g/m*3 16.2 C 0 km/h
37 04-07-2011 07:23:03 16.2 C 7.58 g/m*3 16.2 C 0 km/h
38 04-07-2011 07:35:04 16.2 C 7.58 g/m*3 16.2 C 0 km/h
39 04-07-2011 07:47:02 16.2 C 7.58 g/m*3 16.2 C 0 km/h
40 04-07-2011 07:59:02 16.2 C 7.58 g/m*3 16.2 C 0 km/h
41 05-07-2011 08:00:01 12.2 C 9.28 g/m*3 12.2 C 0 km/h
42 05-07-2011 08:12:02 12.5 C 9.35 g/m*3 12.5 C 0 km/h
43 05-07-2011 08:24:03 12.6 C 9.4 g/m*3 12.6 C 0 km/h
44 05-07-2011 08:36:03 13.1 C 9.47 g/m*3 13.1 C 0 km/h
45 05-07-2011 08:48:02 14 C 9.89 g/m*3 14 C 0 km/h
46 05-07-2011 09:00:02 14.4 C 9.89 g/m*3 14.4 C 0 km/h
47 05-07-2011 09:12:02 14.7 C 9.82 g/m*3 14.7 C 0 km/h
48 05-07-2011 09:24:02 15 C 9.75 g/m*3 15 C 0 km/h
49 05-07-2011 09:36:01 15.6 C 9.84 g/m*3 15.6 C 0 km/h
50 05-07-2011 09:48:01 16.1 C 9.73 g/m*3 16.1 C 0 km/h
Sensor: Nr:Datum:Temp:Abs-Feuchte:Windchill:Wind:
Aussen-T/F 51 05-07-2011 10:00:01 16.7 C 9.81 g/m*3 16.7 C 0 km/h
52 05-07-2011 10:12:02 17.3 C 9.58 g/m*3 17.3 C 0 km/h
53 05-07-2011 10:24:02 17.6 C 9.6 g/m*3 17.6 C 0 km/h
54 05-07-2011 10:36:01 18.1 C 9.58 g/m*3 18.1 C 0 km/h
55 05-07-2011 10:48:02 18.8 C 9.66 g/m*3 18.8 C 0 km/h
56 05-07-2011 11:00:02 20.1 C 9.73 g/m*3 20.1 C 0 km/h
57 05-07-2011 11:12:01 21.7 C 9.35 g/m*3 21.7 C 0 km/h
58 05-07-2011 11:24:02 20.7 C 9.36 g/m*3 20.7 C 0 km/h
59 05-07-2011 11:36:01 21.6 C 9.67 g/m*3 21.6 C 0 km/h
60 05-07-2011 11:48:03 21.8 C 9.59 g/m*3 21.8 C 0 km/h
61 05-07-2011 12:00:03 22.3 C 9.68 g/m*3 22.3 C 0 km/h
62 05-07-2011 12:12:02 22.5 C 9.59 g/m*3 22.5 C 0 km/h
63 05-07-2011 12:24:02 22.8 C 9.55 g/m*3 22.8 C 0 km/h
64 05-07-2011 12:36:03 23.3 C 8.78 g/m*3 23.3 C 0 km/h
65 05-07-2011 12:48:02 24 C 8.27 g/m*3 24 C 0 km/h
66 05-07-2011 13:00:03 24.1 C 7.88 g/m*3 24.1 C 0 km/h
67 05-07-2011 13:12:01 24.9 C 8.24 g/m*3 24.9 C 0 km/h
68 05-07-2011 13:24:02 25.8 C 8.67 g/m*3 25.8 C 0 km/h
69 05-07-2011 13:36:02 30.6 C 8.14 g/m*3 30.6 C 0 km/h
70 05-07-2011 13:48:02 31.9 C 6.72 g/m*3 31.9 C 0 km/h
71 05-07-2011 14:00:02 31.8 C 6.68 g/m*3 31.8 C 0 km/h
72 05-07-2011 14:12:03 31.9 C 6.72 g/m*3 31.9 C 0 km/h
73 05-07-2011 14:24:02 31.8 C 6.68 g/m*3 31.8 C 0 km/h
74 05-07-2011 14:36:02 33.2 C 7.2 g/m*3 33.2 C 0 km/h
75 05-07-2011 14:48:02 33 C 7.12 g/m*3 33 C 0 km/h
Sensor: Nr:Datum:Temp:Abs-Feuchte:Windchill:Wind:
Aussen-T/F 76 05-07-2011 15:00:02 32.5 C 6.93 g/m*3 32.5 C 0 km/h
77 05-07-2011 15:12:02 31.8 C 6.68 g/m*3 31.8 C 0 km/h
78 05-07-2011 15:24:02 32.4 C 6.9 g/m*3 32.4 C 0 km/h
79 05-07-2011 15:36:02 33.1 C 7.16 g/m*3 33.1 C 0 km/h
80 05-07-2011 15:48:02 31.4 C 6.54 g/m*3 31.4 C 0 km/h
81 05-07-2011 16:00:02 33 C 7.12 g/m*3 33 C 0 km/h
82 05-07-2011 16:12:01 31.9 C 6.72 g/m*3 31.9 C 0 km/h
83 05-07-2011 16:24:02 31.8 C 6.68 g/m*3 31.8 C 0 km/h
84 05-07-2011 16:36:02 31.3 C 6.83 g/m*3 31.3 C 0 km/h
85 05-07-2011 16:48:01 31.3 C 8.13 g/m*3 31.3 C 0 km/h
86 05-07-2011 17:00:01 31.2 C 6.79 g/m*3 31.2 C 0 km/h
87 05-07-2011 17:12:01 30.3 C 8.32 g/m*3 30.3 C 0 km/h
88 05-07-2011 17:24:01 30.4 C 7.75 g/m*3 30.4 C 0 km/h
89 05-07-2011 17:36:02 31.5 C 7.89 g/m*3 31.5 C 0 km/h
90 05-07-2011 17:48:02 31.2 C 9.7 g/m*3 31.2 C 0 km/h
91 05-07-2011 18:00:02 29.7 C 10.44 g/m*3 29.7 C 0 km/h
92 05-07-2011 18:12:02 31.2 C 7.44 g/m*3 31.2 C 0 km/h
93 05-07-2011 18:24:02 30.2 C 8.28 g/m*3 30.2 C 0 km/h
94 05-07-2011 18:36:02 30.8 C 8.23 g/m*3 30.8 C 0 km/h
95 05-07-2011 18:48:02 30.6 C 7.2 g/m*3 30.6 C 0 km/h
96 05-07-2011 19:00:02 31 C 8 g/m*3 31 C 0 km/h
97 05-07-2011 19:12:02 31.4 C 7.52 g/m*3 31.4 C 0 km/h
98 05-07-2011 19:24:02 29 C 9.48 g/m*3 29 C 0 km/h
99 05-07-2011 19:36:02 29.9 C 9.65 g/m*3 29.9 C 0 km/h
100 05-07-2011 19:48:02 27.9 C 10.28 g/m*3 27.9 C 0 km/h
Sensor: Nr:Datum:Temp:Abs-Feuchte:Windchill:Wind:
Aussen-T/F 101 05-07-2011 20:00:02 26 C 10.47 g/m*3 26 C 0 km/h
102 05-07-2011 20:12:02 25.5 C 10.42 g/m*3 25.5 C 0 km/h
103 05-07-2011 20:24:02 25 C 10.36 g/m*3 25 C 0 km/h
104 05-07-2011 20:36:02 24.7 C 10.19 g/m*3 24.7 C 0 km/h
105 05-07-2011 20:48:02 23.9 C 10.38 g/m*3 23.9 C 0 km/h
106 05-07-2011 21:00:02 22.9 C 10.63 g/m*3 22.9 C 0 km/h
107 05-07-2011 21:12:02 22 C 10.09 g/m*3 22 C 0 km/h
108 05-07-2011 21:24:02 21.5 C 10.18 g/m*3 21.5 C 0 km/h
109 05-07-2011 21:36:02 21 C 10.08 g/m*3 21 C 0 km/h
110 05-07-2011 21:48:02 20.8 C 10.14 g/m*3 20.8 C 0 km/h
111 05-07-2011 22:00:02 20.6 C 10.2 g/m*3 20.6 C 0 km/h
112 05-07-2011 22:12:02 20.4 C 10.26 g/m*3 20.4 C 0 km/h
113 05-07-2011 22:24:02 20.2 C 10.14 g/m*3 20.2 C 0 km/h
114 05-07-2011 22:36:02 19.9 C 10.31 g/m*3 19.9 C 0 km/h
115 05-07-2011 22:49:03 20 C 10.37 g/m*3 20 C 0 km/h
116 05-07-2011 23:01:03 19.6 C 10.47 g/m*3 19.6 C 0 km/h
117 05-07-2011 23:13:03 19.6 C 10.47 g/m*3 19.6 C 0 km/h
118 05-07-2011 23:25:03 19.2 C 10.39 g/m*3 19.2 C 0 km/h
119 05-07-2011 23:37:03 18.6 C 10.35 g/m*3 18.6 C 0 km/h
120 05-07-2011 23:49:03 18.1 C 10.51 g/m*3 18.1 C 0 km/h
121 06-07-2011 00:01:03 17.8 C 10.47 g/m*3 17.8 C 0 km/h
122 06-07-2011 00:13:03 17.4 C 10.37 g/m*3 17.4 C 0 km/h
123 06-07-2011 00:25:03 17.1 C 10.48 g/m*3 17.1 C 0 km/h
124 06-07-2011 00:37:03 16.8 C 10.58 g/m*3 16.8 C 0 km/h
125 06-07-2011 00:49:03 17 C 10.71 g/m*3 17 C 0 km/h
Sensor: Nr:Datum:Temp:Abs-Feuchte:Windchill:Wind:
Aussen-T/F 126 06-07-2011 01:01:03 16.8 C 10.72 g/m*3 16.8 C 0 km/h
127 06-07-2011 01:13:03 16.9 C 10.64 g/m*3 16.9 C 0 km/h
128 06-07-2011 01:25:03 16.6 C 10.45 g/m*3 16.6 C 0 km/h
129 06-07-2011 01:37:03 16.1 C 10.14 g/m*3 16.1 C 0 km/h
130 06-07-2011 01:49:03 15.7 C 10.17 g/m*3 15.7 C 0 km/h
131 06-07-2011 02:01:03 15.6 C 10.24 g/m*3 15.6 C 0 km/h
132 06-07-2011 02:13:03 15.4 C 10.12 g/m*3 15.4 C 0 km/h
133 06-07-2011 02:25:03 15.3 C 10.06 g/m*3 15.3 C 0 km/h
134 06-07-2011 02:37:03 15.2 C 9.99 g/m*3 15.2 C 0 km/h
135 06-07-2011 02:49:03 15 C 9.87 g/m*3 15 C 0 km/h
136 06-07-2011 03:01:04 14.9 C 9.81 g/m*3 14.9 C 0 km/h
137 06-07-2011 03:13:04 14.6 C 9.64 g/m*3 14.6 C 0 km/h
138 06-07-2011 03:25:04 14.6 C 9.64 g/m*3 14.6 C 0 km/h
139 06-07-2011 03:37:04 14.7 C 9.82 g/m*3 14.7 C 0 km/h
140 06-07-2011 03:49:04 14.8 C 9.88 g/m*3 14.8 C 0 km/h
141 06-07-2011 04:01:04 14.6 C 9.39 g/m*3 14.6 C 0 km/h
142 06-07-2011 04:13:04 14.5 C 9.08 g/m*3 14.5 C 0 km/h
143 06-07-2011 04:25:04 14.6 C 9.26 g/m*3 14.6 C 0 km/h
144 06-07-2011 04:37:04 14.8 C 9.37 g/m*3 14.8 C 0 km/h
145 06-07-2011 04:49:04 15 C 9.36 g/m*3 15 C 0 km/h
146 06-07-2011 05:01:04 14.6 C 9.13 g/m*3 14.6 C 0 km/h
147 06-07-2011 05:13:04 14.2 C 9.04 g/m*3 14.2 C 0 km/h
148 06-07-2011 05:25:04 14.2 C 9.28 g/m*3 14.2 C 0 km/h
149 06-07-2011 05:37:04 14.1 C 9.34 g/m*3 14.1 C 0 km/h
150 06-07-2011 05:49:04 14.2 C 9.4 g/m*3 14.2 C 0 km/h
Sensor: Nr:Datum:Temp:Abs-Feuchte:Windchill:Wind:
Aussen-T/F 151 06-07-2011 06:01:05 14.5 C 9.58 g/m*3 14.5 C 0 km/h
152 06-07-2011 06:13:05 14.8 C 9.5 g/m*3 14.8 C 0 km/h
153 06-07-2011 06:25:05 15.6 C 9.71 g/m*3 15.6 C 0 km/h
154 06-07-2011 06:37:05 16 C 9.67 g/m*3 16 C 0 km/h
155 06-07-2011 06:49:05 16 C 9.67 g/m*3 16 C 0 km/h
156 06-07-2011 07:01:05 15.3 C 9.79 g/m*3 15.3 C 0 km/h
157 06-07-2011 07:13:05 15.4 C 10.25 g/m*3 15.4 C 0 km/h
158 06-07-2011 07:25:03 15.6 C 10.24 g/m*3 15.6 C 0 km/h
159 06-07-2011 07:37:02 15.8 C 10.36 g/m*3 15.8 C 0 km/h
160 06-07-2011 07:49:03 16.1 C 10.28 g/m*3 16.1 C 0 km/h
161 06-07-2011 08:01:02 16.7 C 10.23 g/m*3 16.7 C 0 km/h
162 06-07-2011 08:13:02 16.4 C 10.05 g/m*3 16.4 C 0 km/h
163 06-07-2011 08:25:02 16.6 C 9.75 g/m*3 16.6 C 0 km/h
164 06-07-2011 08:37:02 16.9 C 9.64 g/m*3 16.9 C 0 km/h
165 06-07-2011 08:49:02 16.9 C 9.49 g/m*3 16.9 C 0 km/h
166 06-07-2011 09:01:01 17.2 C 9.52 g/m*3 17.2 C 0 km/h
167 06-07-2011 09:13:01 17.9 C 9.01 g/m*3 17.9 C 0 km/h
168 06-07-2011 09:25:02 18.3 C 9.22 g/m*3 18.3 C 0 km/h
169 06-07-2011 09:37:02 19 C 9.29 g/m*3 19 C 0 km/h
170 06-07-2011 09:49:02 21.3 C 8.57 g/m*3 21.3 C 0 km/h
171 06-07-2011 10:01:01 22 C 7.96 g/m*3 22 C 0 km/h
172 06-07-2011 10:13:01 22.5 C 7.99 g/m*3 22.5 C 0 km/h
173 06-07-2011 10:25:01 22.8 C 8.33 g/m*3 22.8 C 0 km/h
174 06-07-2011 10:37:02 23.3 C 8.36 g/m*3 23.3 C 0 km/h
175 06-07-2011 10:49:02 23.8 C 8.39 g/m*3 23.8 C 0 km/h
Sensor: Nr:Datum:Temp:Abs-Feuchte:Windchill:Wind:
Aussen-T/F 176 06-07-2011 11:01:02 23.7 C 8.13 g/m*3 23.7 C 0 km/h
177 06-07-2011 11:13:02 23.2 C 8.32 g/m*3 23.2 C 0 km/h
178 06-07-2011 11:25:02 23 C 8.22 g/m*3 23 C 0 km/h
179 06-07-2011 11:37:02 24.1 C 8.1 g/m*3 24.1 C 0 km/h
180 06-07-2011 11:49:01 23.4 C 7.57 g/m*3 23.4 C 0 km/h
181 06-07-2011 12:01:02 23.7 C 7.91 g/m*3 23.7 C 0 km/h
182 06-07-2011 12:13:02 23.2 C 7.28 g/m*3 23.2 C 0 km/h
183 06-07-2011 12:25:01 23.4 C 7.57 g/m*3 23.4 C 0 km/h
184 06-07-2011 12:37:01 23.7 C 7.49 g/m*3 23.7 C 0 km/h
185 06-07-2011 12:49:01 24 C 7.18 g/m*3 24 C 0 km/h
186 06-07-2011 13:01:02 24.7 C 7.24 g/m*3 24.7 C 0 km/h
187 06-07-2011 13:13:02 24.8 C 6.83 g/m*3 24.8 C 0 km/h
188 06-07-2011 13:25:01 26.2 C 7.14 g/m*3 26.2 C 0 km/h
189 06-07-2011 13:37:02 27.4 C 6.58 g/m*3 27.4 C 0 km/h
190 06-07-2011 13:49:02 27.6 C 6.38 g/m*3 27.6 C 0 km/h
191 06-07-2011 14:01:02 27.5 C 6.61 g/m*3 27.5 C 0 km/h
192 06-07-2011 14:13:03 26.6 C 6.8 g/m*3 26.6 C 0 km/h
193 06-07-2011 14:25:01 27.3 C 6.54 g/m*3 27.3 C 0 km/h
194 06-07-2011 14:37:02 26.4 C 6.47 g/m*3 26.4 C 0 km/h
195 06-07-2011 14:49:01 26.8 C 6.62 g/m*3 26.8 C 0 km/h
196 06-07-2011 15:01:02 25.3 C 6.79 g/m*3 25.3 C 0 km/h
197 06-07-2011 15:13:02 24.6 C 6.75 g/m*3 24.6 C 0 km/h
198 06-07-2011 15:25:02 24 C 6.53 g/m*3 24 C 0 km/h
199 06-07-2011 15:37:02 23.7 C 6.63 g/m*3 23.7 C 0 km/h
200 06-07-2011 15:49:01 23.5 C 6.98 g/m*3 23.5 C 0 km/h
Sensor: Nr:Datum:Temp:Abs-Feuchte:Windchill:Wind:
Aussen-T/F 201 06-07-2011 16:01:02 24.8 C 7.06 g/m*3 24.8 C 0 km/h
202 06-07-2011 16:13:02 26.5 C 6.76 g/m*3 26.5 C 0 km/h
203 06-07-2011 16:25:02 28.7 C 6.22 g/m*3 28.7 C 0 km/h
204 06-07-2011 16:37:01 29.4 C 5.87 g/m*3 29.4 C 0 km/h
205 06-07-2011 16:49:02 30.2 C 6.44 g/m*3 30.2 C 0 km/h
206 06-07-2011 17:01:01 26.2 C 6.15 g/m*3 26.2 C 0 km/h
207 06-07-2011 17:13:01 30.2 C 6.44 g/m*3 30.2 C 0 km/h
208 06-07-2011 17:25:02 28.1 C 5.74 g/m*3 28.1 C 0 km/h
209 06-07-2011 17:37:01 25.9 C 6.78 g/m*3 25.9 C 0 km/h
210 06-07-2011 17:49:02 25 C 6.91 g/m*3 25 C 0 km/h
211 06-07-2011 18:01:01 26.3 C 6.68 g/m*3 26.3 C 0 km/h
212 06-07-2011 18:13:01 28.1 C 5.74 g/m*3 28.1 C 0 km/h
213 06-07-2011 18:25:01 24.6 C 6.75 g/m*3 24.6 C 0 km/h
214 06-07-2011 18:37:02 28 C 6.25 g/m*3 28 C 0 km/h
215 06-07-2011 18:49:02 25.3 C 6.79 g/m*3 25.3 C 0 km/h
216 06-07-2011 19:01:02 26.8 C 6.36 g/m*3 26.8 C 0 km/h
217 06-07-2011 19:13:02 28.2 C 6.05 g/m*3 28.2 C 0 km/h
218 06-07-2011 19:25:02 28.6 C 6.46 g/m*3 28.6 C 0 km/h
219 06-07-2011 19:37:02 27.1 C 5.69 g/m*3 27.1 C 0 km/h
220 06-07-2011 19:49:01 25.4 C 6.36 g/m*3 25.4 C 0 km/h
221 06-07-2011 20:01:02 23.9 C 6.71 g/m*3 23.9 C 0 km/h
222 06-07-2011 20:13:02 23.1 C 7.44 g/m*3 23.1 C 0 km/h
223 06-07-2011 20:25:01 22 C 7.96 g/m*3 22 C 0 km/h
224 06-07-2011 20:37:01 21.3 C 8.39 g/m*3 21.3 C 0 km/h
225 06-07-2011 20:49:02 20.8 C 8.51 g/m*3 20.8 C 0 km/h
Sensor: Nr:Datum:Temp:Abs-Feuchte:Windchill:Wind:
Aussen-T/F 226 06-07-2011 21:01:02 20.4 C 8.31 g/m*3 20.4 C 0 km/h
227 06-07-2011 21:13:02 20 C 8.3 g/m*3 20 C 0 km/h
228 06-07-2011 21:25:02 19.9 C 8.08 g/m*3 19.9 C 0 km/h
229 06-07-2011 21:37:02 19.5 C 8.22 g/m*3 19.5 C 0 km/h
230 06-07-2011 21:49:01 19.4 C 8.01 g/m*3 19.4 C 0 km/h
231 06-07-2011 22:01:02 18.9 C 8.26 g/m*3 18.9 C 0 km/h
232 06-07-2011 22:13:02 17.4 C 8.3 g/m*3 17.4 C 0 km/h
233 06-07-2011 22:25:01 16.6 C 8.33 g/m*3 16.6 C 0 km/h
234 06-07-2011 22:37:02 16.4 C 8.51 g/m*3 16.4 C 0 km/h
235 06-07-2011 22:49:01 15.7 C 8.3 g/m*3 15.7 C 0 km/h
236 06-07-2011 23:02:02 15.3 C 8.23 g/m*3 15.3 C 0 km/h
237 06-07-2011 23:14:02 15.4 C 8.67 g/m*3 15.4 C 0 km/h
238 06-07-2011 23:26:02 15.2 C 8.7 g/m*3 15.2 C 0 km/h
239 06-07-2011 23:38:02 15.3 C 8.75 g/m*3 15.3 C 0 km/h
240 06-07-2011 23:50:02 15.7 C 8.83 g/m*3 15.7 C 0 km/h
241 07-07-2011 00:02:02 15.7 C 8.83 g/m*3 15.7 C 0 km/h
242 07-07-2011 00:14:02 15.6 C 8.91 g/m*3 15.6 C 0 km/h
243 07-07-2011 00:26:02 15.7 C 8.96 g/m*3 15.7 C 0 km/h
244 07-07-2011 00:38:03 15.6 C 8.91 g/m*3 15.6 C 0 km/h
245 07-07-2011 00:50:03 15.4 C 8.93 g/m*3 15.4 C 0 km/h
246 07-07-2011 01:02:03 14.6 C 8.88 g/m*3 14.6 C 0 km/h
247 07-07-2011 01:14:03 13.8 C 8.58 g/m*3 13.8 C 0 km/h
248 07-07-2011 01:26:03 13.5 C 8.66 g/m*3 13.5 C 0 km/h
249 07-07-2011 01:38:03 13.2 C 8.38 g/m*3 13.2 C 0 km/h
250 07-07-2011 01:50:03 13.4 C 8.6 g/m*3 13.4 C 0 km/h
Sensor: Nr:Datum:Temp:Abs-Feuchte:Windchill:Wind:
Aussen-T/F 251 07-07-2011 02:02:03 13.5 C 8.54 g/m*3 13.5 C 0 km/h
252 07-07-2011 02:14:03 14 C 8.68 g/m*3 14 C 0 km/h
253 07-07-2011 02:26:03 14.1 C 8.74 g/m*3 14.1 C 0 km/h
254 07-07-2011 02:38:03 14 C 8.68 g/m*3 14 C 0 km/h
255 07-07-2011 02:50:03 14.3 C 8.97 g/m*3 14.3 C 0 km/h
256 07-07-2011 03:02:03 14.7 C 9.07 g/m*3 14.7 C 0 km/h
257 07-07-2011 03:14:03 14.3 C 8.97 g/m*3 14.3 C 0 km/h
258 07-07-2011 03:26:03 13.8 C 8.94 g/m*3 13.8 C 0 km/h
259 07-07-2011 03:38:03 14 C 9.17 g/m*3 14 C 0 km/h
260 07-07-2011 03:50:03 14.4 C 9.52 g/m*3 14.4 C 0 km/h
261 07-07-2011 04:02:03 14.5 C 9.45 g/m*3 14.5 C 0 km/h
262 07-07-2011 04:14:03 14.1 C 9.22 g/m*3 14.1 C 0 km/h
263 07-07-2011 04:26:03 13.9 C 9.59 g/m*3 13.9 C 0 km/h
264 07-07-2011 04:38:03 14.1 C 9.83 g/m*3 14.1 C 0 km/h
265 07-07-2011 04:50:03 13.9 C 9.83 g/m*3 13.9 C 0 km/h
266 07-07-2011 05:02:03 13.8 C 9.89 g/m*3 13.8 C 0 km/h
267 07-07-2011 05:14:04 13.6 C 9.77 g/m*3 13.6 C 0 km/h
268 07-07-2011 05:26:04 13.7 C 9.83 g/m*3 13.7 C 0 km/h
269 07-07-2011 05:38:04 13.2 C 9.53 g/m*3 13.2 C 0 km/h
270 07-07-2011 05:50:04 13.3 C 9.7 g/m*3 13.3 C 0 km/h
271 07-07-2011 06:02:04 13.7 C 10.07 g/m*3 13.7 C 0 km/h
272 07-07-2011 06:14:04 13.5 C 10.06 g/m*3 13.5 C 0 km/h
273 07-07-2011 06:26:04 13.8 C 10.25 g/m*3 13.8 C 0 km/h
274 07-07-2011 06:38:04 13.9 C 10.31 g/m*3 13.9 C 0 km/h
275 07-07-2011 06:50:04 14.1 C 10.32 g/m*3 14.1 C 0 km/h
Sensor: Nr:Datum:Temp:Abs-Feuchte:Windchill:Wind:
Aussen-T/F 276 07-07-2011 07:02:04 14.4 C 10.51 g/m*3 14.4 C 0 km/h
277 07-07-2011 07:14:04 14.3 C 10.2 g/m*3 14.3 C 0 km/h
278 07-07-2011 07:26:02 14.9 C 10.45 g/m*3 14.9 C 0 km/h
279 07-07-2011 07:38:01 15.4 C 10.38 g/m*3 15.4 C 0 km/h
280 07-07-2011 07:50:01 16.1 C 10.14 g/m*3 16.1 C 0 km/h
281 07-07-2011 08:02:02 16.4 C 9.77 g/m*3 16.4 C 0 km/h
282 07-07-2011 08:14:02 16.8 C 9.44 g/m*3 16.8 C 0 km/h
283 07-07-2011 08:26:02 17.5 C 9.54 g/m*3 17.5 C 0 km/h
284 07-07-2011 08:38:01 17.7 C 9.35 g/m*3 17.7 C 0 km/h
285 07-07-2011 08:50:02 18.3 C 9.54 g/m*3 18.3 C 0 km/h
286 07-07-2011 09:02:01 18.4 C 9.44 g/m*3 18.4 C 0 km/h
287 07-07-2011 09:14:01 18.4 C 9.12 g/m*3 18.4 C 0 km/h
288 07-07-2011 09:26:02 18.3 C 9.38 g/m*3 18.3 C 0 km/h
289 07-07-2011 09:38:01 18.3 C 9.85 g/m*3 18.3 C 0 km/h
290 07-07-2011 09:50:02 18.5 C 9.81 g/m*3 18.5 C 0 km/h
291 07-07-2011 10:02:02 19.1 C 9.51 g/m*3 19.1 C 0 km/h
292 07-07-2011 10:14:03 19.9 C 8.25 g/m*3 19.9 C 0 km/h
293 07-07-2011 10:26:01 20.3 C 8.27 g/m*3 20.3 C 0 km/h
294 07-07-2011 10:38:02 21 C 8.06 g/m*3 21 C 0 km/h
295 07-07-2011 10:50:01 21.4 C 7.69 g/m*3 21.4 C 0 km/h
296 07-07-2011 11:02:02 22.4 C 7.75 g/m*3 22.4 C 0 km/h
297 07-07-2011 11:14:02 22.5 C 7.59 g/m*3 22.5 C 0 km/h
298 07-07-2011 11:26:02 22.9 C 7.56 g/m*3 22.9 C 0 km/h
299 07-07-2011 11:38:02 23.9 C 6.71 g/m*3 23.9 C 0 km/h
300 07-07-2011 11:50:02 22.5 C 5.99 g/m*3 22.5 C 0 km/h
Sensor: Nr:Datum:Temp:Abs-Feuchte:Windchill:Wind:
Aussen-T/F 301 07-07-2011 12:02:02 23.4 C 6.1 g/m*3 23.4 C 0 km/h
302 07-07-2011 12:14:02 23.4 C 6.31 g/m*3 23.4 C 0 km/h
303 07-07-2011 12:26:02 24.3 C 6.2 g/m*3 24.3 C 0 km/h
304 07-07-2011 12:38:01 23.8 C 6.02 g/m*3 23.8 C 0 km/h
305 07-07-2011 12:50:02 25 C 6.22 g/m*3 25 C 0 km/h
306 07-07-2011 13:02:01 25.7 C 6.22 g/m*3 25.7 C 0 km/h
307 07-07-2011 13:14:01 24.9 C 6.18 g/m*3 24.9 C 0 km/h
308 07-07-2011 13:26:02 26.8 C 6.36 g/m*3 26.8 C 0 km/h
309 07-07-2011 13:38:01 25.8 C 6.26 g/m*3 25.8 C 0 km/h
310 07-07-2011 13:50:02 28.2 C 6.32 g/m*3 28.2 C 0 km/h
311 07-07-2011 14:02:01 25.7 C 5.99 g/m*3 25.7 C 0 km/h
312 07-07-2011 14:14:01 25.8 C 6.02 g/m*3 25.8 C 0 km/h
313 07-07-2011 14:26:01 24.9 C 6.18 g/m*3 24.9 C 0 km/h
314 07-07-2011 14:38:01 28.5 C 6.15 g/m*3 28.5 C 0 km/h
315 07-07-2011 14:50:02 27.4 C 6.05 g/m*3 27.4 C 0 km/h
316 07-07-2011 15:02:02 27.5 C 6.08 g/m*3 27.5 C 0 km/h
317 07-07-2011 15:14:02 26.7 C 6.33 g/m*3 26.7 C 0 km/h
318 07-07-2011 15:26:02 25.8 C 6.26 g/m*3 25.8 C 0 km/h
319 07-07-2011 15:38:02 26.2 C 6.15 g/m*3 26.2 C 0 km/h
320 07-07-2011 15:50:01 25.6 C 6.19 g/m*3 25.6 C 0 km/h
321 07-07-2011 16:02:02 25.8 C 6.26 g/m*3 25.8 C 0 km/h
322 07-07-2011 16:14:02 24.8 C 6.15 g/m*3 24.8 C 0 km/h
323 07-07-2011 16:26:01 24.8 C 6.15 g/m*3 24.8 C 0 km/h
324 07-07-2011 16:38:02 24.2 C 7.26 g/m*3 24.2 C 0 km/h
325 07-07-2011 16:50:02 24 C 7.61 g/m*3 24 C 0 km/h
Sensor: Nr:Datum:Temp:Abs-Feuchte:Windchill:Wind:
Aussen-T/F 326 07-07-2011 17:02:02 23.9 C 8 g/m*3 23.9 C 0 km/h
327 07-07-2011 17:14:02 24.1 C 7.88 g/m*3 24.1 C 0 km/h
328 07-07-2011 17:26:01 23.2 C 8.11 g/m*3 23.2 C 0 km/h
329 07-07-2011 17:38:02 23.5 C 6.98 g/m*3 23.5 C 0 km/h
330 07-07-2011 17:50:02 23.6 C 7.44 g/m*3 23.6 C 0 km/h
331 07-07-2011 18:02:02 23.4 C 6.73 g/m*3 23.4 C 0 km/h
332 07-07-2011 18:14:02 23.7 C 7.06 g/m*3 23.7 C 0 km/h
333 07-07-2011 18:26:02 23.3 C 7.95 g/m*3 23.3 C 0 km/h
334 07-07-2011 18:38:02 23.6 C 7.44 g/m*3 23.6 C 0 km/h
335 07-07-2011 18:50:01 23.4 C 6.94 g/m*3 23.4 C 0 km/h
336 07-07-2011 19:02:02 22.6 C 8.44 g/m*3 22.6 C 0 km/h
337 07-07-2011 19:14:02 22.5 C 8.59 g/m*3 22.5 C 0 km/h
338 07-07-2011 19:26:02 22.3 C 8.69 g/m*3 22.3 C 0 km/h
339 07-07-2011 19:38:02 21.8 C 9.02 g/m*3 21.8 C 0 km/h
340 07-07-2011 19:50:02 21.6 C 8.91 g/m*3 21.6 C 0 km/h
341 07-07-2011 20:02:01 21.1 C 8.29 g/m*3 21.1 C 0 km/h
342 07-07-2011 20:14:01 21 C 8.43 g/m*3 21 C 0 km/h
343 07-07-2011 20:26:02 21.1 C 8.29 g/m*3 21.1 C 0 km/h
344 07-07-2011 20:38:01 21 C 8.43 g/m*3 21 C 0 km/h
345 07-07-2011 20:50:02 20.8 C 8.33 g/m*3 20.8 C 0 km/h
346 07-07-2011 21:02:01 21 C 8.43 g/m*3 21 C 0 km/h
347 07-07-2011 21:14:01 20.6 C 8.59 g/m*3 20.6 C 0 km/h
348 07-07-2011 21:26:01 20.3 C 8.62 g/m*3 20.3 C 0 km/h
349 07-07-2011 21:38:02 20 C 8.64 g/m*3 20 C 0 km/h
350 07-07-2011 21:51:03 19.7 C 8.66 g/m*3 19.7 C 0 km/h
Sensor: Nr:Datum:Temp:Abs-Feuchte:Windchill:Wind:
Aussen-T/F 351 07-07-2011 22:03:03 19.5 C 8.73 g/m*3 19.5 C 0 km/h
352 07-07-2011 22:15:03 18.7 C 9.13 g/m*3 18.7 C 0 km/h
353 07-07-2011 22:27:03 18.4 C 8.97 g/m*3 18.4 C 0 km/h
354 07-07-2011 22:39:03 18.5 C 9.02 g/m*3 18.5 C 0 km/h
355 07-07-2011 22:51:03 18.8 C 8.86 g/m*3 18.8 C 0 km/h
356 07-07-2011 23:03:03 18.8 C 8.86 g/m*3 18.8 C 0 km/h
357 07-07-2011 23:15:03 18.7 C 8.81 g/m*3 18.7 C 0 km/h
358 07-07-2011 23:27:03 18.4 C 8.81 g/m*3 18.4 C 0 km/h
359 07-07-2011 23:39:03 18.2 C 8.86 g/m*3 18.2 C 0 km/h
360 07-07-2011 23:51:03 18.1 C 8.81 g/m*3 18.1 C 0 km/h
361 08-07-2011 00:03:03 17.8 C 8.95 g/m*3 17.8 C 0 km/h
362 08-07-2011 00:15:03 17.3 C 8.99 g/m*3 17.3 C 0 km/h
363 08-07-2011 00:27:03 17.1 C 9.03 g/m*3 17.1 C 0 km/h
364 08-07-2011 00:39:03 17.1 C 9.03 g/m*3 17.1 C 0 km/h
365 08-07-2011 00:51:03 17.2 C 9.08 g/m*3 17.2 C 0 km/h
366 08-07-2011 01:03:03 17.3 C 9.13 g/m*3 17.3 C 0 km/h
367 08-07-2011 01:15:03 17.4 C 9.04 g/m*3 17.4 C 0 km/h
368 08-07-2011 01:27:03 17.3 C 9.13 g/m*3 17.3 C 0 km/h
369 08-07-2011 01:39:04 17.5 C 9.09 g/m*3 17.5 C 0 km/h
370 08-07-2011 01:51:04 17.3 C 8.99 g/m*3 17.3 C 0 km/h
371 08-07-2011 02:03:04 17.1 C 9.03 g/m*3 17.1 C 0 km/h
372 08-07-2011 02:15:04 17.2 C 9.08 g/m*3 17.2 C 0 km/h
373 08-07-2011 02:27:04 17.1 C 9.03 g/m*3 17.1 C 0 km/h
374 08-07-2011 02:39:04 16.9 C 9.06 g/m*3 16.9 C 0 km/h
375 08-07-2011 02:51:04 16.8 C 9.29 g/m*3 16.8 C 0 km/h
Sensor: Nr:Datum:Temp:Abs-Feuchte:Windchill:Wind:
Aussen-T/F 376 08-07-2011 03:03:04 17 C 9.26 g/m*3 17 C 0 km/h
377 08-07-2011 03:15:04 16.7 C 9.24 g/m*3 16.7 C 0 km/h
378 08-07-2011 03:27:04 16.9 C 9.35 g/m*3 16.9 C 0 km/h
379 08-07-2011 03:39:04 17 C 9.26 g/m*3 17 C 0 km/h
380 08-07-2011 03:51:04 16.4 C 9.35 g/m*3 16.4 C 0 km/h
381 08-07-2011 04:03:04 15.8 C 9.69 g/m*3 15.8 C 0 km/h
382 08-07-2011 04:15:04 15.3 C 9.92 g/m*3 15.3 C 0 km/h
383 08-07-2011 04:27:04 15.2 C 10.25 g/m*3 15.2 C 0 km/h
384 08-07-2011 04:39:04 14.9 C 10.32 g/m*3 14.9 C 0 km/h
385 08-07-2011 04:51:04 14.9 C 10.58 g/m*3 14.9 C 0 km/h
386 08-07-2011 05:03:04 14.7 C 10.58 g/m*3 14.7 C 0 km/h
387 08-07-2011 05:15:04 14.5 C 10.57 g/m*3 14.5 C 0 km/h
388 08-07-2011 05:27:04 14.5 C 10.7 g/m*3 14.5 C 0 km/h
389 08-07-2011 05:39:04 14.4 C 10.63 g/m*3 14.4 C 0 km/h
390 08-07-2011 05:51:04 14.3 C 10.57 g/m*3 14.3 C 0 km/h
391 08-07-2011 06:03:04 14 C 10.37 g/m*3 14 C 0 km/h
392 08-07-2011 06:15:05 13.7 C 10.3 g/m*3 13.7 C 0 km/h
393 08-07-2011 06:27:05 13.6 C 10.24 g/m*3 13.6 C 0 km/h
394 08-07-2011 06:39:05 13.6 C 10.24 g/m*3 13.6 C 0 km/h
395 08-07-2011 06:51:05 13.9 C 10.43 g/m*3 13.9 C 0 km/h
396 08-07-2011 07:03:05 14.1 C 10.32 g/m*3 14.1 C 0 km/h
397 08-07-2011 07:15:05 14.5 C 10.32 g/m*3 14.5 C 0 km/h
398 08-07-2011 07:27:05 14.6 C 10.14 g/m*3 14.6 C 0 km/h
399 08-07-2011 07:39:03 14.7 C 10.07 g/m*3 14.7 C 0 km/h
400 08-07-2011 07:51:02 15 C 10.13 g/m*3 15 C 0 km/h
Sensor: Nr:Datum:Temp:Abs-Feuchte:Windchill:Wind:
Aussen-T/F 401 08-07-2011 08:03:02 15.6 C 9.84 g/m*3 15.6 C 0 km/h
402 08-07-2011 08:15:02 15.8 C 9.69 g/m*3 15.8 C 0 km/h
403 08-07-2011 08:27:02 16 C 9.81 g/m*3 16 C 0 km/h
404 08-07-2011 08:39:02 17.2 C 9.81 g/m*3 17.2 C 0 km/h
405 08-07-2011 08:51:01 17.8 C 9.11 g/m*3 17.8 C 0 km/h
406 08-07-2011 09:03:02 17.9 C 8.7 g/m*3 17.9 C 0 km/h
407 08-07-2011 09:15:02 17.8 C 8.65 g/m*3 17.8 C 0 km/h
408 08-07-2011 09:27:02 17.5 C 8.5 g/m*3 17.5 C 0 km/h
409 08-07-2011 09:39:01 17.8 C 8.65 g/m*3 17.8 C 0 km/h
410 08-07-2011 09:51:02 18.1 C 8.5 g/m*3 18.1 C 0 km/h
411 08-07-2011 10:03:01 18.5 C 8.23 g/m*3 18.5 C 0 km/h
412 08-07-2011 10:15:01 18.9 C 7.94 g/m*3 18.9 C 0 km/h
413 08-07-2011 10:27:01 18.9 C 7.94 g/m*3 18.9 C 0 km/h
414 08-07-2011 10:39:02 18.9 C 8.1 g/m*3 18.9 C 0 km/h
415 08-07-2011 10:51:02 20.8 C 7.79 g/m*3 20.8 C 0 km/h
416 08-07-2011 11:03:02 20.3 C 7.03 g/m*3 20.3 C 0 km/h
417 08-07-2011 11:15:02 20.2 C 6.99 g/m*3 20.2 C 0 km/h
418 08-07-2011 11:27:02 19.9 C 7.04 g/m*3 19.9 C 0 km/h
419 08-07-2011 11:39:02 20.3 C 6.68 g/m*3 20.3 C 0 km/h
420 08-07-2011 11:51:02 20.2 C 6.82 g/m*3 20.2 C 0 km/h
421 08-07-2011 12:03:02 20.7 C 6.84 g/m*3 20.7 C 0 km/h
422 08-07-2011 12:15:02 20.6 C 6.8 g/m*3 20.6 C 0 km/h
423 08-07-2011 12:27:02 20.9 C 6.92 g/m*3 20.9 C 0 km/h
424 08-07-2011 12:39:01 21.8 C 6.72 g/m*3 21.8 C 0 km/h
425 08-07-2011 12:51:02 21 C 6.78 g/m*3 21 C 0 km/h
Sensor: Nr:Datum:Temp:Abs-Feuchte:Windchill:Wind:
Aussen-T/F 426 08-07-2011 13:03:01 21.9 C 6.75 g/m*3 21.9 C 0 km/h
427 08-07-2011 13:15:02 22.3 C 6.91 g/m*3 22.3 C 0 km/h
428 08-07-2011 13:27:02 23.7 C 6.42 g/m*3 23.7 C 0 km/h
429 08-07-2011 13:39:01 25.9 C 6.54 g/m*3 25.9 C 0 km/h
430 08-07-2011 13:51:03 28.4 C 6.12 g/m*3 28.4 C 0 km/h
431 08-07-2011 14:03:02 27.7 C 5.62 g/m*3 27.7 C 0 km/h
432 08-07-2011 14:15:02 25.4 C 5.41 g/m*3 25.4 C 0 km/h
433 08-07-2011 14:27:03 23.7 C 6.42 g/m*3 23.7 C 0 km/h
434 08-07-2011 14:39:02 25 C 5.75 g/m*3 25 C 0 km/h
435 08-07-2011 14:51:02 24.3 C 5.97 g/m*3 24.3 C 0 km/h
436 08-07-2011 15:03:01 25.6 C 6.19 g/m*3 25.6 C 0 km/h
437 08-07-2011 15:15:02 24.5 C 5.82 g/m*3 24.5 C 0 km/h
438 08-07-2011 15:27:02 26.2 C 6.4 g/m*3 26.2 C 0 km/h
439 08-07-2011 15:39:02 26.7 C 6.33 g/m*3 26.7 C 0 km/h
440 08-07-2011 15:51:01 23.8 C 6.24 g/m*3 23.8 C 0 km/h
441 08-07-2011 16:03:02 26.2 C 5.91 g/m*3 26.2 C 0 km/h
442 08-07-2011 16:15:01 24.4 C 6.23 g/m*3 24.4 C 0 km/h
443 08-07-2011 16:27:01 27.6 C 5.85 g/m*3 27.6 C 0 km/h
444 08-07-2011 16:39:02 26 C 6.09 g/m*3 26 C 0 km/h
445 08-07-2011 16:51:02 23.9 C 6.06 g/m*3 23.9 C 0 km/h
446 08-07-2011 17:03:02 24.8 C 5.69 g/m*3 24.8 C 0 km/h
447 08-07-2011 17:15:01 26 C 5.11 g/m*3 26 C 0 km/h
448 08-07-2011 17:27:01 26.3 C 5.69 g/m*3 26.3 C 0 km/h
449 08-07-2011 17:39:02 27.1 C 5.43 g/m*3 27.1 C 0 km/h
450 08-07-2011 17:51:02 27.7 C 5.62 g/m*3 27.7 C 0 km/h
Sensor: Nr:Datum:Temp:Abs-Feuchte:Windchill:Wind:
Aussen-T/F 451 08-07-2011 18:03:02 28.4 C 5.56 g/m*3 28.4 C 0 km/h
452 08-07-2011 18:15:01 28.7 C 5.65 g/m*3 28.7 C 0 km/h
453 08-07-2011 18:27:01 27.1 C 5.18 g/m*3 27.1 C 0 km/h
454 08-07-2011 18:39:02 27 C 5.15 g/m*3 27 C 0 km/h
455 08-07-2011 18:51:02 26.9 C 5.12 g/m*3 26.9 C 0 km/h
456 08-07-2011 19:03:02 26.6 C 5.03 g/m*3 26.6 C 0 km/h
457 08-07-2011 19:15:02 26 C 4.87 g/m*3 26 C 0 km/h
458 08-07-2011 19:27:02 26.1 C 4.9 g/m*3 26.1 C 0 km/h
459 08-07-2011 19:39:02 26 C 4.87 g/m*3 26 C 0 km/h
460 08-07-2011 19:51:02 24.4 C 5.56 g/m*3 24.4 C 0 km/h
461 08-07-2011 20:03:02 23.7 C 5.78 g/m*3 23.7 C 0 km/h
462 08-07-2011 20:15:02 23 C 6.58 g/m*3 23 C 0 km/h
463 08-07-2011 20:27:02 22.7 C 7.27 g/m*3 22.7 C 0 km/h
464 08-07-2011 20:39:01 22.2 C 7.26 g/m*3 22.2 C 0 km/h
465 08-07-2011 20:51:02 21.6 C 7.78 g/m*3 21.6 C 0 km/h
466 08-07-2011 21:03:01 20.8 C 7.97 g/m*3 20.8 C 0 km/h
467 08-07-2011 21:15:02 19.9 C 8.08 g/m*3 19.9 C 0 km/h
468 08-07-2011 21:27:02 19.2 C 8.08 g/m*3 19.2 C 0 km/h
469 08-07-2011 21:39:02 18.5 C 7.91 g/m*3 18.5 C 0 km/h
470 08-07-2011 21:51:02 18.2 C 7.62 g/m*3 18.2 C 0 km/h
471 08-07-2011 22:03:02 18 C 7.53 g/m*3 18 C 0 km/h
472 08-07-2011 22:16:03 17.8 C 7.59 g/m*3 17.8 C 0 km/h
473 08-07-2011 22:28:03 17.7 C 7.85 g/m*3 17.7 C 0 km/h
474 08-07-2011 22:40:03 17.9 C 7.79 g/m*3 17.9 C 0 km/h
475 08-07-2011 22:52:03 17.9 C 7.63 g/m*3 17.9 C 0 km/h
Sensor: Nr:Datum:Temp:Abs-Feuchte:Windchill:Wind:
Aussen-T/F 476 08-07-2011 23:04:03 17.1 C 7.42 g/m*3 17.1 C 0 km/h
477 08-07-2011 23:16:03 16.6 C 7.77 g/m*3 16.6 C 0 km/h
478 08-07-2011 23:28:03 16.5 C 8 g/m*3 16.5 C 0 km/h
479 08-07-2011 23:40:03 16.6 C 8.05 g/m*3 16.6 C 0 km/h
480 08-07-2011 23:52:03 16.6 C 8.19 g/m*3 16.6 C 0 km/h
481 09-07-2011 00:04:03 16.4 C 8.1 g/m*3 16.4 C 0 km/h
482 09-07-2011 00:16:03 16.4 C 8.23 g/m*3 16.4 C 0 km/h
483 09-07-2011 00:28:03 16.1 C 8.22 g/m*3 16.1 C 0 km/h
484 09-07-2011 00:40:03 16 C 8.31 g/m*3 16 C 0 km/h
485 09-07-2011 00:52:03 15.6 C 8.38 g/m*3 15.6 C 0 km/h
486 09-07-2011 01:04:03 15.3 C 8.36 g/m*3 15.3 C 0 km/h
487 09-07-2011 01:16:03 15.6 C 8.25 g/m*3 15.6 C 0 km/h
488 09-07-2011 01:28:03 15.6 C 8.25 g/m*3 15.6 C 0 km/h
489 09-07-2011 01:40:03 15.7 C 8.3 g/m*3 15.7 C 0 km/h
490 09-07-2011 01:52:03 15.5 C 8.2 g/m*3 15.5 C 0 km/h
491 09-07-2011 02:04:03 15.3 C 8.23 g/m*3 15.3 C 0 km/h
492 09-07-2011 02:16:03 15.2 C 8.31 g/m*3 15.2 C 0 km/h
493 09-07-2011 02:28:03 15.1 C 8.39 g/m*3 15.1 C 0 km/h
494 09-07-2011 02:40:04 14.7 C 8.44 g/m*3 14.7 C 0 km/h
495 09-07-2011 02:52:04 14.3 C 8.23 g/m*3 14.3 C 0 km/h
496 09-07-2011 03:04:04 14.2 C 8.3 g/m*3 14.2 C 0 km/h
497 09-07-2011 03:16:04 14 C 8.2 g/m*3 14 C 0 km/h
498 09-07-2011 03:28:04 14 C 8.44 g/m*3 14 C 0 km/h
499 09-07-2011 03:40:04 13.9 C 8.51 g/m*3 13.9 C 0 km/h
500 09-07-2011 03:52:04 13.8 C 8.46 g/m*3 13.8 C 0 km/h
Sensor: Nr:Datum:Temp:Abs-Feuchte:Windchill:Wind:
Aussen-T/F 501 09-07-2011 04:04:04 13.7 C 8.41 g/m*3 13.7 C 0 km/h
502 09-07-2011 04:16:04 13.8 C 8.46 g/m*3 13.8 C 0 km/h
503 09-07-2011 04:28:04 14.1 C 8.5 g/m*3 14.1 C 0 km/h
504 09-07-2011 04:40:04 14.1 C 8.62 g/m*3 14.1 C 0 km/h
505 09-07-2011 04:52:04 14.2 C 8.67 g/m*3 14.2 C 0 km/h
506 09-07-2011 05:04:04 14.2 C 8.79 g/m*3 14.2 C 0 km/h
507 09-07-2011 05:16:04 14.3 C 8.85 g/m*3 14.3 C 0 km/h
508 09-07-2011 05:28:04 14.6 C 9.01 g/m*3 14.6 C 0 km/h
509 09-07-2011 05:40:04 14.6 C 9.01 g/m*3 14.6 C 0 km/h
510 09-07-2011 05:52:04 14.7 C 9.07 g/m*3 14.7 C 0 km/h
511 09-07-2011 06:04:04 14.8 C 9.12 g/m*3 14.8 C 0 km/h
512 09-07-2011 06:16:04 15.1 C 9.16 g/m*3 15.1 C 0 km/h
513 09-07-2011 06:28:04 15.3 C 9.14 g/m*3 15.3 C 0 km/h
514 09-07-2011 06:40:03 15.4 C 9.2 g/m*3 15.4 C 0 km/h
515 09-07-2011 06:52:02 15.7 C 9.37 g/m*3 15.7 C 0 km/h
516 09-07-2011 07:04:01 15.9 C 9.34 g/m*3 15.9 C 0 km/h
517 09-07-2011 07:16:02 16.1 C 9.32 g/m*3 16.1 C 0 km/h
518 09-07-2011 07:28:02 16.2 C 9.52 g/m*3 16.2 C 0 km/h
519 09-07-2011 07:40:02 16.5 C 9.69 g/m*3 16.5 C 0 km/h
520 09-07-2011 07:52:02 16.9 C 9.49 g/m*3 16.9 C 0 km/h
521 09-07-2011 08:04:03 16.8 C 9.44 g/m*3 16.8 C 0 km/h
522 09-07-2011 08:16:02 17.8 C 9.56 g/m*3 17.8 C 0 km/h
523 09-07-2011 08:28:02 19.1 C 8.69 g/m*3 19.1 C 0 km/h
524 09-07-2011 08:40:02 19.7 C 9 g/m*3 19.7 C 0 km/h
525 09-07-2011 08:52:01 20.2 C 8.92 g/m*3 20.2 C 0 km/h
Sensor: Nr:Datum:Temp:Abs-Feuchte:Windchill:Wind:
Aussen-T/F 526 09-07-2011 09:04:02 21.2 C 9.27 g/m*3 21.2 C 0 km/h
527 09-07-2011 09:16:01 21.4 C 8.62 g/m*3 21.4 C 0 km/h
528 09-07-2011 09:28:01 22 C 8.35 g/m*3 22 C 0 km/h
529 09-07-2011 09:40:02 22.9 C 8.38 g/m*3 22.9 C 0 km/h
530 09-07-2011 09:52:02 22.5 C 8.99 g/m*3 22.5 C 0 km/h
531 09-07-2011 10:04:02 22.4 C 9.53 g/m*3 22.4 C 0 km/h
532 09-07-2011 10:16:01 24 C 7.61 g/m*3 24 C 0 km/h
533 09-07-2011 10:28:01 24.7 C 7.02 g/m*3 24.7 C 0 km/h
534 09-07-2011 10:40:02 25.1 C 7.41 g/m*3 25.1 C 0 km/h
535 09-07-2011 10:52:02 25.7 C 7.42 g/m*3 25.7 C 0 km/h
536 09-07-2011 11:04:03 25.1 C 6.94 g/m*3 25.1 C 0 km/h
537 09-07-2011 11:16:02 25.4 C 7.06 g/m*3 25.4 C 0 km/h
538 09-07-2011 11:28:02 25.6 C 7.14 g/m*3 25.6 C 0 km/h
539 09-07-2011 11:40:02 25 C 7.37 g/m*3 25 C 0 km/h
540 09-07-2011 11:52:01 24.9 C 7.32 g/m*3 24.9 C 0 km/h
541 09-07-2011 12:04:02 25.2 C 7.22 g/m*3 25.2 C 0 km/h
542 09-07-2011 12:16:01 24.7 C 7.24 g/m*3 24.7 C 0 km/h
543 09-07-2011 12:28:01 25.1 C 7.41 g/m*3 25.1 C 0 km/h
544 09-07-2011 12:40:01 26.2 C 6.89 g/m*3 26.2 C 0 km/h
545 09-07-2011 12:52:01 25.4 C 7.06 g/m*3 25.4 C 0 km/h
546 09-07-2011 13:04:02 26.4 C 6.97 g/m*3 26.4 C 0 km/h
547 09-07-2011 13:16:02 26.1 C 6.37 g/m*3 26.1 C 0 km/h
548 09-07-2011 13:28:02 28.3 C 6.91 g/m*3 28.3 C 0 km/h
549 09-07-2011 13:40:01 28.9 C 6 g/m*3 28.9 C 0 km/h
550 09-07-2011 13:52:02 30.4 C 6.2 g/m*3 30.4 C 0 km/h
Sensor: Nr:Datum:Temp:Abs-Feuchte:Windchill:Wind:
Aussen-T/F 551 09-07-2011 14:04:01 30.3 C 6.16 g/m*3 30.3 C 0 km/h
552 09-07-2011 14:16:02 27.9 C 5.68 g/m*3 27.9 C 0 km/h
553 09-07-2011 14:28:02 30.1 C 6.1 g/m*3 30.1 C 0 km/h
554 09-07-2011 14:40:01 30 C 6.06 g/m*3 30 C 0 km/h
555 09-07-2011 14:52:03 29 C 5.74 g/m*3 29 C 0 km/h
556 09-07-2011 15:04:02 29.7 C 5.97 g/m*3 29.7 C 0 km/h
557 09-07-2011 15:16:02 29 C 5.74 g/m*3 29 C 0 km/h
558 09-07-2011 15:28:02 29 C 5.74 g/m*3 29 C 0 km/h
559 09-07-2011 15:40:02 29.3 C 5.84 g/m*3 29.3 C 0 km/h
560 09-07-2011 15:52:02 30.4 C 6.2 g/m*3 30.4 C 0 km/h
561 09-07-2011 16:04:01 30 C 6.06 g/m*3 30 C 0 km/h
562 09-07-2011 16:16:02 28.9 C 5.71 g/m*3 28.9 C 0 km/h
563 09-07-2011 16:28:02 28.1 C 5.47 g/m*3 28.1 C 0 km/h
564 09-07-2011 16:40:02 30.3 C 6.16 g/m*3 30.3 C 0 km/h
565 09-07-2011 16:52:02 30.3 C 6.16 g/m*3 30.3 C 0 km/h
566 09-07-2011 17:04:01 31.3 C 6.5 g/m*3 31.3 C 0 km/h
567 09-07-2011 17:16:01 27.9 C 5.41 g/m*3 27.9 C 0 km/h
568 09-07-2011 17:28:01 28.1 C 5.47 g/m*3 28.1 C 0 km/h
569 09-07-2011 17:40:02 27.8 C 5.38 g/m*3 27.8 C 0 km/h
570 09-07-2011 17:52:02 29.7 C 5.97 g/m*3 29.7 C 0 km/h
571 09-07-2011 18:04:02 28.9 C 5.71 g/m*3 28.9 C 0 km/h
572 09-07-2011 18:16:02 26.8 C 5.35 g/m*3 26.8 C 0 km/h
573 09-07-2011 18:28:02 27.3 C 5.76 g/m*3 27.3 C 0 km/h
574 09-07-2011 18:40:02 28.1 C 5.47 g/m*3 28.1 C 0 km/h
575 09-07-2011 18:52:02 26.5 C 5.51 g/m*3 26.5 C 0 km/h
Sensor: Nr:Datum:Temp:Abs-Feuchte:Windchill:Wind:
Aussen-T/F 576 09-07-2011 19:04:02 26 C 5.84 g/m*3 26 C 0 km/h
577 09-07-2011 19:16:02 23.7 C 8.77 g/m*3 23.7 C 0 km/h
578 09-07-2011 19:28:02 22.5 C 8.39 g/m*3 22.5 C 0 km/h
579 09-07-2011 19:40:02 22.3 C 8.49 g/m*3 22.3 C 0 km/h
580 09-07-2011 19:52:01 22.3 C 8.49 g/m*3 22.3 C 0 km/h
581 09-07-2011 20:04:01 23.1 C 8.48 g/m*3 23.1 C 0 km/h
582 09-07-2011 20:16:01 22 C 8.35 g/m*3 22 C 0 km/h
583 09-07-2011 20:28:01 21.1 C 8.48 g/m*3 21.1 C 0 km/h
584 09-07-2011 20:40:01 21.2 C 8.71 g/m*3 21.2 C 0 km/h
585 09-07-2011 20:52:01 21 C 8.43 g/m*3 21 C 0 km/h
586 09-07-2011 21:04:01 20.7 C 8.64 g/m*3 20.7 C 0 km/h
587 09-07-2011 21:16:02 20.6 C 8.59 g/m*3 20.6 C 0 km/h
588 09-07-2011 21:28:02 20.4 C 8.67 g/m*3 20.4 C 0 km/h
589 09-07-2011 21:40:01 20.4 C 8.67 g/m*3 20.4 C 0 km/h
590 09-07-2011 21:52:03 20 C 8.47 g/m*3 20 C 0 km/h
591 09-07-2011 22:04:02 19.5 C 8.56 g/m*3 19.5 C 0 km/h
592 09-07-2011 22:16:03 19.5 C 8.56 g/m*3 19.5 C 0 km/h
593 09-07-2011 22:28:03 19.3 C 8.63 g/m*3 19.3 C 0 km/h
594 09-07-2011 22:40:02 19.1 C 8.69 g/m*3 19.1 C 0 km/h
595 09-07-2011 22:52:03 18.7 C 8.49 g/m*3 18.7 C 0 km/h
596 09-07-2011 23:04:02 17.8 C 8.5 g/m*3 17.8 C 0 km/h
597 09-07-2011 23:17:03 16.8 C 8.58 g/m*3 16.8 C 0 km/h
598 09-07-2011 23:29:03 16.6 C 8.9 g/m*3 16.6 C 0 km/h
599 09-07-2011 23:41:03 16.7 C 8.81 g/m*3 16.7 C 0 km/h
600 09-07-2011 23:53:03 16.6 C 9.04 g/m*3 16.6 C 0 km/h
Sensor: Nr:Datum:Temp:Abs-Feuchte:Windchill:Wind:
Aussen-T/F 601 10-07-2011 00:05:03 16.1 C 8.64 g/m*3 16.1 C 0 km/h
602 10-07-2011 00:17:03 16.2 C 8.69 g/m*3 16.2 C 0 km/h
603 10-07-2011 00:29:03 16.3 C 9.16 g/m*3 16.3 C 0 km/h
604 10-07-2011 00:41:03 16 C 8.86 g/m*3 16 C 0 km/h
605 10-07-2011 00:53:03 15.8 C 9.02 g/m*3 15.8 C 0 km/h
606 10-07-2011 01:05:03 15.1 C 8.77 g/m*3 15.1 C 0 km/h
607 10-07-2011 01:17:03 15 C 9.1 g/m*3 15 C 0 km/h
608 10-07-2011 01:29:03 15.3 C 9.27 g/m*3 15.3 C 0 km/h
609 10-07-2011 01:41:04 14.5 C 8.83 g/m*3 14.5 C 0 km/h
610 10-07-2011 01:53:04 14.4 C 8.9 g/m*3 14.4 C 0 km/h
611 10-07-2011 02:05:04 14 C 8.81 g/m*3 14 C 0 km/h
612 10-07-2011 02:17:04 13.6 C 8.71 g/m*3 13.6 C 0 km/h
613 10-07-2011 02:29:04 13.7 C 8.88 g/m*3 13.7 C 0 km/h
614 10-07-2011 02:41:04 14 C 8.93 g/m*3 14 C 0 km/h
615 10-07-2011 02:53:04 14 C 8.93 g/m*3 14 C 0 km/h
616 10-07-2011 03:05:04 13.8 C 8.82 g/m*3 13.8 C 0 km/h
617 10-07-2011 03:17:04 13.9 C 8.87 g/m*3 13.9 C 0 km/h
618 10-07-2011 03:29:04 14.4 C 9.15 g/m*3 14.4 C 0 km/h
619 10-07-2011 03:41:04 14.6 C 9.26 g/m*3 14.6 C 0 km/h
620 10-07-2011 03:53:04 14.8 C 9.25 g/m*3 14.8 C 0 km/h
621 10-07-2011 04:05:04 14.8 C 9.12 g/m*3 14.8 C 0 km/h
622 10-07-2011 04:17:04 14.7 C 9.07 g/m*3 14.7 C 0 km/h
623 10-07-2011 04:29:04 14.3 C 8.85 g/m*3 14.3 C 0 km/h
624 10-07-2011 04:41:04 13.6 C 8.59 g/m*3 13.6 C 0 km/h
625 10-07-2011 04:53:04 12.8 C 8.51 g/m*3 12.8 C 0 km/h
Sensor: Nr:Datum:Temp:Abs-Feuchte:Windchill:Wind:
Aussen-T/F 626 10-07-2011 05:05:04 12.8 C 8.85 g/m*3 12.8 C 0 km/h
627 10-07-2011 05:17:04 13 C 9.19 g/m*3 13 C 0 km/h
628 10-07-2011 05:29:04 12.9 C 9.24 g/m*3 12.9 C 0 km/h
629 10-07-2011 05:41:05 12.8 C 9.18 g/m*3 12.8 C 0 km/h
630 10-07-2011 05:53:05 12.9 C 9.35 g/m*3 12.9 C 0 km/h
631 10-07-2011 06:05:05 12.8 C 9.18 g/m*3 12.8 C 0 km/h
632 10-07-2011 06:17:05 12.6 C 9.07 g/m*3 12.6 C 0 km/h
633 10-07-2011 06:29:05 12.4 C 8.96 g/m*3 12.4 C 0 km/h
634 10-07-2011 06:41:05 13.2 C 9.53 g/m*3 13.2 C 0 km/h
635 10-07-2011 06:53:05 13.4 C 9.53 g/m*3 13.4 C 0 km/h
636 10-07-2011 07:05:05 13.6 C 9.53 g/m*3 13.6 C 0 km/h
637 10-07-2011 07:17:05 13.8 C 9.65 g/m*3 13.8 C 0 km/h
638 10-07-2011 07:29:05 13.8 C 9.65 g/m*3 13.8 C 0 km/h
639 10-07-2011 07:41:05 14.1 C 9.59 g/m*3 14.1 C 0 km/h
640 10-07-2011 07:53:05 14.3 C 9.58 g/m*3 14.3 C 0 km/h
641 10-07-2011 08:05:05 14.1 C 9.59 g/m*3 14.1 C 0 km/h
642 10-07-2011 08:17:05 14.1 C 9.59 g/m*3 14.1 C 0 km/h
643 10-07-2011 08:29:05 14.4 C 9.77 g/m*3 14.4 C 0 km/h
644 10-07-2011 08:41:05 15 C 10 g/m*3 15 C 0 km/h
645 10-07-2011 08:53:05 15.4 C 10.12 g/m*3 15.4 C 0 km/h
646 10-07-2011 09:05:03 15.7 C 9.63 g/m*3 15.7 C 0 km/h
647 10-07-2011 09:17:02 16.2 C 9.79 g/m*3 16.2 C 0 km/h
648 10-07-2011 09:29:02 16.8 C 9.72 g/m*3 16.8 C 0 km/h
649 10-07-2011 09:41:02 17.6 C 9.45 g/m*3 17.6 C 0 km/h
650 10-07-2011 09:53:02 18.7 C 8.81 g/m*3 18.7 C 0 km/h
Sensor: Nr:Datum:Temp:Abs-Feuchte:Windchill:Wind:
Aussen-T/F 651 10-07-2011 10:05:02 19.5 C 8.73 g/m*3 19.5 C 0 km/h
652 10-07-2011 10:17:02 19.4 C 9.18 g/m*3 19.4 C 0 km/h
653 10-07-2011 10:29:02 20 C 8.64 g/m*3 20 C 0 km/h
654 10-07-2011 10:41:02 21.1 C 7.55 g/m*3 21.1 C 0 km/h
655 10-07-2011 10:53:02 21.9 C 7.33 g/m*3 21.9 C 0 km/h
656 10-07-2011 11:05:01 23.2 C 6.44 g/m*3 23.2 C 0 km/h
657 10-07-2011 11:17:02 22.3 C 6.52 g/m*3 22.3 C 0 km/h
658 10-07-2011 11:29:02 22.1 C 6.05 g/m*3 22.1 C 0 km/h
659 10-07-2011 11:41:02 23 C 6.37 g/m*3 23 C 0 km/h
660 10-07-2011 11:53:02 24.1 C 5.47 g/m*3 24.1 C 0 km/h
661 10-07-2011 12:05:02 23.7 C 5.56 g/m*3 23.7 C 0 km/h
662 10-07-2011 12:17:01 23.8 C 5.59 g/m*3 23.8 C 0 km/h
663 10-07-2011 12:29:01 24.6 C 5.85 g/m*3 24.6 C 0 km/h
664 10-07-2011 12:41:02 25.5 C 5.45 g/m*3 25.5 C 0 km/h
665 10-07-2011 12:53:02 25.9 C 5.08 g/m*3 25.9 C 0 km/h
666 10-07-2011 13:05:02 26.6 C 5.79 g/m*3 26.6 C 0 km/h
667 10-07-2011 13:17:02 26.7 C 5.32 g/m*3 26.7 C 0 km/h
668 10-07-2011 13:29:02 26.3 C 5.2 g/m*3 26.3 C 0 km/h
669 10-07-2011 13:41:02 27 C 5.15 g/m*3 27 C 0 km/h
670 10-07-2011 13:53:01 26.8 C 5.09 g/m*3 26.8 C 0 km/h
671 10-07-2011 14:05:02 27 C 5.15 g/m*3 27 C 0 km/h
672 10-07-2011 14:17:02 27.3 C 5.23 g/m*3 27.3 C 0 km/h
673 10-07-2011 14:29:02 25.5 C 4.97 g/m*3 25.5 C 0 km/h
674 10-07-2011 14:41:02 25.5 C 5.21 g/m*3 25.5 C 0 km/h
675 10-07-2011 14:53:02 26.4 C 5.23 g/m*3 26.4 C 0 km/h
Sensor: Nr:Datum:Temp:Abs-Feuchte:Windchill:Wind:
Aussen-T/F 676 10-07-2011 15:05:01 26.3 C 5.69 g/m*3 26.3 C 0 km/h
677 10-07-2011 15:17:02 26.3 C 5.2 g/m*3 26.3 C 0 km/h
678 10-07-2011 15:29:03 25.6 C 5.95 g/m*3 25.6 C 0 km/h
679 10-07-2011 15:41:01 24.7 C 6.11 g/m*3 24.7 C 0 km/h
680 10-07-2011 15:53:02 24.2 C 6.16 g/m*3 24.2 C 0 km/h
681 10-07-2011 16:05:02 24 C 7.4 g/m*3 24 C 0 km/h
682 10-07-2011 16:17:02 23 C 8.43 g/m*3 23 C 0 km/h
683 10-07-2011 16:29:02 21.3 C 9.69 g/m*3 21.3 C 0 km/h
684 10-07-2011 16:41:03 20.8 C 9.78 g/m*3 20.8 C 0 km/h
685 10-07-2011 16:53:02 20.8 C 9.78 g/m*3 20.8 C 0 km/h
686 10-07-2011 17:05:02 20.9 C 9.83 g/m*3 20.9 C 0 km/h
687 10-07-2011 17:17:02 21.2 C 9.82 g/m*3 21.2 C 0 km/h
688 10-07-2011 17:29:02 21.7 C 9.35 g/m*3 21.7 C 0 km/h
689 10-07-2011 17:41:02 22.4 C 9.14 g/m*3 22.4 C 0 km/h
690 10-07-2011 17:53:02 23.3 C 8.36 g/m*3 23.3 C 0 km/h
691 10-07-2011 18:05:02 22.7 C 7.48 g/m*3 22.7 C 0 km/h
692 10-07-2011 18:17:02 22.4 C 8.54 g/m*3 22.4 C 0 km/h
693 10-07-2011 18:29:02 22 C 9.7 g/m*3 22 C 0 km/h
694 10-07-2011 18:41:02 20.5 C 10.32 g/m*3 20.5 C 0 km/h
695 10-07-2011 18:53:02 19.3 C 10.62 g/m*3 19.3 C 0 km/h
696 10-07-2011 19:05:02 19 C 10.43 g/m*3 19 C 0 km/h
697 10-07-2011 19:17:02 19.3 C 10.28 g/m*3 19.3 C 0 km/h
698 10-07-2011 19:29:02 18.6 C 10.03 g/m*3 18.6 C 0 km/h
699 10-07-2011 19:41:02 18.3 C 10.32 g/m*3 18.3 C 0 km/h
700 10-07-2011 19:53:02 17.6 C 10.8 g/m*3 17.6 C 0 km/h
Sensor: Nr:Datum:Temp:Abs-Feuchte:Windchill:Wind:
Aussen-T/F 701 10-07-2011 20:05:02 16.9 C 10.79 g/m*3 16.9 C 0 km/h
702 10-07-2011 20:17:03 16.6 C 10.88 g/m*3 16.6 C 0 km/h
703 10-07-2011 20:29:03 16.6 C 11.3 g/m*3 16.6 C 0 km/h
704 10-07-2011 20:41:02 16.4 C 11.31 g/m*3 16.4 C 0 km/h
705 10-07-2011 20:53:03 16.5 C 11.37 g/m*3 16.5 C 0 km/h
706 10-07-2011 21:05:02 16.5 C 11.37 g/m*3 16.5 C 0 km/h
707 10-07-2011 21:17:02 16.4 C 11.31 g/m*3 16.4 C 0 km/h
708 10-07-2011 21:29:02 16.1 C 11.24 g/m*3 16.1 C 0 km/h
709 10-07-2011 21:41:03 15.8 C 11.17 g/m*3 15.8 C 0 km/h
710 10-07-2011 21:53:03 15.8 C 11.17 g/m*3 15.8 C 0 km/h
711 10-07-2011 22:05:02 15.6 C 10.91 g/m*3 15.6 C 0 km/h
712 10-07-2011 22:18:02 15.2 C 10.64 g/m*3 15.2 C 0 km/h
713 10-07-2011 22:30:02 15.1 C 10.45 g/m*3 15.1 C 0 km/h
714 10-07-2011 22:42:03 15.3 C 10.58 g/m*3 15.3 C 0 km/h
715 10-07-2011 22:54:03 15.2 C 10.51 g/m*3 15.2 C 0 km/h
716 10-07-2011 23:06:03 14.9 C 10.58 g/m*3 14.9 C 0 km/h
717 10-07-2011 23:18:03 14.9 C 10.58 g/m*3 14.9 C 0 km/h
718 10-07-2011 23:30:03 14.8 C 10.64 g/m*3 14.8 C 0 km/h
719 10-07-2011 23:42:03 14.6 C 10.51 g/m*3 14.6 C 0 km/h
720 10-07-2011 23:54:03 14.7 C 10.7 g/m*3 14.7 C 0 km/h
721 11-07-2011 00:06:03 14.9 C 10.96 g/m*3 14.9 C 0 km/h
722 11-07-2011 00:18:03 14.8 C 10.89 g/m*3 14.8 C 0 km/h
723 11-07-2011 00:30:03 14.9 C 10.96 g/m*3 14.9 C 0 km/h
724 11-07-2011 00:42:03 15 C 10.9 g/m*3 15 C 0 km/h
725 11-07-2011 00:54:03 14.6 C 10.64 g/m*3 14.6 C 0 km/h
Sensor: Nr:Datum:Temp:Abs-Feuchte:Windchill:Wind:
Aussen-T/F 726 11-07-2011 01:06:03 14.5 C 10.7 g/m*3 14.5 C 0 km/h
727 11-07-2011 01:18:03 14.2 C 10.5 g/m*3 14.2 C 0 km/h
728 11-07-2011 01:30:03 14.5 C 10.82 g/m*3 14.5 C 0 km/h
729 11-07-2011 01:42:03 14.7 C 10.95 g/m*3 14.7 C 0 km/h
730 11-07-2011 01:54:03 14.8 C 11.15 g/m*3 14.8 C 0 km/h
731 11-07-2011 02:06:03 14.7 C 11.08 g/m*3 14.7 C 0 km/h
732 11-07-2011 02:18:03 14.6 C 10.89 g/m*3 14.6 C 0 km/h
733 11-07-2011 02:30:03 14.4 C 10.75 g/m*3 14.4 C 0 km/h
734 11-07-2011 02:42:03 14.3 C 10.69 g/m*3 14.3 C 0 km/h
735 11-07-2011 02:54:04 14.3 C 10.69 g/m*3 14.3 C 0 km/h
736 11-07-2011 03:06:04 14.3 C 10.69 g/m*3 14.3 C 0 km/h
737 11-07-2011 03:18:04 13.8 C 10.48 g/m*3 13.8 C 0 km/h
738 11-07-2011 03:30:04 13.5 C 10.29 g/m*3 13.5 C 0 km/h
739 11-07-2011 03:42:04 13.2 C 10.1 g/m*3 13.2 C 0 km/h
740 11-07-2011 03:54:04 13.5 C 10.29 g/m*3 13.5 C 0 km/h
741 11-07-2011 04:06:04 13.3 C 10.17 g/m*3 13.3 C 0 km/h
742 11-07-2011 04:18:04 13.1 C 10.04 g/m*3 13.1 C 0 km/h
743 11-07-2011 04:30:04 13 C 9.98 g/m*3 13 C 0 km/h
744 11-07-2011 04:42:04 13 C 9.98 g/m*3 13 C 0 km/h
745 11-07-2011 04:54:04 12.9 C 10.03 g/m*3 12.9 C 0 km/h
746 11-07-2011 05:06:04 12.7 C 9.91 g/m*3 12.7 C 0 km/h
747 11-07-2011 05:18:04 12.6 C 9.85 g/m*3 12.6 C 0 km/h
748 11-07-2011 05:30:04 13 C 10.09 g/m*3 13 C 0 km/h
749 11-07-2011 05:42:04 13.1 C 10.16 g/m*3 13.1 C 0 km/h
750 11-07-2011 05:54:04 13.6 C 10.47 g/m*3 13.6 C 0 km/h
Sensor: Nr:Datum:Temp:Abs-Feuchte:Windchill:Wind:
Aussen-T/F 751 11-07-2011 06:06:04 13.7 C 10.66 g/m*3 13.7 C 0 km/h
752 11-07-2011 06:18:04 13.7 C 10.54 g/m*3 13.7 C 0 km/h
753 11-07-2011 06:30:04 14 C 10.74 g/m*3 14 C 0 km/h
754 11-07-2011 06:42:04 14.2 C 10.87 g/m*3 14.2 C 0 km/h
755 11-07-2011 06:54:04 14.5 C 10.94 g/m*3 14.5 C 0 km/h
756 11-07-2011 07:06:05 14.8 C 10.77 g/m*3 14.8 C 0 km/h
757 11-07-2011 07:18:02 15 C 10.51 g/m*3 15 C 0 km/h
758 11-07-2011 07:30:02 15.4 C 10.51 g/m*3 15.4 C 0 km/h
759 11-07-2011 07:42:02 15.3 C 10.32 g/m*3 15.3 C 0 km/h
760 11-07-2011 07:54:02 15.6 C 10.37 g/m*3 15.6 C 0 km/h
761 11-07-2011 08:06:02 15.5 C 10.31 g/m*3 15.5 C 0 km/h
762 11-07-2011 08:18:01 15.3 C 10.19 g/m*3 15.3 C 0 km/h
763 11-07-2011 08:30:01 15.7 C 10.44 g/m*3 15.7 C 0 km/h
764 11-07-2011 08:42:02 16.2 C 10.34 g/m*3 16.2 C 0 km/h
765 11-07-2011 08:54:02 16.9 C 10.36 g/m*3 16.9 C 0 km/h
766 11-07-2011 09:06:02 17.2 C 9.81 g/m*3 17.2 C 0 km/h
767 11-07-2011 09:18:01 17.5 C 9.99 g/m*3 17.5 C 0 km/h
768 11-07-2011 09:30:01 18.2 C 9.79 g/m*3 18.2 C 0 km/h
769 11-07-2011 09:42:02 17.6 C 9.9 g/m*3 17.6 C 0 km/h
770 11-07-2011 09:54:01 17.4 C 9.93 g/m*3 17.4 C 0 km/h
771 11-07-2011 10:06:02 17.8 C 10.17 g/m*3 17.8 C 0 km/h
772 11-07-2011 10:18:01 18 C 9.98 g/m*3 18 C 0 km/h
773 11-07-2011 10:30:01 18.5 C 10.13 g/m*3 18.5 C 0 km/h
774 11-07-2011 10:42:02 19 C 9.78 g/m*3 19 C 0 km/h
775 11-07-2011 10:54:02 20 C 9.68 g/m*3 20 C 0 km/h
Sensor: Nr:Datum:Temp:Abs-Feuchte:Windchill:Wind:
Aussen-T/F 776 11-07-2011 11:06:02 20.5 C 9.07 g/m*3 20.5 C 0 km/h
777 11-07-2011 11:18:01 20.7 C 8.64 g/m*3 20.7 C 0 km/h
778 11-07-2011 11:30:01 21.2 C 7.41 g/m*3 21.2 C 0 km/h
779 11-07-2011 11:42:02 21.4 C 7.69 g/m*3 21.4 C 0 km/h
780 11-07-2011 11:54:02 21.6 C 7.59 g/m*3 21.6 C 0 km/h
781 11-07-2011 12:06:02 22.1 C 7.81 g/m*3 22.1 C 0 km/h
782 11-07-2011 12:18:01 22.2 C 8.44 g/m*3 22.2 C 0 km/h
783 11-07-2011 12:30:01 23 C 8.02 g/m*3 23 C 0 km/h
784 11-07-2011 12:42:02 23.7 C 7.49 g/m*3 23.7 C 0 km/h
785 11-07-2011 12:54:02 24.2 C 7.04 g/m*3 24.2 C 0 km/h
786 11-07-2011 13:06:02 25.2 C 7.22 g/m*3 25.2 C 0 km/h
787 11-07-2011 13:18:02 25 C 7.14 g/m*3 25 C 0 km/h
788 11-07-2011 13:30:02 26.3 C 7.43 g/m*3 26.3 C 0 km/h
789 11-07-2011 13:42:02 29.2 C 7.26 g/m*3 29.2 C 0 km/h
790 11-07-2011 13:54:02 30.1 C 6.71 g/m*3 30.1 C 0 km/h
791 11-07-2011 14:06:02 27.4 C 6.84 g/m*3 27.4 C 0 km/h
792 11-07-2011 14:18:02 25.8 C 7.22 g/m*3 25.8 C 0 km/h
793 11-07-2011 14:30:02 27.5 C 6.88 g/m*3 27.5 C 0 km/h
794 11-07-2011 14:42:01 31.4 C 6.54 g/m*3 31.4 C 0 km/h
795 11-07-2011 14:54:02 31.4 C 6.54 g/m*3 31.4 C 0 km/h
796 11-07-2011 15:06:01 29.2 C 6.39 g/m*3 29.2 C 0 km/h
797 11-07-2011 15:18:02 31.1 C 6.43 g/m*3 31.1 C 0 km/h
798 11-07-2011 15:30:02 29.3 C 6.13 g/m*3 29.3 C 0 km/h
799 11-07-2011 15:42:01 29 C 6.61 g/m*3 29 C 0 km/h
800 11-07-2011 15:54:02 30 C 6.06 g/m*3 30 C 0 km/h
Sensor: Nr:Datum:Temp:Abs-Feuchte:Windchill:Wind:
Aussen-T/F 801 11-07-2011 16:06:02 28.2 C 6.05 g/m*3 28.2 C 0 km/h
802 11-07-2011 16:18:02 31.2 C 6.47 g/m*3 31.2 C 0 km/h
803 11-07-2011 16:30:02 32.5 C 6.93 g/m*3 32.5 C 0 km/h
804 11-07-2011 16:42:03 33.2 C 7.2 g/m*3 33.2 C 0 km/h
805 11-07-2011 16:54:02 32.6 C 6.97 g/m*3 32.6 C 0 km/h
806 11-07-2011 17:06:02 32.2 C 6.82 g/m*3 32.2 C 0 km/h
807 11-07-2011 17:18:01 31.5 C 6.57 g/m*3 31.5 C 0 km/h
808 11-07-2011 17:30:01 30.8 C 6.33 g/m*3 30.8 C 0 km/h
809 11-07-2011 17:42:02 32.5 C 6.93 g/m*3 32.5 C 0 km/h
810 11-07-2011 17:54:02 33 C 7.12 g/m*3 33 C 0 km/h
811 11-07-2011 18:06:02 32.8 C 7.04 g/m*3 32.8 C 0 km/h
812 11-07-2011 18:18:02 32 C 6.75 g/m*3 32 C 0 km/h
813 11-07-2011 18:30:02 32.6 C 6.97 g/m*3 32.6 C 0 km/h
814 11-07-2011 18:42:02 30.9 C 6.37 g/m*3 30.9 C 0 km/h
815 11-07-2011 18:54:02 30 C 6.06 g/m*3 30 C 0 km/h
816 11-07-2011 19:06:02 28.8 C 5.68 g/m*3 28.8 C 0 km/h
817 11-07-2011 19:18:02 29.1 C 6.64 g/m*3 29.1 C 0 km/h
818 11-07-2011 19:30:02 30.9 C 6.37 g/m*3 30.9 C 0 km/h
819 11-07-2011 19:42:02 30.5 C 6.23 g/m*3 30.5 C 0 km/h
820 11-07-2011 19:54:01 28.2 C 6.05 g/m*3 28.2 C 0 km/h
821 11-07-2011 20:06:01 26.9 C 6.4 g/m*3 26.9 C 0 km/h
822 11-07-2011 20:18:02 25.7 C 7.18 g/m*3 25.7 C 0 km/h
823 11-07-2011 20:30:02 24.9 C 8.47 g/m*3 24.9 C 0 km/h
824 11-07-2011 20:42:01 23.6 C 8.29 g/m*3 23.6 C 0 km/h
825 11-07-2011 20:54:01 22.5 C 8.19 g/m*3 22.5 C 0 km/h
Sensor: Nr:Datum:Temp:Abs-Feuchte:Windchill:Wind:
Aussen-T/F 826 11-07-2011 21:06:02 21.9 C 8.3 g/m*3 21.9 C 0 km/h
827 11-07-2011 21:18:01 21.6 C 8.35 g/m*3 21.6 C 0 km/h
828 11-07-2011 21:30:01 21.2 C 8.15 g/m*3 21.2 C 0 km/h
829 11-07-2011 21:42:01 20.8 C 8.33 g/m*3 20.8 C 0 km/h
830 11-07-2011 21:54:01 20 C 8.3 g/m*3 20 C 0 km/h
831 11-07-2011 22:06:02 19.5 C 8.22 g/m*3 19.5 C 0 km/h
832 11-07-2011 22:18:01 19.4 C 8.18 g/m*3 19.4 C 0 km/h
833 11-07-2011 22:30:01 18.9 C 8.26 g/m*3 18.9 C 0 km/h
834 11-07-2011 22:43:02 19 C 8.31 g/m*3 19 C 0 km/h
835 11-07-2011 22:55:02 18.7 C 8.17 g/m*3 18.7 C 0 km/h
836 11-07-2011 23:07:02 18.6 C 8.12 g/m*3 18.6 C 0 km/h
837 11-07-2011 23:19:02 17.9 C 8.55 g/m*3 17.9 C 0 km/h
838 11-07-2011 23:31:02 17.4 C 8.3 g/m*3 17.4 C 0 km/h
839 11-07-2011 23:43:02 16.8 C 8.29 g/m*3 16.8 C 0 km/h
840 11-07-2011 23:55:02 16.4 C 8.37 g/m*3 16.4 C 0 km/h
841 12-07-2011 00:07:02 16 C 8.31 g/m*3 16 C 0 km/h
842 12-07-2011 00:19:02 15.8 C 8.48 g/m*3 15.8 C 0 km/h
843 12-07-2011 00:31:02 15.6 C 8.64 g/m*3 15.6 C 0 km/h
844 12-07-2011 00:43:02 15.2 C 8.57 g/m*3 15.2 C 0 km/h
845 12-07-2011 00:55:03 15.1 C 8.64 g/m*3 15.1 C 0 km/h
846 12-07-2011 01:07:03 15 C 8.72 g/m*3 15 C 0 km/h
847 12-07-2011 01:19:03 14.5 C 8.46 g/m*3 14.5 C 0 km/h
848 12-07-2011 01:31:03 14.3 C 8.6 g/m*3 14.3 C 0 km/h
849 12-07-2011 01:43:03 14.2 C 8.67 g/m*3 14.2 C 0 km/h
850 12-07-2011 01:55:03 14.2 C 8.79 g/m*3 14.2 C 0 km/h
Sensor: Nr:Datum:Temp:Abs-Feuchte:Windchill:Wind:
Aussen-T/F 851 12-07-2011 02:07:03 13.8 C 8.7 g/m*3 13.8 C 0 km/h
852 12-07-2011 02:19:03 13.5 C 8.54 g/m*3 13.5 C 0 km/h
853 12-07-2011 02:31:03 13.4 C 8.72 g/m*3 13.4 C 0 km/h
854 12-07-2011 02:43:03 13.3 C 8.66 g/m*3 13.3 C 0 km/h
855 12-07-2011 02:55:03 13.2 C 8.61 g/m*3 13.2 C 0 km/h
856 12-07-2011 03:07:03 13 C 8.62 g/m*3 13 C 0 km/h
857 12-07-2011 03:19:03 12.8 C 8.62 g/m*3 12.8 C 0 km/h
858 12-07-2011 03:31:03 12.7 C 8.57 g/m*3 12.7 C 0 km/h
859 12-07-2011 03:43:03 12.5 C 8.58 g/m*3 12.5 C 0 km/h
860 12-07-2011 03:55:03 12.3 C 8.47 g/m*3 12.3 C 0 km/h
861 12-07-2011 04:07:03 12.1 C 8.47 g/m*3 12.1 C 0 km/h
862 12-07-2011 04:19:03 12 C 8.42 g/m*3 12 C 0 km/h
863 12-07-2011 04:31:03 12.1 C 8.69 g/m*3 12.1 C 0 km/h
864 12-07-2011 04:43:03 12 C 8.74 g/m*3 12 C 0 km/h
865 12-07-2011 04:55:04 11.9 C 8.79 g/m*3 11.9 C 0 km/h
866 12-07-2011 05:07:04 11.8 C 8.74 g/m*3 11.8 C 0 km/h
867 12-07-2011 05:19:04 11.8 C 8.84 g/m*3 11.8 C 0 km/h
868 12-07-2011 05:31:04 11.6 C 8.73 g/m*3 11.6 C 0 km/h
869 12-07-2011 05:43:04 11.7 C 8.79 g/m*3 11.7 C 0 km/h
870 12-07-2011 05:55:04 11.6 C 8.83 g/m*3 11.6 C 0 km/h
871 12-07-2011 06:07:04 11.7 C 8.89 g/m*3 11.7 C 0 km/h
872 12-07-2011 06:19:04 11.8 C 9.05 g/m*3 11.8 C 0 km/h
873 12-07-2011 06:31:04 11.9 C 9.11 g/m*3 11.9 C 0 km/h
874 12-07-2011 06:43:04 12 C 9.06 g/m*3 12 C 0 km/h
875 12-07-2011 06:55:02 12.1 C 9.12 g/m*3 12.1 C 0 km/h
Sensor: Nr:Datum:Temp:Abs-Feuchte:Windchill:Wind:
Aussen-T/F 876 12-07-2011 07:07:01 12.2 C 9.17 g/m*3 12.2 C 0 km/h
877 12-07-2011 07:19:02 12.4 C 9.4 g/m*3 12.4 C 0 km/h
878 12-07-2011 07:31:01 12.6 C 9.51 g/m*3 12.6 C 0 km/h
879 12-07-2011 07:43:01 12.9 C 9.69 g/m*3 12.9 C 0 km/h
880 12-07-2011 07:55:02 13.4 C 9.88 g/m*3 13.4 C 0 km/h
881 12-07-2011 08:07:02 13.8 C 10.13 g/m*3 13.8 C 0 km/h
882 12-07-2011 08:19:02 14.4 C 10.38 g/m*3 14.4 C 0 km/h
883 12-07-2011 08:31:03 15.2 C 10.38 g/m*3 15.2 C 0 km/h
884 12-07-2011 08:43:03 16.2 C 10.62 g/m*3 16.2 C 0 km/h
885 12-07-2011 08:55:02 16.8 C 10.44 g/m*3 16.8 C 0 km/h
886 12-07-2011 09:07:01 17.5 C 10.29 g/m*3 17.5 C 0 km/h
887 12-07-2011 09:19:02 18.3 C 10.16 g/m*3 18.3 C 0 km/h
888 12-07-2011 09:31:02 19.9 C 10.48 g/m*3 19.9 C 0 km/h
889 12-07-2011 09:43:02 20.4 C 9.38 g/m*3 20.4 C 0 km/h
890 12-07-2011 09:55:02 22 C 9.12 g/m*3 22 C 0 km/h
891 12-07-2011 10:07:01 22.8 C 9.35 g/m*3 22.8 C 0 km/h
892 12-07-2011 10:19:01 23.9 C 8.87 g/m*3 23.9 C 0 km/h
893 12-07-2011 10:31:02 25 C 8.52 g/m*3 25 C 0 km/h
894 12-07-2011 10:43:02 26.1 C 8.32 g/m*3 26.1 C 0 km/h
895 12-07-2011 10:55:02 27.6 C 8.25 g/m*3 27.6 C 0 km/h
896 12-07-2011 11:07:02 27.5 C 7.94 g/m*3 27.5 C 0 km/h
897 12-07-2011 11:19:02 28.1 C 7.66 g/m*3 28.1 C 0 km/h
898 12-07-2011 11:31:03 27.2 C 7.29 g/m*3 27.2 C 0 km/h
899 12-07-2011 11:43:03 27.6 C 7.18 g/m*3 27.6 C 0 km/h
900 12-07-2011 11:55:02 27.2 C 7.03 g/m*3 27.2 C 0 km/h
Sensor: Nr:Datum:Temp:Abs-Feuchte:Windchill:Wind:
Aussen-T/F 901 12-07-2011 12:07:01 27.3 C 6.8 g/m*3 27.3 C 0 km/h
902 12-07-2011 12:19:02 27.6 C 6.92 g/m*3 27.6 C 0 km/h
903 12-07-2011 12:31:02 27.7 C 7.22 g/m*3 27.7 C 0 km/h
904 12-07-2011 12:43:02 27.9 C 7.03 g/m*3 27.9 C 0 km/h
905 12-07-2011 12:55:02 28.1 C 6.84 g/m*3 28.1 C 0 km/h
906 12-07-2011 13:07:03 28.4 C 6.95 g/m*3 28.4 C 0 km/h
907 12-07-2011 13:19:02 29.2 C 6.97 g/m*3 29.2 C 0 km/h
908 12-07-2011 13:31:03 29.9 C 6.64 g/m*3 29.9 C 0 km/h
909 12-07-2011 13:43:03 32.3 C 6.86 g/m*3 32.3 C 0 km/h
910 12-07-2011 13:55:02 32.6 C 6.97 g/m*3 32.6 C 0 km/h
911 12-07-2011 14:07:02 33.4 C 7.27 g/m*3 33.4 C 0 km/h
912 12-07-2011 14:19:01 32.3 C 6.86 g/m*3 32.3 C 0 km/h
913 12-07-2011 14:31:02 32 C 6.75 g/m*3 32 C 0 km/h
914 12-07-2011 14:43:02 32.5 C 6.93 g/m*3 32.5 C 0 km/h
915 12-07-2011 14:55:02 31.9 C 6.72 g/m*3 31.9 C 0 km/h
916 12-07-2011 15:07:02 31 C 6.4 g/m*3 31 C 0 km/h
917 12-07-2011 15:19:02 29.8 C 6.6 g/m*3 29.8 C 0 km/h
918 12-07-2011 15:31:02 30 C 6.37 g/m*3 30 C 0 km/h
919 12-07-2011 15:43:02 29.5 C 7.38 g/m*3 29.5 C 0 km/h
920 12-07-2011 15:55:02 29.5 C 7.38 g/m*3 29.5 C 0 km/h
921 12-07-2011 16:07:02 29.1 C 7.51 g/m*3 29.1 C 0 km/h
922 12-07-2011 16:19:03 28.7 C 7.35 g/m*3 28.7 C 0 km/h
923 12-07-2011 16:31:02 29 C 7.47 g/m*3 29 C 0 km/h
924 12-07-2011 16:43:02 29.6 C 7.72 g/m*3 29.6 C 0 km/h
925 12-07-2011 16:55:02 27.5 C 8.47 g/m*3 27.5 C 0 km/h
Sensor: Nr:Datum:Temp:Abs-Feuchte:Windchill:Wind:
Aussen-T/F 926 12-07-2011 17:07:02 25 C 9.21 g/m*3 25 C 0 km/h
927 12-07-2011 17:19:02 21.8 C 11.9 g/m*3 21.8 C 0 km/h
928 12-07-2011 17:31:02 19.8 C 12.81 g/m*3 19.8 C 0 km/h
929 12-07-2011 17:43:02 19.4 C 13.35 g/m*3 19.4 C 0 km/h
930 12-07-2011 17:55:02 19.3 C 13.27 g/m*3 19.3 C 0 km/h
931 12-07-2011 18:07:02 19.7 C 13.25 g/m*3 19.7 C 0 km/h
932 12-07-2011 18:19:02 20.1 C 12.86 g/m*3 20.1 C 0 km/h
933 12-07-2011 18:31:02 20.7 C 13.14 g/m*3 20.7 C 0 km/h
934 12-07-2011 18:43:02 20.3 C 13.37 g/m*3 20.3 C 0 km/h
935 12-07-2011 18:55:02 20.3 C 13.37 g/m*3 20.3 C 0 km/h
936 12-07-2011 19:07:01 21.1 C 13.63 g/m*3 21.1 C 0 km/h
937 12-07-2011 19:19:02 21.1 C 13.27 g/m*3 21.1 C 0 km/h
938 12-07-2011 19:31:02 21.2 C 13.71 g/m*3 21.2 C 0 km/h
939 12-07-2011 19:43:02 21.8 C 13.43 g/m*3 21.8 C 0 km/h
940 12-07-2011 19:55:01 21.4 C 12.94 g/m*3 21.4 C 0 km/h
941 12-07-2011 20:07:02 21 C 12.82 g/m*3 21 C 0 km/h
942 12-07-2011 20:19:01 21.5 C 12.26 g/m*3 21.5 C 0 km/h
943 12-07-2011 20:31:02 21.2 C 12.05 g/m*3 21.2 C 0 km/h
944 12-07-2011 20:43:02 20.6 C 12.17 g/m*3 20.6 C 0 km/h
945 12-07-2011 20:55:02 20.7 C 11.88 g/m*3 20.7 C 0 km/h
946 12-07-2011 21:07:02 19.7 C 12.4 g/m*3 19.7 C 0 km/h
947 12-07-2011 21:19:02 19 C 12.39 g/m*3 19 C 0 km/h
948 12-07-2011 21:31:02 18.6 C 12.57 g/m*3 18.6 C 0 km/h
949 12-07-2011 21:43:02 18.1 C 12.52 g/m*3 18.1 C 0 km/h
950 12-07-2011 21:55:02 17.7 C 12.52 g/m*3 17.7 C 0 km/h
Sensor: Nr:Datum:Temp:Abs-Feuchte:Windchill:Wind:
Aussen-T/F 951 12-07-2011 22:07:02 17.4 C 12.45 g/m*3 17.4 C 0 km/h
952 12-07-2011 22:19:02 17.4 C 12.45 g/m*3 17.4 C 0 km/h
953 12-07-2011 22:31:02 17.2 C 12.45 g/m*3 17.2 C 0 km/h
954 12-07-2011 22:43:02 17.2 C 12.45 g/m*3 17.2 C 0 km/h
955 12-07-2011 22:56:04 17.2 C 12.59 g/m*3 17.2 C 0 km/h
956 12-07-2011 23:08:04 17.2 C 12.59 g/m*3 17.2 C 0 km/h
957 12-07-2011 23:20:04 16.8 C 12.44 g/m*3 16.8 C 0 km/h
958 12-07-2011 23:32:04 16.8 C 12.44 g/m*3 16.8 C 0 km/h
959 12-07-2011 23:44:04 16.7 C 12.36 g/m*3 16.7 C 0 km/h
960 12-07-2011 23:56:04 16.6 C 12.29 g/m*3 16.6 C 0 km/h
961 13-07-2011 00:08:04 16.9 C 12.66 g/m*3 16.9 C 0 km/h
962 13-07-2011 00:20:04 16.6 C 12.43 g/m*3 16.6 C 0 km/h
963 13-07-2011 00:32:04 16.5 C 12.36 g/m*3 16.5 C 0 km/h
964 13-07-2011 00:44:04 16.4 C 12.28 g/m*3 16.4 C 0 km/h
965 13-07-2011 00:56:05 16.5 C 12.36 g/m*3 16.5 C 0 km/h
966 13-07-2011 01:08:05 16.1 C 12.06 g/m*3 16.1 C 0 km/h
967 13-07-2011 01:20:05 16.3 C 12.21 g/m*3 16.3 C 0 km/h
968 13-07-2011 01:32:05 16.1 C 12.06 g/m*3 16.1 C 0 km/h
969 13-07-2011 01:44:05 16 C 11.99 g/m*3 16 C 0 km/h
970 13-07-2011 01:56:05 16.2 C 12.14 g/m*3 16.2 C 0 km/h
971 13-07-2011 02:08:05 15.8 C 11.98 g/m*3 15.8 C 0 km/h
972 13-07-2011 02:20:05 15.8 C 11.98 g/m*3 15.8 C 0 km/h
973 13-07-2011 02:32:05 15.7 C 11.91 g/m*3 15.7 C 0 km/h
974 13-07-2011 02:44:05 15.8 C 11.98 g/m*3 15.8 C 0 km/h
975 13-07-2011 02:56:05 15.5 C 11.76 g/m*3 15.5 C 0 km/h
Sensor: Nr:Datum:Temp:Abs-Feuchte:Windchill:Wind:
Aussen-T/F 976 13-07-2011 03:08:05 15.5 C 11.76 g/m*3 15.5 C 0 km/h
977 13-07-2011 03:20:05 15.5 C 11.76 g/m*3 15.5 C 0 km/h
978 13-07-2011 03:32:05 15.4 C 11.69 g/m*3 15.4 C 0 km/h
979 13-07-2011 03:44:05 15.4 C 11.69 g/m*3 15.4 C 0 km/h
980 13-07-2011 03:56:05 15.2 C 11.55 g/m*3 15.2 C 0 km/h
981 13-07-2011 04:08:05 15.1 C 11.48 g/m*3 15.1 C 0 km/h
982 13-07-2011 04:20:05 15.1 C 11.48 g/m*3 15.1 C 0 km/h
983 13-07-2011 04:32:05 15.1 C 11.48 g/m*3 15.1 C 0 km/h
984 13-07-2011 04:44:05 15 C 11.41 g/m*3 15 C 0 km/h
985 13-07-2011 04:56:05 15.3 C 11.62 g/m*3 15.3 C 0 km/h
986 13-07-2011 05:08:06 15.5 C 11.76 g/m*3 15.5 C 0 km/h
987 13-07-2011 05:20:06 16 C 12.13 g/m*3 16 C 0 km/h
988 13-07-2011 05:32:06 16 C 12.13 g/m*3 16 C 0 km/h
989 13-07-2011 05:44:06 16.1 C 12.2 g/m*3 16.1 C 0 km/h
990 13-07-2011 05:56:06 16.2 C 12.27 g/m*3 16.2 C 0 km/h
991 13-07-2011 06:08:06 16.3 C 12.35 g/m*3 16.3 C 0 km/h
992 13-07-2011 06:20:06 16.5 C 12.64 g/m*3 16.5 C 0 km/h
993 13-07-2011 06:32:06 16.6 C 12.71 g/m*3 16.6 C 0 km/h
994 13-07-2011 06:44:06 16.6 C 12.71 g/m*3 16.6 C 0 km/h
995 13-07-2011 06:56:06 16.9 C 12.94 g/m*3 16.9 C 0 km/h
996 13-07-2011 07:08:06 16.8 C 12.87 g/m*3 16.8 C 0 km/h
997 13-07-2011 07:20:03 16.8 C 12.87 g/m*3 16.8 C 0 km/h
998 13-07-2011 07:32:03 16.8 C 12.87 g/m*3 16.8 C 0 km/h
999 13-07-2011 07:44:03 17 C 12.88 g/m*3 17 C 0 km/h
1000 13-07-2011 07:56:02 17 C 12.88 g/m*3 17 C 0 km/h
Sensor: Nr:Datum:Temp:Abs-Feuchte:Windchill:Wind:
Aussen-T/F 1001 13-07-2011 08:08:02 17.1 C 12.96 g/m*3 17.1 C 0 km/h
1002 13-07-2011 08:20:02 17.1 C 12.81 g/m*3 17.1 C 0 km/h
1003 13-07-2011 08:32:02 16.9 C 12.66 g/m*3 16.9 C 0 km/h
1004 13-07-2011 08:44:02 16.8 C 12.44 g/m*3 16.8 C 0 km/h
1005 13-07-2011 08:56:02 16.8 C 12.15 g/m*3 16.8 C 0 km/h
1006 13-07-2011 09:08:01 17 C 12.01 g/m*3 17 C 0 km/h
1007 13-07-2011 09:20:02 17 C 11.87 g/m*3 17 C 0 km/h
1008 13-07-2011 09:32:01 17 C 11.58 g/m*3 17 C 0 km/h
1009 13-07-2011 09:44:01 16.9 C 11.51 g/m*3 16.9 C 0 km/h
1010 13-07-2011 09:56:02 16.7 C 11.23 g/m*3 16.7 C 0 km/h
1011 13-07-2011 10:08:02 16.6 C 10.88 g/m*3 16.6 C 0 km/h
1012 13-07-2011 10:20:02 16.5 C 10.67 g/m*3 16.5 C 0 km/h
1013 13-07-2011 10:32:02 16.7 C 10.66 g/m*3 16.7 C 0 km/h
1014 13-07-2011 10:44:02 16.9 C 10.79 g/m*3 16.9 C 0 km/h
1015 13-07-2011 10:56:02 16.9 C 10.79 g/m*3 16.9 C 0 km/h
1016 13-07-2011 11:08:02 17 C 10.56 g/m*3 17 C 0 km/h
1017 13-07-2011 11:20:02 17 C 10.27 g/m*3 17 C 0 km/h
1018 13-07-2011 11:32:02 17.1 C 10.04 g/m*3 17.1 C 0 km/h
1019 13-07-2011 11:44:02 17 C 9.84 g/m*3 17 C 0 km/h
1020 13-07-2011 11:56:02 16.8 C 10.15 g/m*3 16.8 C 0 km/h
1021 13-07-2011 12:08:02 17.2 C 9.67 g/m*3 17.2 C 0 km/h
1022 13-07-2011 12:20:03 17.8 C 9.56 g/m*3 17.8 C 0 km/h
1023 13-07-2011 12:32:02 18.2 C 9.48 g/m*3 18.2 C 0 km/h
1024 13-07-2011 12:44:02 19 C 9.29 g/m*3 19 C 0 km/h
1025 13-07-2011 12:56:02 18.8 C 9.18 g/m*3 18.8 C 0 km/h
Sensor: Nr:Datum:Temp:Abs-Feuchte:Windchill:Wind:
Aussen-T/F 1026 13-07-2011 13:08:02 19.3 C 8.96 g/m*3 19.3 C 0 km/h
1027 13-07-2011 13:20:02 19 C 8.64 g/m*3 19 C 0 km/h
1028 13-07-2011 13:32:02 19.4 C 9.01 g/m*3 19.4 C 0 km/h
1029 13-07-2011 13:44:02 18.8 C 9.02 g/m*3 18.8 C 0 km/h
1030 13-07-2011 13:56:02 18.5 C 8.86 g/m*3 18.5 C 0 km/h
1031 13-07-2011 14:08:02 18.8 C 8.86 g/m*3 18.8 C 0 km/h
1032 13-07-2011 14:20:01 18.6 C 9.07 g/m*3 18.6 C 0 km/h
1033 13-07-2011 14:32:02 18 C 9.22 g/m*3 18 C 0 km/h
1034 13-07-2011 14:44:02 17.2 C 9.67 g/m*3 17.2 C 0 km/h
1035 13-07-2011 14:56:02 16.9 C 9.64 g/m*3 16.9 C 0 km/h
1036 13-07-2011 15:08:02 16.8 C 9.72 g/m*3 16.8 C 0 km/h
1037 13-07-2011 15:20:02 16.9 C 9.92 g/m*3 16.9 C 0 km/h
1038 13-07-2011 15:32:02 17.4 C 9.48 g/m*3 17.4 C 0 km/h
1039 13-07-2011 15:44:02 17.6 C 9.3 g/m*3 17.6 C 0 km/h
1040 13-07-2011 15:56:01 17.2 C 9.08 g/m*3 17.2 C 0 km/h
1041 13-07-2011 16:08:02 17 C 8.83 g/m*3 17 C 0 km/h
1042 13-07-2011 16:20:02 16.9 C 9.06 g/m*3 16.9 C 0 km/h
1043 13-07-2011 16:32:02 16.6 C 9.46 g/m*3 16.6 C 0 km/h
1044 13-07-2011 16:44:02 16.2 C 9.52 g/m*3 16.2 C 0 km/h
1045 13-07-2011 16:56:02 15.9 C 9.62 g/m*3 15.9 C 0 km/h
1046 13-07-2011 17:08:01 15.5 C 9.52 g/m*3 15.5 C 0 km/h
1047 13-07-2011 17:20:02 15.3 C 9.53 g/m*3 15.3 C 0 km/h
1048 13-07-2011 17:32:01 15.2 C 9.73 g/m*3 15.2 C 0 km/h
1049 13-07-2011 17:44:01 15 C 9.75 g/m*3 15 C 0 km/h
1050 13-07-2011 17:56:02 14.8 C 9.63 g/m*3 14.8 C 0 km/h
Sensor: Nr:Datum:Temp:Abs-Feuchte:Windchill:Wind:
Aussen-T/F 1051 13-07-2011 18:08:01 14.8 C 9.63 g/m*3 14.8 C 0 km/h
1052 13-07-2011 18:20:01 14.8 C 9.88 g/m*3 14.8 C 0 km/h
1053 13-07-2011 18:32:02 14.5 C 9.7 g/m*3 14.5 C 0 km/h
1054 13-07-2011 18:44:02 14.4 C 9.77 g/m*3 14.4 C 0 km/h
1055 13-07-2011 18:56:02 14.5 C 9.7 g/m*3 14.5 C 0 km/h
1056 13-07-2011 19:08:02 14.8 C 9.88 g/m*3 14.8 C 0 km/h
1057 13-07-2011 19:20:02 14.8 C 9.63 g/m*3 14.8 C 0 km/h
1058 13-07-2011 19:32:02 14.9 C 9.81 g/m*3 14.9 C 0 km/h
1059 13-07-2011 19:44:02 14.9 C 9.69 g/m*3 14.9 C 0 km/h
1060 13-07-2011 19:56:02 14.5 C 9.58 g/m*3 14.5 C 0 km/h
1061 13-07-2011 20:08:02 14.5 C 9.58 g/m*3 14.5 C 0 km/h
1062 13-07-2011 20:20:01 14.5 C 9.33 g/m*3 14.5 C 0 km/h
1063 13-07-2011 20:32:04 14.5 C 9.08 g/m*3 14.5 C 0 km/h
1064 13-07-2011 20:44:04 14.4 C 9.15 g/m*3 14.4 C 0 km/h
1065 13-07-2011 20:56:02 14.4 C 9.15 g/m*3 14.4 C 0 km/h
1066 13-07-2011 21:08:01 13.9 C 9.11 g/m*3 13.9 C 0 km/h
1067 13-07-2011 21:20:02 13.4 C 9.07 g/m*3 13.4 C 0 km/h
1068 13-07-2011 21:32:02 13.3 C 9.13 g/m*3 13.3 C 0 km/h
1069 13-07-2011 21:44:02 13.2 C 9.19 g/m*3 13.2 C 0 km/h
1070 13-07-2011 21:57:02 13.1 C 9.24 g/m*3 13.1 C 0 km/h
1071 13-07-2011 22:09:02 13.1 C 9.36 g/m*3 13.1 C 0 km/h
1072 13-07-2011 22:21:02 13 C 9.41 g/m*3 13 C 0 km/h
1073 13-07-2011 22:33:02 13.1 C 9.59 g/m*3 13.1 C 0 km/h
1074 13-07-2011 22:45:02 13.3 C 9.59 g/m*3 13.3 C 0 km/h
1075 13-07-2011 22:57:02 13.2 C 9.3 g/m*3 13.2 C 0 km/h
Sensor: Nr:Datum:Temp:Abs-Feuchte:Windchill:Wind:
Aussen-T/F 1076 13-07-2011 23:09:02 13.3 C 9.01 g/m*3 13.3 C 0 km/h
1077 13-07-2011 23:21:02 13.4 C 8.72 g/m*3 13.4 C 0 km/h
1078 13-07-2011 23:33:02 13.3 C 8.9 g/m*3 13.3 C 0 km/h
1079 13-07-2011 23:45:02 13.4 C 9.07 g/m*3 13.4 C 0 km/h
1080 13-07-2011 23:57:02 13.5 C 8.89 g/m*3 13.5 C 0 km/h
1081 14-07-2011 00:09:02 13.6 C 8.71 g/m*3 13.6 C 0 km/h
1082 14-07-2011 00:21:02 13.4 C 8.6 g/m*3 13.4 C 0 km/h
1083 14-07-2011 00:33:02 13.4 C 8.72 g/m*3 13.4 C 0 km/h
1084 14-07-2011 00:45:02 13.3 C 8.78 g/m*3 13.3 C 0 km/h
1085 14-07-2011 00:57:02 13.4 C 8.83 g/m*3 13.4 C 0 km/h
1086 14-07-2011 01:09:02 13.3 C 9.01 g/m*3 13.3 C 0 km/h
1087 14-07-2011 01:21:02 13.4 C 8.83 g/m*3 13.4 C 0 km/h
1088 14-07-2011 01:33:03 13.7 C 8.53 g/m*3 13.7 C 0 km/h
1089 14-07-2011 01:45:03 13.7 C 8.41 g/m*3 13.7 C 0 km/h
1090 14-07-2011 01:57:03 13.3 C 8.09 g/m*3 13.3 C 0 km/h
1091 14-07-2011 02:09:03 13.5 C 8.07 g/m*3 13.5 C 0 km/h
1092 14-07-2011 02:21:03 13.6 C 7.89 g/m*3 13.6 C 0 km/h
1093 14-07-2011 02:33:03 12.9 C 8 g/m*3 12.9 C 0 km/h
1094 14-07-2011 02:45:03 12.8 C 8.18 g/m*3 12.8 C 0 km/h
1095 14-07-2011 02:57:03 13 C 8.17 g/m*3 13 C 0 km/h
1096 14-07-2011 03:09:03 13.4 C 7.9 g/m*3 13.4 C 0 km/h
1097 14-07-2011 03:21:03 13.4 C 7.79 g/m*3 13.4 C 0 km/h
1098 14-07-2011 03:33:03 13.4 C 7.67 g/m*3 13.4 C 0 km/h
1099 14-07-2011 03:45:03 13.3 C 7.74 g/m*3 13.3 C 0 km/h
1100 14-07-2011 03:57:03 13.3 C 7.86 g/m*3 13.3 C 0 km/h
Sensor: Nr:Datum:Temp:Abs-Feuchte:Windchill:Wind:
Aussen-T/F 1101 14-07-2011 04:09:03 13.5 C 7.72 g/m*3 13.5 C 0 km/h
1102 14-07-2011 04:21:03 13.4 C 7.56 g/m*3 13.4 C 0 km/h
1103 14-07-2011 04:33:04 13.1 C 7.65 g/m*3 13.1 C 0 km/h
1104 14-07-2011 04:45:04 13.1 C 7.53 g/m*3 13.1 C 0 km/h
1105 14-07-2011 04:57:04 13.1 C 7.65 g/m*3 13.1 C 0 km/h
1106 14-07-2011 05:09:04 13 C 7.6 g/m*3 13 C 0 km/h
1107 14-07-2011 05:21:04 12.8 C 7.73 g/m*3 12.8 C 0 km/h
1108 14-07-2011 05:33:04 12.8 C 7.73 g/m*3 12.8 C 0 km/h
1109 14-07-2011 05:45:04 12.7 C 7.68 g/m*3 12.7 C 0 km/h
1110 14-07-2011 05:57:04 12.7 C 7.79 g/m*3 12.7 C 0 km/h
1111 14-07-2011 06:09:04 12.7 C 7.79 g/m*3 12.7 C 0 km/h
1112 14-07-2011 06:21:04 13.2 C 7.69 g/m*3 13.2 C 0 km/h
1113 14-07-2011 06:33:04 13.5 C 7.49 g/m*3 13.5 C 0 km/h
1114 14-07-2011 06:45:04 13.6 C 7.41 g/m*3 13.6 C 0 km/h
1115 14-07-2011 06:57:04 13.4 C 7.44 g/m*3 13.4 C 0 km/h
1116 14-07-2011 07:09:02 13.8 C 7.63 g/m*3 13.8 C 0 km/h
1117 14-07-2011 07:21:01 13.7 C 7.58 g/m*3 13.7 C 0 km/h
1118 14-07-2011 07:33:02 13.4 C 7.56 g/m*3 13.4 C 0 km/h
1119 14-07-2011 07:45:01 13.4 C 7.56 g/m*3 13.4 C 0 km/h
1120 14-07-2011 07:57:01 13.8 C 7.63 g/m*3 13.8 C 0 km/h
1121 14-07-2011 08:09:02 13.6 C 7.53 g/m*3 13.6 C 0 km/h
1122 14-07-2011 08:21:02 14.3 C 7.49 g/m*3 14.3 C 0 km/h
1123 14-07-2011 08:33:02 14.7 C 7.18 g/m*3 14.7 C 0 km/h
1124 14-07-2011 08:45:02 15.1 C 7.22 g/m*3 15.1 C 0 km/h
1125 14-07-2011 08:57:02 14.9 C 7.26 g/m*3 14.9 C 0 km/h
Sensor: Nr:Datum:Temp:Abs-Feuchte:Windchill:Wind:
Aussen-T/F 1126 14-07-2011 09:09:01 15.1 C 7.1 g/m*3 15.1 C 0 km/h
1127 14-07-2011 09:21:02 16 C 7.08 g/m*3 16 C 0 km/h
1128 14-07-2011 09:33:01 15.8 C 6.6 g/m*3 15.8 C 0 km/h
1129 14-07-2011 09:45:02 16.1 C 6.03 g/m*3 16.1 C 0 km/h
1130 14-07-2011 09:57:02 15.9 C 5.55 g/m*3 15.9 C 0 km/h
1131 14-07-2011 10:09:01 16.4 C 5.86 g/m*3 16.4 C 0 km/h
1132 14-07-2011 10:21:01 16.4 C 5.72 g/m*3 16.4 C 0 km/h
1133 14-07-2011 10:33:01 16.6 C 5.79 g/m*3 16.6 C 0 km/h
1134 14-07-2011 10:45:02 16.1 C 5.76 g/m*3 16.1 C 0 km/h
1135 14-07-2011 10:57:02 16.6 C 5.93 g/m*3 16.6 C 0 km/h
1136 14-07-2011 11:09:02 17.5 C 5.67 g/m*3 17.5 C 0 km/h
1137 14-07-2011 11:21:02 17.2 C 5.86 g/m*3 17.2 C 0 km/h
1138 14-07-2011 11:33:02 17.4 C 5.78 g/m*3 17.4 C 0 km/h
1139 14-07-2011 11:45:02 17.4 C 5.93 g/m*3 17.4 C 0 km/h
1140 14-07-2011 11:57:02 17.6 C 6 g/m*3 17.6 C 0 km/h
1141 14-07-2011 12:09:01 17.6 C 5.85 g/m*3 17.6 C 0 km/h
1142 14-07-2011 12:21:01 17.8 C 5.92 g/m*3 17.8 C 0 km/h
1143 14-07-2011 12:33:02 17.9 C 5.65 g/m*3 17.9 C 0 km/h
1144 14-07-2011 12:45:02 18.9 C 5.67 g/m*3 18.9 C 0 km/h
1145 14-07-2011 12:57:02 17.7 C 5.58 g/m*3 17.7 C 0 km/h
1146 14-07-2011 13:09:02 18.3 C 5.47 g/m*3 18.3 C 0 km/h
1147 14-07-2011 13:21:01 17.7 C 5.58 g/m*3 17.7 C 0 km/h
1148 14-07-2011 13:33:02 17.8 C 5.92 g/m*3 17.8 C 0 km/h
1149 14-07-2011 13:45:02 17.5 C 5.81 g/m*3 17.5 C 0 km/h
1150 14-07-2011 13:57:02 17.5 C 5.96 g/m*3 17.5 C 0 km/h
Sensor: Nr:Datum:Temp:Abs-Feuchte:Windchill:Wind:
Aussen-T/F 1151 14-07-2011 14:09:02 18.2 C 5.6 g/m*3 18.2 C 0 km/h
1152 14-07-2011 14:21:01 18.9 C 5.51 g/m*3 18.9 C 0 km/h
1153 14-07-2011 14:33:02 21.9 C 5.79 g/m*3 21.9 C 0 km/h
1154 14-07-2011 14:45:01 19.6 C 5.4 g/m*3 19.6 C 0 km/h
1155 14-07-2011 14:57:01 18.9 C 5.51 g/m*3 18.9 C 0 km/h
1156 14-07-2011 15:09:02 22 C 5.82 g/m*3 22 C 0 km/h
1157 14-07-2011 15:21:02 20.8 C 5.07 g/m*3 20.8 C 0 km/h
1158 14-07-2011 15:33:02 20.9 C 5.65 g/m*3 20.9 C 0 km/h
1159 14-07-2011 15:45:02 20.8 C 5.98 g/m*3 20.8 C 0 km/h
1160 14-07-2011 15:57:02 19.5 C 5.87 g/m*3 19.5 C 0 km/h
1161 14-07-2011 16:09:02 20.5 C 5.52 g/m*3 20.5 C 0 km/h
1162 14-07-2011 16:21:02 18.8 C 5.8 g/m*3 18.8 C 0 km/h
1163 14-07-2011 16:33:01 18.5 C 5.85 g/m*3 18.5 C 0 km/h
1164 14-07-2011 16:45:02 18.5 C 6.01 g/m*3 18.5 C 0 km/h
1165 14-07-2011 16:57:02 18.2 C 5.91 g/m*3 18.2 C 0 km/h
1166 14-07-2011 17:09:01 18.6 C 6.37 g/m*3 18.6 C 0 km/h
1167 14-07-2011 17:21:01 19.1 C 6.39 g/m*3 19.1 C 0 km/h
1168 14-07-2011 17:33:02 17.6 C 6.45 g/m*3 17.6 C 0 km/h
1169 14-07-2011 17:45:02 16.9 C 6.47 g/m*3 16.9 C 0 km/h
1170 14-07-2011 17:57:02 17.4 C 6.37 g/m*3 17.4 C 0 km/h
1171 14-07-2011 18:09:01 17.4 C 6.08 g/m*3 17.4 C 0 km/h
1172 14-07-2011 18:21:02 17.5 C 6.26 g/m*3 17.5 C 0 km/h
1173 14-07-2011 18:33:02 17.5 C 6.26 g/m*3 17.5 C 0 km/h
1174 14-07-2011 18:45:01 17.8 C 6.07 g/m*3 17.8 C 0 km/h
1175 14-07-2011 18:57:01 17.6 C 6.15 g/m*3 17.6 C 0 km/h
Sensor: Nr:Datum:Temp:Abs-Feuchte:Windchill:Wind:
Aussen-T/F 1176 14-07-2011 19:09:02 17.1 C 6.55 g/m*3 17.1 C 0 km/h
1177 14-07-2011 19:21:01 16.7 C 6.54 g/m*3 16.7 C 0 km/h
1178 14-07-2011 19:33:02 16.7 C 6.54 g/m*3 16.7 C 0 km/h
1179 14-07-2011 19:45:01 17 C 6.37 g/m*3 17 C 0 km/h
1180 14-07-2011 19:57:01 16.8 C 6.29 g/m*3 16.8 C 0 km/h
1181 14-07-2011 20:09:02 16.6 C 6.22 g/m*3 16.6 C 0 km/h
1182 14-07-2011 20:21:01 16.1 C 6.17 g/m*3 16.1 C 0 km/h
1183 14-07-2011 20:33:02 16 C 6.27 g/m*3 16 C 0 km/h
1184 14-07-2011 20:45:01 15.8 C 6.46 g/m*3 15.8 C 0 km/h
1185 14-07-2011 20:57:01 15.5 C 6.48 g/m*3 15.5 C 0 km/h
1186 14-07-2011 21:09:02 15.2 C 6.62 g/m*3 15.2 C 0 km/h
1187 14-07-2011 21:21:01 15.1 C 6.58 g/m*3 15.1 C 0 km/h
1188 14-07-2011 21:33:02 15 C 6.67 g/m*3 15 C 0 km/h
1189 14-07-2011 21:45:01 15.1 C 6.45 g/m*3 15.1 C 0 km/h
1190 14-07-2011 21:57:01 15 C 6.41 g/m*3 15 C 0 km/h
1191 14-07-2011 22:09:02 14.8 C 6.59 g/m*3 14.8 C 0 km/h
1192 14-07-2011 22:21:02 14.6 C 6.63 g/m*3 14.6 C 0 km/h
1193 14-07-2011 22:33:02 14.2 C 6.72 g/m*3 14.2 C 0 km/h
1194 14-07-2011 22:46:03 14.1 C 6.8 g/m*3 14.1 C 0 km/h
1195 14-07-2011 22:58:03 13.8 C 6.79 g/m*3 13.8 C 0 km/h
1196 14-07-2011 23:10:03 13.8 C 6.79 g/m*3 13.8 C 0 km/h
1197 14-07-2011 23:22:03 13.8 C 6.91 g/m*3 13.8 C 0 km/h
1198 14-07-2011 23:34:03 13.8 C 6.91 g/m*3 13.8 C 0 km/h
1199 14-07-2011 23:46:03 13.8 C 6.79 g/m*3 13.8 C 0 km/h
1200 14-07-2011 23:58:03 13.5 C 6.9 g/m*3 13.5 C 0 km/h
Sensor: Nr:Datum:Temp:Abs-Feuchte:Windchill:Wind:
Aussen-T/F 1201 15-07-2011 00:10:03 13.7 C 7.1 g/m*3 13.7 C 0 km/h
1202 15-07-2011 00:22:03 13.6 C 7.06 g/m*3 13.6 C 0 km/h
1203 15-07-2011 00:34:03 13.4 C 6.97 g/m*3 13.4 C 0 km/h
1204 15-07-2011 00:46:03 13.5 C 6.9 g/m*3 13.5 C 0 km/h
1205 15-07-2011 00:58:03 13.4 C 6.86 g/m*3 13.4 C 0 km/h
1206 15-07-2011 01:10:03 13.5 C 6.9 g/m*3 13.5 C 0 km/h
1207 15-07-2011 01:22:03 13.5 C 6.78 g/m*3 13.5 C 0 km/h
1208 15-07-2011 01:34:03 13.5 C 6.78 g/m*3 13.5 C 0 km/h
1209 15-07-2011 01:46:03 13.4 C 6.74 g/m*3 13.4 C 0 km/h
1210 15-07-2011 01:58:04 13.4 C 6.74 g/m*3 13.4 C 0 km/h
1211 15-07-2011 02:10:04 13.4 C 6.86 g/m*3 13.4 C 0 km/h
1212 15-07-2011 02:22:04 13.4 C 6.86 g/m*3 13.4 C 0 km/h
1213 15-07-2011 02:34:04 13.4 C 6.86 g/m*3 13.4 C 0 km/h
1214 15-07-2011 02:46:04 13.5 C 6.78 g/m*3 13.5 C 0 km/h
1215 15-07-2011 02:58:04 13.4 C 6.86 g/m*3 13.4 C 0 km/h
1216 15-07-2011 03:10:04 13.5 C 6.9 g/m*3 13.5 C 0 km/h
1217 15-07-2011 03:22:04 13.1 C 6.62 g/m*3 13.1 C 0 km/h
1218 15-07-2011 03:34:04 13.6 C 6.83 g/m*3 13.6 C 0 km/h
1219 15-07-2011 03:46:04 13.4 C 6.86 g/m*3 13.4 C 0 km/h
1220 15-07-2011 03:58:04 13.3 C 6.82 g/m*3 13.3 C 0 km/h
1221 15-07-2011 04:10:04 13.3 C 6.82 g/m*3 13.3 C 0 km/h
1222 15-07-2011 04:22:04 13.5 C 6.78 g/m*3 13.5 C 0 km/h
1223 15-07-2011 04:34:04 13.5 C 6.78 g/m*3 13.5 C 0 km/h
1224 15-07-2011 04:46:04 13.6 C 6.71 g/m*3 13.6 C 0 km/h
1225 15-07-2011 04:58:04 13.6 C 6.83 g/m*3 13.6 C 0 km/h
Sensor: Nr:Datum:Temp:Abs-Feuchte:Windchill:Wind:
Aussen-T/F 1226 15-07-2011 05:10:04 13.4 C 6.97 g/m*3 13.4 C 0 km/h
1227 15-07-2011 05:22:04 13.4 C 7.09 g/m*3 13.4 C 0 km/h
1228 15-07-2011 05:34:04 13.4 C 6.97 g/m*3 13.4 C 0 km/h
1229 15-07-2011 05:46:04 13.5 C 7.13 g/m*3 13.5 C 0 km/h
1230 15-07-2011 05:58:04 13.3 C 7.16 g/m*3 13.3 C 0 km/h
1231 15-07-2011 06:10:04 13.1 C 7.19 g/m*3 13.1 C 0 km/h
1232 15-07-2011 06:22:04 13.4 C 7.21 g/m*3 13.4 C 0 km/h
1233 15-07-2011 06:34:05 13.5 C 7.13 g/m*3 13.5 C 0 km/h
1234 15-07-2011 06:46:05 13.7 C 7.1 g/m*3 13.7 C 0 km/h
1235 15-07-2011 06:58:05 13.7 C 7.1 g/m*3 13.7 C 0 km/h
1236 15-07-2011 07:10:05 13.7 C 7.1 g/m*3 13.7 C 0 km/h
1237 15-07-2011 07:22:05 13.9 C 7.07 g/m*3 13.9 C 0 km/h
1238 15-07-2011 07:34:03 14.2 C 7.08 g/m*3 14.2 C 0 km/h
1239 15-07-2011 07:46:02 14.2 C 6.96 g/m*3 14.2 C 0 km/h
1240 15-07-2011 07:58:02 14.4 C 7.05 g/m*3 14.4 C 0 km/h
1241 15-07-2011 08:10:02 14.5 C 7.09 g/m*3 14.5 C 0 km/h
1242 15-07-2011 08:22:02 14.7 C 7.18 g/m*3 14.7 C 0 km/h
1243 15-07-2011 08:34:02 14.9 C 7.14 g/m*3 14.9 C 0 km/h
1244 15-07-2011 08:46:01 15.4 C 7.09 g/m*3 15.4 C 0 km/h
1245 15-07-2011 08:58:01 15.1 C 7.1 g/m*3 15.1 C 0 km/h
1246 15-07-2011 09:10:01 15 C 7.18 g/m*3 15 C 0 km/h
1247 15-07-2011 09:22:01 15.1 C 7.22 g/m*3 15.1 C 0 km/h
1248 15-07-2011 09:34:02 15.4 C 7.23 g/m*3 15.4 C 0 km/h
1249 15-07-2011 09:46:02 15.6 C 7.31 g/m*3 15.6 C 0 km/h
1250 15-07-2011 09:58:02 16.9 C 7.05 g/m*3 16.9 C 0 km/h
Sensor: Nr:Datum:Temp:Abs-Feuchte:Windchill:Wind:
Aussen-T/F 1251 15-07-2011 10:10:02 17.7 C 6.79 g/m*3 17.7 C 0 km/h
1252 15-07-2011 10:22:02 18.2 C 6.37 g/m*3 18.2 C 0 km/h
1253 15-07-2011 10:34:03 18.9 C 6.8 g/m*3 18.9 C 0 km/h
1254 15-07-2011 10:46:02 19.3 C 5.97 g/m*3 19.3 C 0 km/h
1255 15-07-2011 10:58:02 19.5 C 6.04 g/m*3 19.5 C 0 km/h
1256 15-07-2011 11:10:02 19.5 C 5.87 g/m*3 19.5 C 0 km/h
1257 15-07-2011 11:22:02 19.8 C 5.81 g/m*3 19.8 C 0 km/h
1258 15-07-2011 11:34:03 20.8 C 5.79 g/m*3 20.8 C 0 km/h
1259 15-07-2011 11:46:02 19.8 C 5.47 g/m*3 19.8 C 0 km/h
1260 15-07-2011 11:58:02 19.8 C 5.3 g/m*3 19.8 C 0 km/h
1261 15-07-2011 12:10:02 19.8 C 5.3 g/m*3 19.8 C 0 km/h
1262 15-07-2011 12:22:01 20.1 C 5.39 g/m*3 20.1 C 0 km/h
1263 15-07-2011 12:34:02 20.8 C 5.79 g/m*3 20.8 C 0 km/h
1264 15-07-2011 12:46:02 21.3 C 5.59 g/m*3 21.3 C 0 km/h
1265 15-07-2011 12:58:02 21.2 C 5.19 g/m*3 21.2 C 0 km/h
1266 15-07-2011 13:10:02 23 C 5.34 g/m*3 23 C 0 km/h
1267 15-07-2011 13:22:02 22.8 C 5.08 g/m*3 22.8 C 0 km/h
1268 15-07-2011 13:34:02 23.5 C 4.23 g/m*3 23.5 C 0 km/h
1269 15-07-2011 13:46:02 24.2 C 5.28 g/m*3 24.2 C 0 km/h
1270 15-07-2011 13:58:02 24.8 C 4.55 g/m*3 24.8 C 0 km/h
1271 15-07-2011 14:10:03 25.9 C 4.84 g/m*3 25.9 C 0 km/h
1272 15-07-2011 14:22:02 27.1 C 5.18 g/m*3 27.1 C 0 km/h
1273 15-07-2011 14:34:02 29.3 C 5.84 g/m*3 29.3 C 0 km/h
1274 15-07-2011 14:46:03 29 C 5.74 g/m*3 29 C 0 km/h
1275 15-07-2011 14:58:03 25.5 C 4.73 g/m*3 25.5 C 0 km/h
Sensor: Nr:Datum:Temp:Abs-Feuchte:Windchill:Wind:
Aussen-T/F 1276 15-07-2011 15:10:04 28.1 C 5.47 g/m*3 28.1 C 0 km/h
1277 15-07-2011 15:22:03 26.3 C 4.95 g/m*3 26.3 C 0 km/h
1278 15-07-2011 15:34:03 27.6 C 5.32 g/m*3 27.6 C 0 km/h
1279 15-07-2011 15:46:03 26.2 C 4.92 g/m*3 26.2 C 0 km/h
1280 15-07-2011 15:58:03 28.7 C 5.65 g/m*3 28.7 C 0 km/h
1281 15-07-2011 16:10:03 31.3 C 6.5 g/m*3 31.3 C 0 km/h
1282 15-07-2011 16:22:03 28.2 C 5.5 g/m*3 28.2 C 0 km/h
1283 15-07-2011 16:34:03 27.4 C 5.26 g/m*3 27.4 C 0 km/h
1284 15-07-2011 16:46:02 25.7 C 4.79 g/m*3 25.7 C 0 km/h
1285 15-07-2011 16:58:02 28 C 5.44 g/m*3 28 C 0 km/h
1286 15-07-2011 17:10:03 27.3 C 5.23 g/m*3 27.3 C 0 km/h
1287 15-07-2011 17:22:02 28.5 C 5.59 g/m*3 28.5 C 0 km/h
1288 15-07-2011 17:34:03 25.2 C 4.66 g/m*3 25.2 C 0 km/h
1289 15-07-2011 17:46:01 25.2 C 4.66 g/m*3 25.2 C 0 km/h
1290 15-07-2011 17:58:01 25.6 C 4.76 g/m*3 25.6 C 0 km/h
1291 15-07-2011 18:10:03 26.4 C 4.98 g/m*3 26.4 C 0 km/h
1292 15-07-2011 18:22:02 24.3 C 4.43 g/m*3 24.3 C 0 km/h
1293 15-07-2011 18:34:02 27.6 C 5.32 g/m*3 27.6 C 0 km/h
1294 15-07-2011 18:46:02 29.6 C 5.94 g/m*3 29.6 C 0 km/h
1295 15-07-2011 18:58:02 27.1 C 5.18 g/m*3 27.1 C 0 km/h
1296 15-07-2011 19:10:05 28 C 5.44 g/m*3 28 C 0 km/h
1297 15-07-2011 19:22:02 25.1 C 4.63 g/m*3 25.1 C 0 km/h
1298 15-07-2011 19:34:02 23.2 C 4.16 g/m*3 23.2 C 0 km/h
1299 15-07-2011 19:46:02 24.2 C 4.4 g/m*3 24.2 C 0 km/h
1300 15-07-2011 19:58:02 24 C 4.35 g/m*3 24 C 0 km/h
Sensor: Nr:Datum:Temp:Abs-Feuchte:Windchill:Wind:
Aussen-T/F 1301 15-07-2011 20:10:02 23 C 4.32 g/m*3 23 C 0 km/h
1302 15-07-2011 20:22:02 22 C 4.46 g/m*3 22 C 0 km/h
1303 15-07-2011 20:34:02 20.7 C 5.76 g/m*3 20.7 C 0 km/h
1304 15-07-2011 20:46:02 19.9 C 6.01 g/m*3 19.9 C 0 km/h
1305 15-07-2011 20:58:02 19.7 C 5.94 g/m*3 19.7 C 0 km/h
1306 15-07-2011 21:10:03 18.6 C 6.37 g/m*3 18.6 C 0 km/h
1307 15-07-2011 21:22:02 17.9 C 6.26 g/m*3 17.9 C 0 km/h
1308 15-07-2011 21:34:02 17.4 C 5.78 g/m*3 17.4 C 0 km/h
1309 15-07-2011 21:46:02 16.8 C 6 g/m*3 16.8 C 0 km/h
1310 15-07-2011 21:58:02 16.2 C 5.79 g/m*3 16.2 C 0 km/h
1311 15-07-2011 22:10:02 15.8 C 6.46 g/m*3 15.8 C 0 km/h
1312 15-07-2011 22:22:01 15 C 6.03 g/m*3 15 C 0 km/h
1313 15-07-2011 22:34:02 14.5 C 6.34 g/m*3 14.5 C 0 km/h
1314 15-07-2011 22:47:02 14.1 C 6.19 g/m*3 14.1 C 0 km/h
1315 15-07-2011 22:59:02 13.8 C 6.31 g/m*3 13.8 C 0 km/h
1316 15-07-2011 23:11:02 13.4 C 6.04 g/m*3 13.4 C 0 km/h
1317 15-07-2011 23:23:02 13.1 C 6.16 g/m*3 13.1 C 0 km/h
1318 15-07-2011 23:35:02 13 C 6.24 g/m*3 13 C 0 km/h
1319 15-07-2011 23:47:02 12.8 C 6.5 g/m*3 12.8 C 0 km/h
1320 15-07-2011 23:59:02 12.4 C 6.34 g/m*3 12.4 C 0 km/h
1321 16-07-2011 00:11:02 12.2 C 6.15 g/m*3 12.2 C 0 km/h
1322 16-07-2011 00:23:02 12.3 C 6.3 g/m*3 12.3 C 0 km/h
1323 16-07-2011 00:35:02 12.1 C 6.22 g/m*3 12.1 C 0 km/h
1324 16-07-2011 00:47:02 11.9 C 6.25 g/m*3 11.9 C 0 km/h
1325 16-07-2011 00:59:02 11.7 C 6.28 g/m*3 11.7 C 0 km/h
Sensor: Nr:Datum:Temp:Abs-Feuchte:Windchill:Wind:
Aussen-T/F 1326 16-07-2011 01:11:02 11.3 C 6.32 g/m*3 11.3 C 0 km/h
1327 16-07-2011 01:23:02 11.1 C 6.35 g/m*3 11.1 C 0 km/h
1328 16-07-2011 01:35:02 10.8 C 6.42 g/m*3 10.8 C 0 km/h
1329 16-07-2011 01:47:02 10.7 C 6.48 g/m*3 10.7 C 0 km/h
1330 16-07-2011 01:59:02 10.6 C 6.64 g/m*3 10.6 C 0 km/h
1331 16-07-2011 02:11:02 10.4 C 6.65 g/m*3 10.4 C 0 km/h
1332 16-07-2011 02:23:02 10.3 C 6.7 g/m*3 10.3 C 0 km/h
1333 16-07-2011 02:35:02 10.3 C 6.8 g/m*3 10.3 C 0 km/h
1334 16-07-2011 02:47:02 10.1 C 6.71 g/m*3 10.1 C 0 km/h
1335 16-07-2011 02:59:02 9.9 C 6.82 g/m*3 9.9 C 0 km/h
1336 16-07-2011 03:11:03 9.8 C 6.87 g/m*3 9.8 C 0 km/h
1337 16-07-2011 03:23:03 9.7 C 6.91 g/m*3 9.7 C 0 km/h
1338 16-07-2011 03:35:03 9.7 C 7.01 g/m*3 9.7 C 0 km/h
1339 16-07-2011 03:47:03 9.4 C 6.96 g/m*3 9.4 C 0 km/h
1340 16-07-2011 03:59:03 9.1 C 6.74 g/m*3 9.1 C 0 km/h
1341 16-07-2011 04:11:03 9 C 6.79 g/m*3 9 C 0 km/h
1342 16-07-2011 04:23:03 8.9 C 6.92 g/m*3 8.9 C 0 km/h
1343 16-07-2011 04:35:03 8.9 C 7.1 g/m*3 8.9 C 0 km/h
1344 16-07-2011 04:47:03 8.7 C 7.01 g/m*3 8.7 C 0 km/h
1345 16-07-2011 04:59:03 8.5 C 6.92 g/m*3 8.5 C 0 km/h
1346 16-07-2011 05:11:03 8.5 C 7 g/m*3 8.5 C 0 km/h
1347 16-07-2011 05:23:03 8.5 C 7.09 g/m*3 8.5 C 0 km/h
1348 16-07-2011 05:35:03 8.4 C 7.04 g/m*3 8.4 C 0 km/h
1349 16-07-2011 05:47:03 8.2 C 6.95 g/m*3 8.2 C 0 km/h
1350 16-07-2011 05:59:03 8.5 C 7.17 g/m*3 8.5 C 0 km/h
Sensor: Nr:Datum:Temp:Abs-Feuchte:Windchill:Wind:
Aussen-T/F 1351 16-07-2011 06:11:03 8.4 C 7.13 g/m*3 8.4 C 0 km/h
1352 16-07-2011 06:23:03 8.5 C 7.17 g/m*3 8.5 C 0 km/h
1353 16-07-2011 06:35:03 8.6 C 7.3 g/m*3 8.6 C 0 km/h
1354 16-07-2011 06:47:03 8.8 C 7.4 g/m*3 8.8 C 0 km/h
1355 16-07-2011 06:59:03 9.1 C 7.45 g/m*3 9.1 C 0 km/h
1356 16-07-2011 07:11:03 9.8 C 7.79 g/m*3 9.8 C 0 km/h
1357 16-07-2011 07:23:03 11 C 8.31 g/m*3 11 C 0 km/h
1358 16-07-2011 07:35:04 11.7 C 8.26 g/m*3 11.7 C 0 km/h
1359 16-07-2011 07:47:04 11.9 C 7.94 g/m*3 11.9 C 0 km/h
1360 16-07-2011 07:59:04 12.6 C 7.85 g/m*3 12.6 C 0 km/h
1361 16-07-2011 08:11:04 13.5 C 7.95 g/m*3 13.5 C 0 km/h
1362 16-07-2011 08:23:02 13.7 C 7.7 g/m*3 13.7 C 0 km/h
1363 16-07-2011 08:35:02 14.2 C 7.45 g/m*3 14.2 C 0 km/h
1364 16-07-2011 08:47:02 14.8 C 7.47 g/m*3 14.8 C 0 km/h
1365 16-07-2011 08:59:02 15.8 C 7.54 g/m*3 15.8 C 0 km/h
1366 16-07-2011 09:11:03 16.5 C 7.44 g/m*3 16.5 C 0 km/h
1367 16-07-2011 09:23:02 17.1 C 7.57 g/m*3 17.1 C 0 km/h
1368 16-07-2011 09:35:02 17.7 C 7.39 g/m*3 17.7 C 0 km/h
1369 16-07-2011 09:47:02 18.1 C 7.42 g/m*3 18.1 C 0 km/h
1370 16-07-2011 09:59:02 19.7 C 7.3 g/m*3 19.7 C 0 km/h
1371 16-07-2011 10:11:01 20.1 C 7.3 g/m*3 20.1 C 0 km/h
1372 16-07-2011 10:23:02 20.3 C 8.09 g/m*3 20.3 C 0 km/h
1373 16-07-2011 10:35:02 21.4 C 8.06 g/m*3 21.4 C 0 km/h
1374 16-07-2011 10:47:01 22.5 C 5.99 g/m*3 22.5 C 0 km/h
1375 16-07-2011 10:59:01 23.1 C 5.17 g/m*3 23.1 C 0 km/h
Sensor: Nr:Datum:Temp:Abs-Feuchte:Windchill:Wind:
Aussen-T/F 1376 16-07-2011 11:11:02 24 C 5 g/m*3 24 C 0 km/h
1377 16-07-2011 11:23:01 24.4 C 4.67 g/m*3 24.4 C 0 km/h
1378 16-07-2011 11:35:01 25.2 C 4.89 g/m*3 25.2 C 0 km/h
1379 16-07-2011 11:47:01 25.6 C 5 g/m*3 25.6 C 0 km/h
1380 16-07-2011 11:59:01 26.3 C 4.95 g/m*3 26.3 C 0 km/h
1381 16-07-2011 12:11:02 25.7 C 4.79 g/m*3 25.7 C 0 km/h
1382 16-07-2011 12:23:01 26.2 C 5.17 g/m*3 26.2 C 0 km/h
1383 16-07-2011 12:35:02 25.8 C 5.06 g/m*3 25.8 C 0 km/h
1384 16-07-2011 12:47:01 26 C 4.87 g/m*3 26 C 0 km/h
1385 16-07-2011 12:59:01 26 C 5.11 g/m*3 26 C 0 km/h
1386 16-07-2011 13:11:02 26.7 C 5.06 g/m*3 26.7 C 0 km/h
1387 16-07-2011 13:23:02 27.3 C 5.23 g/m*3 27.3 C 0 km/h
1388 16-07-2011 13:35:01 27.2 C 5.2 g/m*3 27.2 C 0 km/h
1389 16-07-2011 13:47:02 26.3 C 4.95 g/m*3 26.3 C 0 km/h
1390 16-07-2011 13:59:02 26.6 C 5.03 g/m*3 26.6 C 0 km/h
1391 16-07-2011 14:11:01 26.6 C 5.03 g/m*3 26.6 C 0 km/h
1392 16-07-2011 14:23:02 26.8 C 5.35 g/m*3 26.8 C 0 km/h
1393 16-07-2011 14:35:01 27.3 C 5.23 g/m*3 27.3 C 0 km/h
1394 16-07-2011 14:47:02 27.4 C 5.26 g/m*3 27.4 C 0 km/h
1395 16-07-2011 14:59:02 28.1 C 5.47 g/m*3 28.1 C 0 km/h
1396 16-07-2011 15:11:01 27.9 C 5.41 g/m*3 27.9 C 0 km/h
1397 16-07-2011 15:23:02 27.5 C 5.29 g/m*3 27.5 C 0 km/h
1398 16-07-2011 15:35:01 27.7 C 5.35 g/m*3 27.7 C 0 km/h
1399 16-07-2011 15:47:02 27 C 5.15 g/m*3 27 C 0 km/h
1400 16-07-2011 15:59:03 27.3 C 5.23 g/m*3 27.3 C 0 km/h
Sensor: Nr:Datum:Temp:Abs-Feuchte:Windchill:Wind:
Aussen-T/F 1401 16-07-2011 16:11:02 27.7 C 5.35 g/m*3 27.7 C 0 km/h
1402 16-07-2011 16:23:02 27.9 C 5.41 g/m*3 27.9 C 0 km/h
1403 16-07-2011 16:35:03 28.3 C 5.53 g/m*3 28.3 C 0 km/h
1404 16-07-2011 16:47:01 27.5 C 5.29 g/m*3 27.5 C 0 km/h
1405 16-07-2011 16:59:01 27.5 C 5.29 g/m*3 27.5 C 0 km/h
1406 16-07-2011 17:11:02 26.8 C 5.09 g/m*3 26.8 C 0 km/h
1407 16-07-2011 17:23:02 26.9 C 5.63 g/m*3 26.9 C 0 km/h
1408 16-07-2011 17:35:02 26.4 C 5.23 g/m*3 26.4 C 0 km/h
1409 16-07-2011 17:47:02 26.5 C 5.51 g/m*3 26.5 C 0 km/h
1410 16-07-2011 17:59:02 25.5 C 5.68 g/m*3 25.5 C 0 km/h
1411 16-07-2011 18:11:02 25.2 C 6.05 g/m*3 25.2 C 0 km/h
1412 16-07-2011 18:23:02 25.1 C 5.79 g/m*3 25.1 C 0 km/h
1413 16-07-2011 18:35:01 25 C 5.75 g/m*3 25 C 0 km/h
1414 16-07-2011 18:47:02 24.9 C 5.72 g/m*3 24.9 C 0 km/h
1415 16-07-2011 18:59:02 24.8 C 5.69 g/m*3 24.8 C 0 km/h
1416 16-07-2011 19:11:01 24.5 C 5.82 g/m*3 24.5 C 0 km/h
1417 16-07-2011 19:23:01 24.3 C 6.2 g/m*3 24.3 C 0 km/h
1418 16-07-2011 19:35:02 24.3 C 5.75 g/m*3 24.3 C 0 km/h
1419 16-07-2011 19:47:02 24.1 C 6.13 g/m*3 24.1 C 0 km/h
1420 16-07-2011 19:59:02 23.7 C 6.2 g/m*3 23.7 C 0 km/h
1421 16-07-2011 20:11:02 23.4 C 6.31 g/m*3 23.4 C 0 km/h
1422 16-07-2011 20:23:02 23.2 C 6.24 g/m*3 23.2 C 0 km/h
1423 16-07-2011 20:35:02 22.5 C 7.19 g/m*3 22.5 C 0 km/h
1424 16-07-2011 20:47:02 21.9 C 7.53 g/m*3 21.9 C 0 km/h
1425 16-07-2011 20:59:02 21.4 C 7.5 g/m*3 21.4 C 0 km/h
Sensor: Nr:Datum:Temp:Abs-Feuchte:Windchill:Wind:
Aussen-T/F 1426 16-07-2011 21:11:02 21.4 C 7.31 g/m*3 21.4 C 0 km/h
1427 16-07-2011 21:23:02 21.3 C 7.46 g/m*3 21.3 C 0 km/h
1428 16-07-2011 21:35:02 21.3 C 7.27 g/m*3 21.3 C 0 km/h
1429 16-07-2011 21:47:01 22.6 C 7.23 g/m*3 22.6 C 0 km/h
1430 16-07-2011 21:59:01 22.1 C 7.42 g/m*3 22.1 C 0 km/h
1431 16-07-2011 22:11:02 21.5 C 7.73 g/m*3 21.5 C 0 km/h
1432 16-07-2011 22:24:02 20.9 C 8.38 g/m*3 20.9 C 0 km/h
1433 16-07-2011 22:36:02 20.3 C 8.09 g/m*3 20.3 C 0 km/h
1434 16-07-2011 22:48:02 19.8 C 8.54 g/m*3 19.8 C 0 km/h
1435 16-07-2011 23:00:02 19.7 C 8.49 g/m*3 19.7 C 0 km/h
1436 16-07-2011 23:12:02 19.7 C 8.49 g/m*3 19.7 C 0 km/h
1437 16-07-2011 23:24:02 19.8 C 8.37 g/m*3 19.8 C 0 km/h
1438 16-07-2011 23:36:02 20.9 C 8.38 g/m*3 20.9 C 0 km/h
1439 16-07-2011 23:48:02 19.9 C 9.28 g/m*3 19.9 C 0 km/h
1440 17-07-2011 00:00:02 19.1 C 9.67 g/m*3 19.1 C 0 km/h
1441 17-07-2011 00:12:02 18.2 C 10.1 g/m*3 18.2 C 0 km/h
1442 17-07-2011 00:24:02 17.4 C 10.67 g/m*3 17.4 C 0 km/h
1443 17-07-2011 00:36:02 17 C 11 g/m*3 17 C 0 km/h
1444 17-07-2011 00:48:02 16.8 C 11.29 g/m*3 16.8 C 0 km/h
1445 17-07-2011 01:00:02 16.6 C 11.44 g/m*3 16.6 C 0 km/h
1446 17-07-2011 01:12:02 16.5 C 11.51 g/m*3 16.5 C 0 km/h
1447 17-07-2011 01:24:02 16.4 C 11.58 g/m*3 16.4 C 0 km/h
1448 17-07-2011 01:36:02 16.4 C 11.72 g/m*3 16.4 C 0 km/h
1449 17-07-2011 01:48:02 16.5 C 11.94 g/m*3 16.5 C 0 km/h
1450 17-07-2011 02:00:02 16.6 C 12.01 g/m*3 16.6 C 0 km/h
Sensor: Nr:Datum:Temp:Abs-Feuchte:Windchill:Wind:
Aussen-T/F 1451 17-07-2011 02:12:02 16.5 C 12.08 g/m*3 16.5 C 0 km/h
1452 17-07-2011 02:24:02 16.5 C 12.08 g/m*3 16.5 C 0 km/h
1453 17-07-2011 02:36:02 16.5 C 12.08 g/m*3 16.5 C 0 km/h
1454 17-07-2011 02:48:03 16.5 C 12.22 g/m*3 16.5 C 0 km/h
1455 17-07-2011 03:00:03 16.6 C 12.29 g/m*3 16.6 C 0 km/h
1456 17-07-2011 03:12:03 16.5 C 12.22 g/m*3 16.5 C 0 km/h
1457 17-07-2011 03:24:03 16.5 C 12.36 g/m*3 16.5 C 0 km/h
1458 17-07-2011 03:36:03 16.5 C 12.36 g/m*3 16.5 C 0 km/h
1459 17-07-2011 03:48:03 16.5 C 12.36 g/m*3 16.5 C 0 km/h
1460 17-07-2011 04:00:03 16.5 C 12.36 g/m*3 16.5 C 0 km/h
1461 17-07-2011 04:12:03 16.5 C 12.36 g/m*3 16.5 C 0 km/h
1462 17-07-2011 04:24:03 16.6 C 12.43 g/m*3 16.6 C 0 km/h
1463 17-07-2011 04:36:03 16.8 C 12.58 g/m*3 16.8 C 0 km/h
1464 17-07-2011 04:48:03 16.4 C 12.28 g/m*3 16.4 C 0 km/h
1465 17-07-2011 05:00:03 16.3 C 12.21 g/m*3 16.3 C 0 km/h
1466 17-07-2011 05:12:03 16.2 C 12.14 g/m*3 16.2 C 0 km/h
1467 17-07-2011 05:24:03 16.2 C 12.14 g/m*3 16.2 C 0 km/h
1468 17-07-2011 05:36:03 16.2 C 12.14 g/m*3 16.2 C 0 km/h
1469 17-07-2011 05:48:03 16.2 C 12.14 g/m*3 16.2 C 0 km/h
1470 17-07-2011 06:00:03 16.2 C 12.14 g/m*3 16.2 C 0 km/h
1471 17-07-2011 06:12:03 16.2 C 12.27 g/m*3 16.2 C 0 km/h
1472 17-07-2011 06:24:03 16.2 C 12.27 g/m*3 16.2 C 0 km/h
1473 17-07-2011 06:36:03 16 C 12.13 g/m*3 16 C 0 km/h
1474 17-07-2011 06:48:03 16 C 12.13 g/m*3 16 C 0 km/h
1475 17-07-2011 07:00:03 16 C 12.13 g/m*3 16 C 0 km/h
Sensor: Nr:Datum:Temp:Abs-Feuchte:Windchill:Wind:
Aussen-T/F 1476 17-07-2011 07:12:04 15.9 C 12.05 g/m*3 15.9 C 0 km/h
1477 17-07-2011 07:24:04 15.9 C 12.05 g/m*3 15.9 C 0 km/h
1478 17-07-2011 07:36:04 15.8 C 11.98 g/m*3 15.8 C 0 km/h
1479 17-07-2011 07:48:04 15.8 C 11.98 g/m*3 15.8 C 0 km/h
1480 17-07-2011 08:00:04 15.9 C 12.05 g/m*3 15.9 C 0 km/h
1481 17-07-2011 08:12:04 16 C 12.13 g/m*3 16 C 0 km/h
1482 17-07-2011 08:24:02 15.6 C 11.84 g/m*3 15.6 C 0 km/h
1483 17-07-2011 08:36:02 15.4 C 11.69 g/m*3 15.4 C 0 km/h
1484 17-07-2011 08:48:02 15.3 C 11.49 g/m*3 15.3 C 0 km/h
1485 17-07-2011 09:00:02 15.5 C 11.63 g/m*3 15.5 C 0 km/h
1486 17-07-2011 09:12:02 15.6 C 11.7 g/m*3 15.6 C 0 km/h
1487 17-07-2011 09:24:02 15.4 C 11.43 g/m*3 15.4 C 0 km/h
1488 17-07-2011 09:36:02 16.2 C 11.58 g/m*3 16.2 C 0 km/h
1489 17-07-2011 09:48:02 16.2 C 11.17 g/m*3 16.2 C 0 km/h
1490 17-07-2011 10:00:02 16.8 C 11.29 g/m*3 16.8 C 0 km/h
1491 17-07-2011 10:12:02 17.3 C 10.9 g/m*3 17.3 C 0 km/h
1492 17-07-2011 10:24:01 18 C 10.91 g/m*3 18 C 0 km/h
1493 17-07-2011 10:36:03 18.2 C 10.72 g/m*3 18.2 C 0 km/h
1494 17-07-2011 10:48:02 18 C 10.75 g/m*3 18 C 0 km/h
1495 17-07-2011 11:00:02 18.4 C 11.01 g/m*3 18.4 C 0 km/h
1496 17-07-2011 11:12:03 19.2 C 10.72 g/m*3 19.2 C 0 km/h
1497 17-07-2011 11:24:02 19.4 C 10.84 g/m*3 19.4 C 0 km/h
1498 17-07-2011 11:36:02 19.2 C 10.55 g/m*3 19.2 C 0 km/h
1499 17-07-2011 11:48:02 20.2 C 10.67 g/m*3 20.2 C 0 km/h
1500 17-07-2011 12:00:02 20.5 C 10.14 g/m*3 20.5 C 0 km/h
Sensor: Nr:Datum:Temp:Abs-Feuchte:Windchill:Wind:
Aussen-T/F 1501 17-07-2011 12:12:03 21.2 C 10.01 g/m*3 21.2 C 0 km/h
1502 17-07-2011 12:24:02 20.4 C 9.91 g/m*3 20.4 C 0 km/h
1503 17-07-2011 12:36:02 20.2 C 10.14 g/m*3 20.2 C 0 km/h
1504 17-07-2011 12:48:01 20.7 C 10.62 g/m*3 20.7 C 0 km/h
1505 17-07-2011 13:00:01 21 C 9.53 g/m*3 21 C 0 km/h
1506 17-07-2011 13:12:02 20.5 C 9.07 g/m*3 20.5 C 0 km/h
1507 17-07-2011 13:24:02 20 C 8.3 g/m*3 20 C 0 km/h
1508 17-07-2011 13:36:01 19.4 C 8.01 g/m*3 19.4 C 0 km/h
1509 17-07-2011 13:48:02 20.1 C 8.69 g/m*3 20.1 C 0 km/h
1510 17-07-2011 14:00:02 20.6 C 8.41 g/m*3 20.6 C 0 km/h
1511 17-07-2011 14:12:01 19.5 C 8.22 g/m*3 19.5 C 0 km/h
1512 17-07-2011 14:24:02 18.7 C 8.49 g/m*3 18.7 C 0 km/h
1513 17-07-2011 14:36:01 18.2 C 8.08 g/m*3 18.2 C 0 km/h
1514 17-07-2011 14:48:02 19.2 C 7.75 g/m*3 19.2 C 0 km/h
1515 17-07-2011 15:00:02 20 C 7.43 g/m*3 20 C 0 km/h
1516 17-07-2011 15:12:02 19.9 C 7.73 g/m*3 19.9 C 0 km/h
1517 17-07-2011 15:24:02 19.9 C 7.56 g/m*3 19.9 C 0 km/h
1518 17-07-2011 15:36:03 20.2 C 7.17 g/m*3 20.2 C 0 km/h
1519 17-07-2011 15:48:02 21.2 C 7.04 g/m*3 21.2 C 0 km/h
1520 17-07-2011 16:00:02 21.2 C 6.86 g/m*3 21.2 C 0 km/h
1521 17-07-2011 16:12:01 21 C 6.59 g/m*3 21 C 0 km/h
1522 17-07-2011 16:24:02 21.1 C 6.45 g/m*3 21.1 C 0 km/h
1523 17-07-2011 16:36:02 20.3 C 6.68 g/m*3 20.3 C 0 km/h
1524 17-07-2011 16:48:02 20.4 C 6.72 g/m*3 20.4 C 0 km/h
1525 17-07-2011 17:00:02 19.8 C 7 g/m*3 19.8 C 0 km/h
Sensor: Nr:Datum:Temp:Abs-Feuchte:Windchill:Wind:
Aussen-T/F 1526 17-07-2011 17:12:03 20.4 C 6.55 g/m*3 20.4 C 0 km/h
1527 17-07-2011 17:24:02 19.4 C 6.67 g/m*3 19.4 C 0 km/h
1528 17-07-2011 17:36:02 19.2 C 6.76 g/m*3 19.2 C 0 km/h
1529 17-07-2011 17:48:01 19.3 C 6.63 g/m*3 19.3 C 0 km/h
1530 17-07-2011 18:00:01 19.3 C 6.63 g/m*3 19.3 C 0 km/h
1531 17-07-2011 18:12:02 20.3 C 6.68 g/m*3 20.3 C 0 km/h
1532 17-07-2011 18:24:01 19.4 C 7.01 g/m*3 19.4 C 0 km/h
1533 17-07-2011 18:36:02 18.4 C 6.76 g/m*3 18.4 C 0 km/h
1534 17-07-2011 18:48:01 18.7 C 7.36 g/m*3 18.7 C 0 km/h
1535 17-07-2011 19:00:01 18.4 C 7.24 g/m*3 18.4 C 0 km/h
1536 17-07-2011 19:12:02 18.3 C 7.66 g/m*3 18.3 C 0 km/h
1537 17-07-2011 19:24:01 18.1 C 7.11 g/m*3 18.1 C 0 km/h
1538 17-07-2011 19:36:02 18.4 C 7.71 g/m*3 18.4 C 0 km/h
1539 17-07-2011 19:48:01 17.8 C 7.59 g/m*3 17.8 C 0 km/h
1540 17-07-2011 20:00:01 17.5 C 8.05 g/m*3 17.5 C 0 km/h
1541 17-07-2011 20:12:02 17.3 C 7.81 g/m*3 17.3 C 0 km/h
1542 17-07-2011 20:24:02 18.1 C 7.26 g/m*3 18.1 C 0 km/h
1543 17-07-2011 20:36:02 18.4 C 7.24 g/m*3 18.4 C 0 km/h
1544 17-07-2011 20:48:01 18.1 C 7.42 g/m*3 18.1 C 0 km/h
1545 17-07-2011 21:00:01 17.5 C 8.2 g/m*3 17.5 C 0 km/h
1546 17-07-2011 21:12:02 17.1 C 8.73 g/m*3 17.1 C 0 km/h
1547 17-07-2011 21:24:02 16.9 C 8.2 g/m*3 16.9 C 0 km/h
1548 17-07-2011 21:36:01 16.5 C 8.71 g/m*3 16.5 C 0 km/h
1549 17-07-2011 21:48:02 16.4 C 8.23 g/m*3 16.4 C 0 km/h
1550 17-07-2011 22:00:02 15.8 C 8.35 g/m*3 15.8 C 0 km/h
Sensor: Nr:Datum:Temp:Abs-Feuchte:Windchill:Wind:
Aussen-T/F 1551 17-07-2011 22:12:02 15.8 C 8.21 g/m*3 15.8 C 0 km/h
1552 17-07-2011 22:25:03 15.9 C 8.13 g/m*3 15.9 C 0 km/h
1553 17-07-2011 22:37:03 16 C 7.49 g/m*3 16 C 0 km/h
1554 17-07-2011 22:49:03 15.3 C 7.7 g/m*3 15.3 C 0 km/h
1555 17-07-2011 23:01:03 14.8 C 7.98 g/m*3 14.8 C 0 km/h
1556 17-07-2011 23:13:04 15.4 C 7.49 g/m*3 15.4 C 0 km/h
1557 17-07-2011 23:25:04 15.8 C 7.54 g/m*3 15.8 C 0 km/h
1558 17-07-2011 23:37:04 15.8 C 7.54 g/m*3 15.8 C 0 km/h
1559 17-07-2011 23:49:04 15.6 C 7.71 g/m*3 15.6 C 0 km/h
1560 18-07-2011 00:01:04 15.9 C 8.13 g/m*3 15.9 C 0 km/h
1561 18-07-2011 00:13:04 15.5 C 8.2 g/m*3 15.5 C 0 km/h
1562 18-07-2011 00:25:04 15.6 C 8.38 g/m*3 15.6 C 0 km/h
1563 18-07-2011 00:37:04 15.3 C 8.36 g/m*3 15.3 C 0 km/h
1564 18-07-2011 00:49:04 15.1 C 8.51 g/m*3 15.1 C 0 km/h
1565 18-07-2011 01:01:04 14.5 C 8.83 g/m*3 14.5 C 0 km/h
1566 18-07-2011 01:13:04 14.5 C 8.95 g/m*3 14.5 C 0 km/h
1567 18-07-2011 01:25:04 14.5 C 8.95 g/m*3 14.5 C 0 km/h
1568 18-07-2011 01:37:04 14.5 C 8.95 g/m*3 14.5 C 0 km/h
1569 18-07-2011 01:49:04 14.4 C 8.9 g/m*3 14.4 C 0 km/h
1570 18-07-2011 02:01:04 14.3 C 8.85 g/m*3 14.3 C 0 km/h
1571 18-07-2011 02:13:04 14.1 C 8.86 g/m*3 14.1 C 0 km/h
1572 18-07-2011 02:25:04 13.7 C 8.88 g/m*3 13.7 C 0 km/h
1573 18-07-2011 02:37:04 14 C 9.05 g/m*3 14 C 0 km/h
1574 18-07-2011 02:49:04 13.9 C 9.23 g/m*3 13.9 C 0 km/h
1575 18-07-2011 03:01:04 13.4 C 9.3 g/m*3 13.4 C 0 km/h
Sensor: Nr:Datum:Temp:Abs-Feuchte:Windchill:Wind:
Aussen-T/F 1576 18-07-2011 03:13:04 13 C 9.3 g/m*3 13 C 0 km/h
1577 18-07-2011 03:25:04 12.7 C 9.35 g/m*3 12.7 C 0 km/h
1578 18-07-2011 03:37:05 12.9 C 9.69 g/m*3 12.9 C 0 km/h
1579 18-07-2011 03:49:05 12.6 C 9.51 g/m*3 12.6 C 0 km/h
1580 18-07-2011 04:01:05 12.2 C 9.28 g/m*3 12.2 C 0 km/h
1581 18-07-2011 04:13:05 12.3 C 9.45 g/m*3 12.3 C 0 km/h
1582 18-07-2011 04:25:05 12.7 C 9.68 g/m*3 12.7 C 0 km/h
1583 18-07-2011 04:37:05 12.9 C 9.69 g/m*3 12.9 C 0 km/h
1584 18-07-2011 04:49:05 13.1 C 9.59 g/m*3 13.1 C 0 km/h
1585 18-07-2011 05:01:05 13.2 C 9.3 g/m*3 13.2 C 0 km/h
1586 18-07-2011 05:13:05 12.9 C 9.24 g/m*3 12.9 C 0 km/h
1587 18-07-2011 05:25:05 13.1 C 9.36 g/m*3 13.1 C 0 km/h
1588 18-07-2011 05:37:05 13.1 C 9.47 g/m*3 13.1 C 0 km/h
1589 18-07-2011 05:49:05 13.4 C 9.42 g/m*3 13.4 C 0 km/h
1590 18-07-2011 06:01:05 13 C 8.85 g/m*3 13 C 0 km/h
1591 18-07-2011 06:13:05 12.8 C 8.96 g/m*3 12.8 C 0 km/h
1592 18-07-2011 06:25:05 13 C 9.19 g/m*3 13 C 0 km/h
1593 18-07-2011 06:37:05 13.4 C 9.18 g/m*3 13.4 C 0 km/h
1594 18-07-2011 06:49:05 13.5 C 9.01 g/m*3 13.5 C 0 km/h
1595 18-07-2011 07:01:05 14.4 C 9.02 g/m*3 14.4 C 0 km/h
1596 18-07-2011 07:13:05 15.5 C 8.72 g/m*3 15.5 C 0 km/h
1597 18-07-2011 07:25:05 15.9 C 8.67 g/m*3 15.9 C 0 km/h
1598 18-07-2011 07:37:03 16 C 8.45 g/m*3 16 C 0 km/h
1599 18-07-2011 07:49:02 15.6 C 8.64 g/m*3 15.6 C 0 km/h
1600 18-07-2011 08:01:02 15.7 C 8.7 g/m*3 15.7 C 0 km/h
Sensor: Nr:Datum:Temp:Abs-Feuchte:Windchill:Wind:
Aussen-T/F 1601 18-07-2011 08:13:02 15.8 C 8.75 g/m*3 15.8 C 0 km/h
1602 18-07-2011 08:25:02 16 C 8.45 g/m*3 16 C 0 km/h
1603 18-07-2011 08:37:01 16.4 C 8.51 g/m*3 16.4 C 0 km/h
1604 18-07-2011 08:49:02 16.6 C 8.48 g/m*3 16.6 C 0 km/h
1605 18-07-2011 09:01:01 16.9 C 8.34 g/m*3 16.9 C 0 km/h
1606 18-07-2011 09:13:01 16.7 C 8.1 g/m*3 16.7 C 0 km/h
1607 18-07-2011 09:25:02 17.4 C 8.15 g/m*3 17.4 C 0 km/h
1608 18-07-2011 09:37:02 17.4 C 7.85 g/m*3 17.4 C 0 km/h
1609 18-07-2011 09:49:02 17.3 C 7.81 g/m*3 17.3 C 0 km/h
1610 18-07-2011 10:01:02 17.1 C 7.86 g/m*3 17.1 C 0 km/h
1611 18-07-2011 10:13:02 17.6 C 7.95 g/m*3 17.6 C 0 km/h
1612 18-07-2011 10:25:02 17.5 C 7.6 g/m*3 17.5 C 0 km/h
1613 18-07-2011 10:37:03 17.5 C 7.6 g/m*3 17.5 C 0 km/h
1614 18-07-2011 10:49:02 18.2 C 7.62 g/m*3 18.2 C 0 km/h
1615 18-07-2011 11:01:02 18.7 C 7.52 g/m*3 18.7 C 0 km/h
1616 18-07-2011 11:13:02 18.3 C 7.51 g/m*3 18.3 C 0 km/h
1617 18-07-2011 11:25:02 18.5 C 7.44 g/m*3 18.5 C 0 km/h
1618 18-07-2011 11:37:02 18.6 C 7.64 g/m*3 18.6 C 0 km/h
1619 18-07-2011 11:49:02 19 C 7.33 g/m*3 19 C 0 km/h
1620 18-07-2011 12:01:02 18.9 C 7.45 g/m*3 18.9 C 0 km/h
1621 18-07-2011 12:13:02 18.7 C 7.2 g/m*3 18.7 C 0 km/h
1622 18-07-2011 12:25:02 19.2 C 7.09 g/m*3 19.2 C 0 km/h
1623 18-07-2011 12:37:02 19.9 C 7.22 g/m*3 19.9 C 0 km/h
1624 18-07-2011 12:49:02 19.7 C 7.13 g/m*3 19.7 C 0 km/h
1625 18-07-2011 13:01:02 20.6 C 7.16 g/m*3 20.6 C 0 km/h
Sensor: Nr:Datum:Temp:Abs-Feuchte:Windchill:Wind:
Aussen-T/F 1626 18-07-2011 13:13:03 20.8 C 7.24 g/m*3 20.8 C 0 km/h
1627 18-07-2011 13:25:02 20.4 C 6.9 g/m*3 20.4 C 0 km/h
1628 18-07-2011 13:37:02 21.5 C 5.85 g/m*3 21.5 C 0 km/h
1629 18-07-2011 13:49:02 20.9 C 6.37 g/m*3 20.9 C 0 km/h
1630 18-07-2011 14:01:02 21.9 C 6.18 g/m*3 21.9 C 0 km/h
1631 18-07-2011 14:13:02 22.5 C 6.59 g/m*3 22.5 C 0 km/h
1632 18-07-2011 14:25:02 24.3 C 6.64 g/m*3 24.3 C 0 km/h
1633 18-07-2011 14:37:02 24.6 C 6.08 g/m*3 24.6 C 0 km/h
1634 18-07-2011 14:49:02 24.5 C 6.04 g/m*3 24.5 C 0 km/h
1635 18-07-2011 15:01:02 23.3 C 6.06 g/m*3 23.3 C 0 km/h
1636 18-07-2011 15:13:02 24.3 C 5.97 g/m*3 24.3 C 0 km/h
1637 18-07-2011 15:25:03 23.7 C 5.99 g/m*3 23.7 C 0 km/h
1638 18-07-2011 15:37:02 24.6 C 6.53 g/m*3 24.6 C 0 km/h
1639 18-07-2011 15:49:03 23.7 C 6.2 g/m*3 23.7 C 0 km/h
1640 18-07-2011 16:01:02 21.2 C 5.93 g/m*3 21.2 C 0 km/h
1641 18-07-2011 16:13:02 16.1 C 5.62 g/m*3 16.1 C 0 km/h
1642 18-07-2011 16:25:02 14.4 C 8.41 g/m*3 14.4 C 0 km/h
1643 18-07-2011 16:37:02 14.7 C 8.94 g/m*3 14.7 C 0 km/h
1644 18-07-2011 16:49:02 18.1 C 9.12 g/m*3 18.1 C 0 km/h
1645 18-07-2011 17:01:02 22.4 C 8.74 g/m*3 22.4 C 0 km/h
1646 18-07-2011 17:13:02 23.2 C 7.48 g/m*3 23.2 C 0 km/h
1647 18-07-2011 17:25:02 23.7 C 6.84 g/m*3 23.7 C 0 km/h
1648 18-07-2011 17:37:02 24 C 6.74 g/m*3 24 C 0 km/h
1649 18-07-2011 17:49:02 25.2 C 6.75 g/m*3 25.2 C 0 km/h
1650 18-07-2011 18:01:02 21.6 C 7.02 g/m*3 21.6 C 0 km/h
Sensor: Nr:Datum:Temp:Abs-Feuchte:Windchill:Wind:
Aussen-T/F 1651 18-07-2011 18:13:02 18.7 C 5.76 g/m*3 18.7 C 0 km/h
1652 18-07-2011 18:25:02 17.7 C 6.04 g/m*3 17.7 C 0 km/h
1653 18-07-2011 18:37:01 17.9 C 6.11 g/m*3 17.9 C 0 km/h
1654 18-07-2011 18:49:02 17.9 C 6.11 g/m*3 17.9 C 0 km/h
1655 18-07-2011 19:01:01 17.6 C 6 g/m*3 17.6 C 0 km/h
1656 18-07-2011 19:13:01 21.2 C 6.12 g/m*3 21.2 C 0 km/h
1657 18-07-2011 19:25:02 20.9 C 5.65 g/m*3 20.9 C 0 km/h
1658 18-07-2011 19:37:02 21.2 C 5.74 g/m*3 21.2 C 0 km/h
1659 18-07-2011 19:49:02 19.7 C 6.11 g/m*3 19.7 C 0 km/h
1660 18-07-2011 20:01:03 18.9 C 6.48 g/m*3 18.9 C 0 km/h
1661 18-07-2011 20:13:03 18.4 C 6.45 g/m*3 18.4 C 0 km/h
1662 18-07-2011 20:25:02 17.5 C 7.01 g/m*3 17.5 C 0 km/h
1663 18-07-2011 20:37:02 16.4 C 7.26 g/m*3 16.4 C 0 km/h
1664 18-07-2011 20:49:01 15.8 C 7.4 g/m*3 15.8 C 0 km/h
1665 18-07-2011 21:01:02 15.4 C 7.62 g/m*3 15.4 C 0 km/h
1666 18-07-2011 21:13:02 14.9 C 7.65 g/m*3 14.9 C 0 km/h
1667 18-07-2011 21:25:01 15 C 7.57 g/m*3 15 C 0 km/h
1668 18-07-2011 21:37:02 14.6 C 7.63 g/m*3 14.6 C 0 km/h
1669 18-07-2011 21:49:02 14.2 C 7.82 g/m*3 14.2 C 0 km/h
1670 18-07-2011 22:02:03 14 C 7.84 g/m*3 14 C 0 km/h
1671 18-07-2011 22:14:04 13.8 C 7.86 g/m*3 13.8 C 0 km/h
1672 18-07-2011 22:26:04 13.5 C 7.72 g/m*3 13.5 C 0 km/h
1673 18-07-2011 22:38:04 13.5 C 7.84 g/m*3 13.5 C 0 km/h
1674 18-07-2011 22:50:04 13.7 C 8.05 g/m*3 13.7 C 0 km/h
1675 18-07-2011 23:02:04 14 C 7.96 g/m*3 14 C 0 km/h
Sensor: Nr:Datum:Temp:Abs-Feuchte:Windchill:Wind:
Aussen-T/F 1676 18-07-2011 23:14:04 14.2 C 7.94 g/m*3 14.2 C 0 km/h
1677 18-07-2011 23:26:04 14.1 C 7.89 g/m*3 14.1 C 0 km/h
1678 18-07-2011 23:38:04 14 C 8.08 g/m*3 14 C 0 km/h
1679 18-07-2011 23:50:04 13.4 C 7.9 g/m*3 13.4 C 0 km/h
1680 19-07-2011 00:02:04 13.1 C 7.99 g/m*3 13.1 C 0 km/h
1681 19-07-2011 00:14:04 12.5 C 8.03 g/m*3 12.5 C 0 km/h
1682 19-07-2011 00:26:04 12.8 C 8.29 g/m*3 12.8 C 0 km/h
1683 19-07-2011 00:38:04 12.8 C 8.06 g/m*3 12.8 C 0 km/h
1684 19-07-2011 00:50:04 12.4 C 7.98 g/m*3 12.4 C 0 km/h
1685 19-07-2011 01:02:04 12.1 C 8.15 g/m*3 12.1 C 0 km/h
1686 19-07-2011 01:14:04 12 C 8.21 g/m*3 12 C 0 km/h
1687 19-07-2011 01:26:04 12.1 C 8.26 g/m*3 12.1 C 0 km/h
1688 19-07-2011 01:38:04 12.1 C 8.26 g/m*3 12.1 C 0 km/h
1689 19-07-2011 01:50:04 11.8 C 8.31 g/m*3 11.8 C 0 km/h
1690 19-07-2011 02:02:04 11.9 C 8.47 g/m*3 11.9 C 0 km/h
1691 19-07-2011 02:14:05 11.5 C 8.26 g/m*3 11.5 C 0 km/h
1692 19-07-2011 02:26:05 11.7 C 8.47 g/m*3 11.7 C 0 km/h
1693 19-07-2011 02:38:05 11.5 C 8.37 g/m*3 11.5 C 0 km/h
1694 19-07-2011 02:50:05 11.4 C 8.42 g/m*3 11.4 C 0 km/h
1695 19-07-2011 03:02:05 11.8 C 8.63 g/m*3 11.8 C 0 km/h
1696 19-07-2011 03:14:05 11.8 C 8.63 g/m*3 11.8 C 0 km/h
1697 19-07-2011 03:26:05 11.8 C 8.63 g/m*3 11.8 C 0 km/h
1698 19-07-2011 03:38:05 11.2 C 8.31 g/m*3 11.2 C 0 km/h
1699 19-07-2011 03:50:05 11.1 C 8.26 g/m*3 11.1 C 0 km/h
1700 19-07-2011 04:02:05 11.2 C 8.41 g/m*3 11.2 C 0 km/h
Sensor: Nr:Datum:Temp:Abs-Feuchte:Windchill:Wind:
Aussen-T/F 1701 19-07-2011 04:14:05 11.6 C 8.73 g/m*3 11.6 C 0 km/h
1702 19-07-2011 04:26:05 11.8 C 8.84 g/m*3 11.8 C 0 km/h
1703 19-07-2011 04:38:05 11.8 C 8.84 g/m*3 11.8 C 0 km/h
1704 19-07-2011 04:50:05 12 C 8.85 g/m*3 12 C 0 km/h
1705 19-07-2011 05:02:05 11.9 C 8.79 g/m*3 11.9 C 0 km/h
1706 19-07-2011 05:14:05 11.9 C 8.68 g/m*3 11.9 C 0 km/h
1707 19-07-2011 05:26:05 12 C 8.74 g/m*3 12 C 0 km/h
1708 19-07-2011 05:38:05 11.8 C 8.74 g/m*3 11.8 C 0 km/h
1709 19-07-2011 05:50:05 11.3 C 8.36 g/m*3 11.3 C 0 km/h
1710 19-07-2011 06:02:05 10.8 C 8.2 g/m*3 10.8 C 0 km/h
1711 19-07-2011 06:14:05 11 C 8.31 g/m*3 11 C 0 km/h
1712 19-07-2011 06:26:06 11 C 8.41 g/m*3 11 C 0 km/h
1713 19-07-2011 06:38:06 10.9 C 8.36 g/m*3 10.9 C 0 km/h
1714 19-07-2011 06:50:06 11.2 C 8.62 g/m*3 11.2 C 0 km/h
1715 19-07-2011 07:02:02 11.2 C 8.62 g/m*3 11.2 C 0 km/h
1716 19-07-2011 07:14:02 11.9 C 9 g/m*3 11.9 C 0 km/h
1717 19-07-2011 07:26:03 12.8 C 9.52 g/m*3 12.8 C 0 km/h
1718 19-07-2011 07:38:02 13.7 C 9.83 g/m*3 13.7 C 0 km/h
1719 19-07-2011 07:50:02 13.8 C 9.29 g/m*3 13.8 C 0 km/h
1720 19-07-2011 08:02:02 14.1 C 9.1 g/m*3 14.1 C 0 km/h
1721 19-07-2011 08:14:02 14.4 C 9.02 g/m*3 14.4 C 0 km/h
1722 19-07-2011 08:26:03 15.2 C 8.83 g/m*3 15.2 C 0 km/h
1723 19-07-2011 08:38:02 15.7 C 8.7 g/m*3 15.7 C 0 km/h
1724 19-07-2011 08:50:02 16.6 C 8.62 g/m*3 16.6 C 0 km/h
1725 19-07-2011 09:02:02 16.8 C 8.29 g/m*3 16.8 C 0 km/h
Sensor: Nr:Datum:Temp:Abs-Feuchte:Windchill:Wind:
Aussen-T/F 1726 19-07-2011 09:14:02 17.4 C 8.45 g/m*3 17.4 C 0 km/h
1727 19-07-2011 09:26:02 17.7 C 8.45 g/m*3 17.7 C 0 km/h
1728 19-07-2011 09:38:02 18.7 C 8.33 g/m*3 18.7 C 0 km/h
1729 19-07-2011 09:50:02 19.2 C 7.91 g/m*3 19.2 C 0 km/h
1730 19-07-2011 10:02:02 18.9 C 7.78 g/m*3 18.9 C 0 km/h
1731 19-07-2011 10:14:02 19.1 C 7.7 g/m*3 19.1 C 0 km/h
1732 19-07-2011 10:26:02 18.8 C 7.57 g/m*3 18.8 C 0 km/h
1733 19-07-2011 10:38:02 19.7 C 7.98 g/m*3 19.7 C 0 km/h
1734 19-07-2011 10:50:02 19.3 C 7.63 g/m*3 19.3 C 0 km/h
1735 19-07-2011 11:02:02 20.8 C 7.42 g/m*3 20.8 C 0 km/h
1736 19-07-2011 11:14:02 21.5 C 7.35 g/m*3 21.5 C 0 km/h
1737 19-07-2011 11:26:02 21.3 C 7.64 g/m*3 21.3 C 0 km/h
1738 19-07-2011 11:38:01 20.2 C 7.34 g/m*3 20.2 C 0 km/h
1739 19-07-2011 11:50:02 21.3 C 7.27 g/m*3 21.3 C 0 km/h
1740 19-07-2011 12:02:01 21.6 C 7.21 g/m*3 21.6 C 0 km/h
1741 19-07-2011 12:14:01 22.2 C 6.68 g/m*3 22.2 C 0 km/h
1742 19-07-2011 12:26:02 22 C 6.79 g/m*3 22 C 0 km/h
1743 19-07-2011 12:38:02 23.1 C 6.41 g/m*3 23.1 C 0 km/h
1744 19-07-2011 12:50:02 23.3 C 6.48 g/m*3 23.3 C 0 km/h
1745 19-07-2011 13:02:02 23.5 C 6.98 g/m*3 23.5 C 0 km/h
1746 19-07-2011 13:14:02 24.2 C 6.6 g/m*3 24.2 C 0 km/h
1747 19-07-2011 13:26:02 24.4 C 6.9 g/m*3 24.4 C 0 km/h
1748 19-07-2011 13:38:02 24.6 C 6.75 g/m*3 24.6 C 0 km/h
1749 19-07-2011 13:50:02 25.6 C 6.19 g/m*3 25.6 C 0 km/h
1750 19-07-2011 14:02:02 27.2 C 5.72 g/m*3 27.2 C 0 km/h
Sensor: Nr:Datum:Temp:Abs-Feuchte:Windchill:Wind:
Aussen-T/F 1751 19-07-2011 14:14:02 26.6 C 6.29 g/m*3 26.6 C 0 km/h
1752 19-07-2011 14:26:02 25.3 C 5.85 g/m*3 25.3 C 0 km/h
1753 19-07-2011 14:38:01 26.9 C 6.4 g/m*3 26.9 C 0 km/h
1754 19-07-2011 14:50:03 25.8 C 6.02 g/m*3 25.8 C 0 km/h
1755 19-07-2011 15:02:02 25.5 C 5.92 g/m*3 25.5 C 0 km/h
1756 19-07-2011 15:14:02 24.5 C 5.6 g/m*3 24.5 C 0 km/h
1757 19-07-2011 15:26:02 25.2 C 6.05 g/m*3 25.2 C 0 km/h
1758 19-07-2011 15:38:03 25.1 C 6.02 g/m*3 25.1 C 0 km/h
1759 19-07-2011 15:50:02 23.9 C 6.27 g/m*3 23.9 C 0 km/h
1760 19-07-2011 16:02:01 23.1 C 7.86 g/m*3 23.1 C 0 km/h
1761 19-07-2011 16:14:01 22.5 C 8.19 g/m*3 22.5 C 0 km/h
1762 19-07-2011 16:26:02 22.1 C 8.59 g/m*3 22.1 C 0 km/h
1763 19-07-2011 16:38:02 21.2 C 7.04 g/m*3 21.2 C 0 km/h
1764 19-07-2011 16:50:02 16.4 C 10.47 g/m*3 16.4 C 0 km/h
1765 19-07-2011 17:02:03 16.2 C 10.89 g/m*3 16.2 C 0 km/h
1766 19-07-2011 17:14:03 16.2 C 11.17 g/m*3 16.2 C 0 km/h
1767 19-07-2011 17:26:02 16.7 C 11.23 g/m*3 16.7 C 0 km/h
1768 19-07-2011 17:38:02 17 C 11.14 g/m*3 17 C 0 km/h
1769 19-07-2011 17:50:01 16.6 C 11.02 g/m*3 16.6 C 0 km/h
1770 19-07-2011 18:02:02 16.9 C 11.22 g/m*3 16.9 C 0 km/h
1771 19-07-2011 18:14:02 17.1 C 11.35 g/m*3 17.1 C 0 km/h
1772 19-07-2011 18:26:01 17 C 11.29 g/m*3 17 C 0 km/h
1773 19-07-2011 18:38:02 16.7 C 11.37 g/m*3 16.7 C 0 km/h
1774 19-07-2011 18:50:01 16.7 C 11.23 g/m*3 16.7 C 0 km/h
1775 19-07-2011 19:02:02 16.8 C 11.44 g/m*3 16.8 C 0 km/h
Sensor: Nr:Datum:Temp:Abs-Feuchte:Windchill:Wind:
Aussen-T/F 1776 19-07-2011 19:14:02 16.6 C 11.3 g/m*3 16.6 C 0 km/h
1777 19-07-2011 19:26:01 16.3 C 10.96 g/m*3 16.3 C 0 km/h
1778 19-07-2011 19:38:02 16.2 C 11.03 g/m*3 16.2 C 0 km/h
1779 19-07-2011 19:50:01 16 C 10.9 g/m*3 16 C 0 km/h
1780 19-07-2011 20:02:02 16.1 C 11.24 g/m*3 16.1 C 0 km/h
1781 19-07-2011 20:14:02 16.2 C 11.45 g/m*3 16.2 C 0 km/h
1782 19-07-2011 20:26:02 16 C 11.31 g/m*3 16 C 0 km/h
1783 19-07-2011 20:38:01 15.7 C 10.97 g/m*3 15.7 C 0 km/h
1784 19-07-2011 20:50:02 15.4 C 10.51 g/m*3 15.4 C 0 km/h
1785 19-07-2011 21:02:01 15.1 C 10.32 g/m*3 15.1 C 0 km/h
1786 19-07-2011 21:14:01 15 C 10.39 g/m*3 15 C 0 km/h
1787 19-07-2011 21:26:02 14.7 C 10.32 g/m*3 14.7 C 0 km/h
1788 19-07-2011 21:38:01 14.6 C 10.14 g/m*3 14.6 C 0 km/h
1789 19-07-2011 21:50:02 14.4 C 10.01 g/m*3 14.4 C 0 km/h
1790 19-07-2011 22:02:03 14.4 C 9.89 g/m*3 14.4 C 0 km/h
1791 19-07-2011 22:14:03 14.3 C 9.71 g/m*3 14.3 C 0 km/h
1792 19-07-2011 22:27:04 14.3 C 9.83 g/m*3 14.3 C 0 km/h
1793 19-07-2011 22:39:04 14.2 C 9.77 g/m*3 14.2 C 0 km/h
1794 19-07-2011 22:51:04 14.3 C 9.71 g/m*3 14.3 C 0 km/h
1795 19-07-2011 23:03:04 14.2 C 9.65 g/m*3 14.2 C 0 km/h
1796 19-07-2011 23:15:04 14.2 C 9.52 g/m*3 14.2 C 0 km/h
1797 19-07-2011 23:27:04 14.3 C 9.58 g/m*3 14.3 C 0 km/h
1798 19-07-2011 23:39:04 14.4 C 9.39 g/m*3 14.4 C 0 km/h
1799 19-07-2011 23:51:04 14.3 C 9.34 g/m*3 14.3 C 0 km/h
1800 20-07-2011 00:03:04 14.2 C 9.28 g/m*3 14.2 C 0 km/h
Sensor: Nr:Datum:Temp:Abs-Feuchte:Windchill:Wind:
Aussen-T/F 1801 20-07-2011 00:15:04 14.3 C 9.58 g/m*3 14.3 C 0 km/h
1802 20-07-2011 00:27:04 14.3 C 9.46 g/m*3 14.3 C 0 km/h
1803 20-07-2011 00:39:05 14.4 C 9.52 g/m*3 14.4 C 0 km/h
1804 20-07-2011 00:51:05 14.4 C 9.39 g/m*3 14.4 C 0 km/h
1805 20-07-2011 01:03:05 14.3 C 9.34 g/m*3 14.3 C 0 km/h
1806 20-07-2011 01:15:05 14.3 C 9.46 g/m*3 14.3 C 0 km/h
1807 20-07-2011 01:27:05 14.3 C 9.34 g/m*3 14.3 C 0 km/h
1808 20-07-2011 01:39:05 14.3 C 9.46 g/m*3 14.3 C 0 km/h
1809 20-07-2011 01:51:05 14.2 C 9.4 g/m*3 14.2 C 0 km/h
1810 20-07-2011 02:03:05 14.3 C 9.21 g/m*3 14.3 C 0 km/h
1811 20-07-2011 02:15:05 14 C 9.17 g/m*3 14 C 0 km/h
1812 20-07-2011 02:27:05 13.8 C 9.41 g/m*3 13.8 C 0 km/h
1813 20-07-2011 02:39:05 13.6 C 9.3 g/m*3 13.6 C 0 km/h
1814 20-07-2011 02:51:05 13.6 C 9.42 g/m*3 13.6 C 0 km/h
1815 20-07-2011 03:03:05 13.5 C 9.47 g/m*3 13.5 C 0 km/h
1816 20-07-2011 03:15:05 13.2 C 9.19 g/m*3 13.2 C 0 km/h
1817 20-07-2011 03:27:05 13.2 C 9.3 g/m*3 13.2 C 0 km/h
1818 20-07-2011 03:39:05 13.3 C 9.47 g/m*3 13.3 C 0 km/h
1819 20-07-2011 03:51:05 13.4 C 9.53 g/m*3 13.4 C 0 km/h
1820 20-07-2011 04:03:05 13.2 C 9.42 g/m*3 13.2 C 0 km/h
1821 20-07-2011 04:15:05 13.3 C 9.47 g/m*3 13.3 C 0 km/h
1822 20-07-2011 04:27:05 13.4 C 9.65 g/m*3 13.4 C 0 km/h
1823 20-07-2011 04:39:05 13.6 C 9.65 g/m*3 13.6 C 0 km/h
1824 20-07-2011 04:51:06 13.5 C 9.59 g/m*3 13.5 C 0 km/h
1825 20-07-2011 05:03:06 13.3 C 9.47 g/m*3 13.3 C 0 km/h
Sensor: Nr:Datum:Temp:Abs-Feuchte:Windchill:Wind:
Aussen-T/F 1826 20-07-2011 05:15:06 13.3 C 9.59 g/m*3 13.3 C 0 km/h
1827 20-07-2011 05:27:06 13.3 C 9.59 g/m*3 13.3 C 0 km/h
1828 20-07-2011 05:39:06 13.2 C 9.42 g/m*3 13.2 C 0 km/h
1829 20-07-2011 05:51:06 13.3 C 9.59 g/m*3 13.3 C 0 km/h
1830 20-07-2011 06:03:06 13.3 C 9.59 g/m*3 13.3 C 0 km/h
1831 20-07-2011 06:15:06 13.4 C 9.65 g/m*3 13.4 C 0 km/h
1832 20-07-2011 06:27:06 13.7 C 9.71 g/m*3 13.7 C 0 km/h
1833 20-07-2011 06:39:06 14.1 C 9.71 g/m*3 14.1 C 0 km/h
1834 20-07-2011 06:51:06 14.3 C 9.71 g/m*3 14.3 C 0 km/h
1835 20-07-2011 07:03:06 14.5 C 9.7 g/m*3 14.5 C 0 km/h
1836 20-07-2011 07:15:03 14.7 C 9.82 g/m*3 14.7 C 0 km/h
1837 20-07-2011 07:27:03 14.8 C 9.88 g/m*3 14.8 C 0 km/h
1838 20-07-2011 07:39:03 14.9 C 9.94 g/m*3 14.9 C 0 km/h
1839 20-07-2011 07:51:02 14.9 C 10.07 g/m*3 14.9 C 0 km/h
1840 20-07-2011 08:03:02 15.1 C 9.93 g/m*3 15.1 C 0 km/h
1841 20-07-2011 08:15:02 15.2 C 9.86 g/m*3 15.2 C 0 km/h
1842 20-07-2011 08:27:02 15.4 C 9.99 g/m*3 15.4 C 0 km/h
1843 20-07-2011 08:39:02 15.6 C 10.11 g/m*3 15.6 C 0 km/h
1844 20-07-2011 08:51:02 15.6 C 9.97 g/m*3 15.6 C 0 km/h
1845 20-07-2011 09:03:01 15.8 C 9.96 g/m*3 15.8 C 0 km/h
1846 20-07-2011 09:15:02 15.8 C 9.83 g/m*3 15.8 C 0 km/h
1847 20-07-2011 09:27:02 15.9 C 9.89 g/m*3 15.9 C 0 km/h
1848 20-07-2011 09:39:01 16.1 C 9.73 g/m*3 16.1 C 0 km/h
1849 20-07-2011 09:51:01 16.4 C 9.77 g/m*3 16.4 C 0 km/h
1850 20-07-2011 10:03:02 17 C 9.69 g/m*3 17 C 0 km/h
Sensor: Nr:Datum:Temp:Abs-Feuchte:Windchill:Wind:
Aussen-T/F 1851 20-07-2011 10:15:02 16.8 C 9.58 g/m*3 16.8 C 0 km/h
1852 20-07-2011 10:27:02 17 C 9.69 g/m*3 17 C 0 km/h
1853 20-07-2011 10:39:02 16.9 C 9.64 g/m*3 16.9 C 0 km/h
1854 20-07-2011 10:51:01 17.1 C 9.75 g/m*3 17.1 C 0 km/h
1855 20-07-2011 11:03:02 17.2 C 9.67 g/m*3 17.2 C 0 km/h
1856 20-07-2011 11:15:02 17.7 C 9.81 g/m*3 17.7 C 0 km/h
1857 20-07-2011 11:27:02 18 C 9.52 g/m*3 18 C 0 km/h
1858 20-07-2011 11:39:01 18.7 C 9.61 g/m*3 18.7 C 0 km/h
1859 20-07-2011 11:51:02 18.8 C 9.34 g/m*3 18.8 C 0 km/h
1860 20-07-2011 12:03:01 19.3 C 8.96 g/m*3 19.3 C 0 km/h
1861 20-07-2011 12:15:02 20.6 C 8.95 g/m*3 20.6 C 0 km/h
1862 20-07-2011 12:27:02 20.7 C 8.82 g/m*3 20.7 C 0 km/h
1863 20-07-2011 12:39:01 21.4 C 8.44 g/m*3 21.4 C 0 km/h
1864 20-07-2011 12:51:02 20.8 C 8.15 g/m*3 20.8 C 0 km/h
1865 20-07-2011 13:03:02 23.2 C 8.73 g/m*3 23.2 C 0 km/h
1866 20-07-2011 13:15:02 24 C 8.05 g/m*3 24 C 0 km/h
1867 20-07-2011 13:27:02 23.8 C 8.6 g/m*3 23.8 C 0 km/h
1868 20-07-2011 13:39:03 22.8 C 8.53 g/m*3 22.8 C 0 km/h
1869 20-07-2011 13:51:02 21.5 C 8.49 g/m*3 21.5 C 0 km/h
1870 20-07-2011 14:03:02 20.5 C 8.54 g/m*3 20.5 C 0 km/h
1871 20-07-2011 14:15:02 18.2 C 9.33 g/m*3 18.2 C 0 km/h
1872 20-07-2011 14:27:02 16.7 C 10.37 g/m*3 16.7 C 0 km/h
1873 20-07-2011 14:39:02 16.2 C 10.76 g/m*3 16.2 C 0 km/h
1874 20-07-2011 14:51:02 16.2 C 10.89 g/m*3 16.2 C 0 km/h
1875 20-07-2011 15:03:02 16.2 C 11.03 g/m*3 16.2 C 0 km/h
Sensor: Nr:Datum:Temp:Abs-Feuchte:Windchill:Wind:
Aussen-T/F 1876 20-07-2011 15:15:02 16.1 C 11.1 g/m*3 16.1 C 0 km/h
1877 20-07-2011 15:27:02 16.3 C 11.38 g/m*3 16.3 C 0 km/h
1878 20-07-2011 15:39:02 16.2 C 11.31 g/m*3 16.2 C 0 km/h
1879 20-07-2011 15:51:02 16.3 C 11.52 g/m*3 16.3 C 0 km/h
1880 20-07-2011 16:03:02 16.8 C 11.87 g/m*3 16.8 C 0 km/h
1881 20-07-2011 16:15:02 17.1 C 11.94 g/m*3 17.1 C 0 km/h
1882 20-07-2011 16:27:02 17.3 C 11.93 g/m*3 17.3 C 0 km/h
1883 20-07-2011 16:39:02 17.7 C 12.07 g/m*3 17.7 C 0 km/h
1884 20-07-2011 16:51:01 18.1 C 12.05 g/m*3 18.1 C 0 km/h
1885 20-07-2011 17:03:01 18.6 C 12.1 g/m*3 18.6 C 0 km/h
1886 20-07-2011 17:15:02 18.5 C 11.71 g/m*3 18.5 C 0 km/h
1887 20-07-2011 17:27:02 18.3 C 11.73 g/m*3 18.3 C 0 km/h
1888 20-07-2011 17:39:01 17.6 C 11.4 g/m*3 17.6 C 0 km/h
1889 20-07-2011 17:51:02 17.4 C 11.56 g/m*3 17.4 C 0 km/h
1890 20-07-2011 18:03:02 17.1 C 11.5 g/m*3 17.1 C 0 km/h
1891 20-07-2011 18:15:02 16.7 C 11.37 g/m*3 16.7 C 0 km/h
1892 20-07-2011 18:27:02 16.6 C 11.58 g/m*3 16.6 C 0 km/h
1893 20-07-2011 18:39:02 16.2 C 11.45 g/m*3 16.2 C 0 km/h
1894 20-07-2011 18:51:02 16.1 C 11.51 g/m*3 16.1 C 0 km/h
1895 20-07-2011 19:03:02 15.8 C 11.44 g/m*3 15.8 C 0 km/h
1896 20-07-2011 19:15:02 15.8 C 11.58 g/m*3 15.8 C 0 km/h
1897 20-07-2011 19:27:03 15.8 C 11.58 g/m*3 15.8 C 0 km/h
1898 20-07-2011 19:39:02 15.8 C 11.71 g/m*3 15.8 C 0 km/h
1899 20-07-2011 19:51:02 15.9 C 11.78 g/m*3 15.9 C 0 km/h
1900 20-07-2011 20:03:01 16.1 C 11.93 g/m*3 16.1 C 0 km/h
Sensor: Nr:Datum:Temp:Abs-Feuchte:Windchill:Wind:
Aussen-T/F 1901 20-07-2011 20:15:02 15.8 C 11.71 g/m*3 15.8 C 0 km/h
1902 20-07-2011 20:27:02 15.6 C 11.57 g/m*3 15.6 C 0 km/h
1903 20-07-2011 20:39:02 15.1 C 11.22 g/m*3 15.1 C 0 km/h
1904 20-07-2011 20:51:02 15 C 11.16 g/m*3 15 C 0 km/h
1905 20-07-2011 21:03:03 14.9 C 11.22 g/m*3 14.9 C 0 km/h
1906 20-07-2011 21:15:02 14.9 C 11.22 g/m*3 14.9 C 0 km/h
1907 20-07-2011 21:27:02 14.8 C 11.27 g/m*3 14.8 C 0 km/h
1908 20-07-2011 21:39:02 14.8 C 11.27 g/m*3 14.8 C 0 km/h
1909 20-07-2011 21:51:01 15 C 11.28 g/m*3 15 C 0 km/h
1910 20-07-2011 22:04:02 14.8 C 11.27 g/m*3 14.8 C 0 km/h
1911 20-07-2011 22:16:03 14.7 C 11.21 g/m*3 14.7 C 0 km/h
1912 20-07-2011 22:28:03 14.7 C 11.21 g/m*3 14.7 C 0 km/h
1913 20-07-2011 22:40:03 14.5 C 11.07 g/m*3 14.5 C 0 km/h
1914 20-07-2011 22:52:03 14.4 C 11 g/m*3 14.4 C 0 km/h
1915 20-07-2011 23:04:03 14.3 C 10.93 g/m*3 14.3 C 0 km/h
1916 20-07-2011 23:16:03 14.4 C 11 g/m*3 14.4 C 0 km/h
1917 20-07-2011 23:28:03 14.5 C 11.19 g/m*3 14.5 C 0 km/h
1918 20-07-2011 23:40:03 14.4 C 11.13 g/m*3 14.4 C 0 km/h
1919 20-07-2011 23:52:03 14.4 C 11.13 g/m*3 14.4 C 0 km/h
1920 21-07-2011 00:04:03 14.4 C 11.13 g/m*3 14.4 C 0 km/h
1921 21-07-2011 00:16:03 14.2 C 10.99 g/m*3 14.2 C 0 km/h
1922 21-07-2011 00:28:03 14.4 C 11.13 g/m*3 14.4 C 0 km/h
1923 21-07-2011 00:40:03 14.4 C 11.13 g/m*3 14.4 C 0 km/h
1924 21-07-2011 00:52:03 14.4 C 11.13 g/m*3 14.4 C 0 km/h
1925 21-07-2011 01:04:03 14.4 C 11.13 g/m*3 14.4 C 0 km/h
Sensor: Nr:Datum:Temp:Abs-Feuchte:Windchill:Wind:
Aussen-T/F 1926 21-07-2011 01:16:03 14.4 C 11.13 g/m*3 14.4 C 0 km/h
1927 21-07-2011 01:28:03 14.4 C 11.13 g/m*3 14.4 C 0 km/h
1928 21-07-2011 01:40:03 14.3 C 11.06 g/m*3 14.3 C 0 km/h
1929 21-07-2011 01:52:03 14.2 C 10.99 g/m*3 14.2 C 0 km/h
1930 21-07-2011 02:04:03 14.2 C 10.99 g/m*3 14.2 C 0 km/h
1931 21-07-2011 02:16:03 14.2 C 10.99 g/m*3 14.2 C 0 km/h
1932 21-07-2011 02:28:04 14.2 C 10.99 g/m*3 14.2 C 0 km/h
1933 21-07-2011 02:40:04 14.1 C 10.92 g/m*3 14.1 C 0 km/h
1934 21-07-2011 02:52:04 14.1 C 10.92 g/m*3 14.1 C 0 km/h
1935 21-07-2011 03:04:04 14 C 10.86 g/m*3 14 C 0 km/h
1936 21-07-2011 03:16:04 13.8 C 10.84 g/m*3 13.8 C 0 km/h
1937 21-07-2011 03:28:04 13.6 C 10.71 g/m*3 13.6 C 0 km/h
1938 21-07-2011 03:40:04 13.6 C 10.71 g/m*3 13.6 C 0 km/h
1939 21-07-2011 03:52:04 13.5 C 10.64 g/m*3 13.5 C 0 km/h
1940 21-07-2011 04:04:04 13.5 C 10.64 g/m*3 13.5 C 0 km/h
1941 21-07-2011 04:16:04 13.4 C 10.58 g/m*3 13.4 C 0 km/h
1942 21-07-2011 04:28:04 13.5 C 10.64 g/m*3 13.5 C 0 km/h
1943 21-07-2011 04:40:04 13.5 C 10.64 g/m*3 13.5 C 0 km/h
1944 21-07-2011 04:52:04 13.4 C 10.58 g/m*3 13.4 C 0 km/h
1945 21-07-2011 05:04:04 13.2 C 10.45 g/m*3 13.2 C 0 km/h
1946 21-07-2011 05:16:04 13.2 C 10.45 g/m*3 13.2 C 0 km/h
1947 21-07-2011 05:28:04 13.1 C 10.38 g/m*3 13.1 C 0 km/h
1948 21-07-2011 05:40:04 13.1 C 10.38 g/m*3 13.1 C 0 km/h
1949 21-07-2011 05:52:04 13.1 C 10.38 g/m*3 13.1 C 0 km/h
1950 21-07-2011 06:04:04 13.2 C 10.45 g/m*3 13.2 C 0 km/h
Sensor: Nr:Datum:Temp:Abs-Feuchte:Windchill:Wind:
Aussen-T/F 1951 21-07-2011 06:16:04 13.3 C 10.51 g/m*3 13.3 C 0 km/h
1952 21-07-2011 06:28:05 13.5 C 10.64 g/m*3 13.5 C 0 km/h
1953 21-07-2011 06:40:05 13.4 C 10.58 g/m*3 13.4 C 0 km/h
1954 21-07-2011 06:52:05 13.6 C 10.71 g/m*3 13.6 C 0 km/h
1955 21-07-2011 07:04:01 13.9 C 10.91 g/m*3 13.9 C 0 km/h
1956 21-07-2011 07:16:02 14.1 C 11.04 g/m*3 14.1 C 0 km/h
1957 21-07-2011 07:28:02 14.1 C 11.04 g/m*3 14.1 C 0 km/h
1958 21-07-2011 07:40:01 14.4 C 11.25 g/m*3 14.4 C 0 km/h
1959 21-07-2011 07:52:02 14.7 C 11.46 g/m*3 14.7 C 0 km/h
1960 21-07-2011 08:04:01 14.9 C 11.6 g/m*3 14.9 C 0 km/h
1961 21-07-2011 08:16:01 15.2 C 11.42 g/m*3 15.2 C 0 km/h
1962 21-07-2011 08:28:01 15.4 C 11.43 g/m*3 15.4 C 0 km/h
1963 21-07-2011 08:40:02 15.9 C 11.24 g/m*3 15.9 C 0 km/h
1964 21-07-2011 08:52:02 16.2 C 10.76 g/m*3 16.2 C 0 km/h
1965 21-07-2011 09:04:02 16.5 C 10.39 g/m*3 16.5 C 0 km/h
1966 21-07-2011 09:16:02 16.9 C 10.07 g/m*3 16.9 C 0 km/h
1967 21-07-2011 09:28:02 17 C 9.41 g/m*3 17 C 0 km/h
1968 21-07-2011 09:40:02 17.7 C 10.11 g/m*3 17.7 C 0 km/h
1969 21-07-2011 09:52:01 18.4 C 10.07 g/m*3 18.4 C 0 km/h
1970 21-07-2011 10:04:02 18.9 C 9.72 g/m*3 18.9 C 0 km/h
1971 21-07-2011 10:16:02 18.9 C 9.56 g/m*3 18.9 C 0 km/h
1972 21-07-2011 10:28:02 19.1 C 9.18 g/m*3 19.1 C 0 km/h
1973 21-07-2011 10:40:01 19.7 C 9.17 g/m*3 19.7 C 0 km/h
1974 21-07-2011 10:52:02 19.9 C 9.45 g/m*3 19.9 C 0 km/h
1975 21-07-2011 11:04:01 19.3 C 9.29 g/m*3 19.3 C 0 km/h
Sensor: Nr:Datum:Temp:Abs-Feuchte:Windchill:Wind:
Aussen-T/F 1976 21-07-2011 11:16:02 20.8 C 9.78 g/m*3 20.8 C 0 km/h
1977 21-07-2011 11:28:03 20.8 C 9.42 g/m*3 20.8 C 0 km/h
1978 21-07-2011 11:40:01 20.1 C 8.52 g/m*3 20.1 C 0 km/h
1979 21-07-2011 11:52:02 19.9 C 8.93 g/m*3 19.9 C 0 km/h
1980 21-07-2011 12:04:02 19.5 C 8.89 g/m*3 19.5 C 0 km/h
1981 21-07-2011 12:16:02 20.4 C 9.73 g/m*3 20.4 C 0 km/h
1982 21-07-2011 12:28:02 20.6 C 9.13 g/m*3 20.6 C 0 km/h
1983 21-07-2011 12:40:03 21.9 C 9.07 g/m*3 21.9 C 0 km/h
1984 21-07-2011 12:52:02 22.3 C 8.1 g/m*3 22.3 C 0 km/h
1985 21-07-2011 13:04:02 22.8 C 8.74 g/m*3 22.8 C 0 km/h
1986 21-07-2011 13:16:01 23.7 C 8.56 g/m*3 23.7 C 0 km/h
1987 21-07-2011 13:28:01 23.8 C 8.17 g/m*3 23.8 C 0 km/h
1988 21-07-2011 13:40:02 24 C 7.83 g/m*3 24 C 0 km/h
1989 21-07-2011 13:52:02 22.2 C 7.85 g/m*3 22.2 C 0 km/h
1990 21-07-2011 14:04:02 22.4 C 7.94 g/m*3 22.4 C 0 km/h
1991 21-07-2011 14:16:02 21.2 C 8.52 g/m*3 21.2 C 0 km/h
1992 21-07-2011 14:28:02 18.8 C 9.02 g/m*3 18.8 C 0 km/h
1993 21-07-2011 14:40:02 16 C 10.49 g/m*3 16 C 0 km/h
1994 21-07-2011 14:52:02 15.8 C 11.04 g/m*3 15.8 C 0 km/h
1995 21-07-2011 15:04:02 16 C 11.31 g/m*3 16 C 0 km/h
1996 21-07-2011 15:16:02 16.3 C 11.52 g/m*3 16.3 C 0 km/h
1997 21-07-2011 15:28:02 17.3 C 12.23 g/m*3 17.3 C 0 km/h
1998 21-07-2011 15:40:02 18.4 C 12.43 g/m*3 18.4 C 0 km/h
1999 21-07-2011 15:52:02 21.7 C 13.16 g/m*3 21.7 C 0 km/h
2000 21-07-2011 16:04:02 23.3 C 10.45 g/m*3 23.3 C 0 km/h
Sensor: Nr:Datum:Temp:Abs-Feuchte:Windchill:Wind:
Aussen-T/F 2001 21-07-2011 16:16:02 22.6 C 11.65 g/m*3 22.6 C 0 km/h
2002 21-07-2011 16:28:02 20.7 C 10.08 g/m*3 20.7 C 0 km/h
2003 21-07-2011 16:40:02 18.7 C 11.21 g/m*3 18.7 C 0 km/h
2004 21-07-2011 16:52:02 17.2 C 10.84 g/m*3 17.2 C 0 km/h
2005 21-07-2011 17:04:02 16.8 C 11.15 g/m*3 16.8 C 0 km/h
2006 21-07-2011 17:16:02 16.8 C 11.44 g/m*3 16.8 C 0 km/h
2007 21-07-2011 17:28:02 17 C 11.43 g/m*3 17 C 0 km/h
2008 21-07-2011 17:40:02 17.5 C 11.63 g/m*3 17.5 C 0 km/h
2009 21-07-2011 17:52:02 17.8 C 11.54 g/m*3 17.8 C 0 km/h
2010 21-07-2011 18:04:01 17.9 C 11.45 g/m*3 17.9 C 0 km/h
2011 21-07-2011 18:16:02 18.1 C 11.28 g/m*3 18.1 C 0 km/h
2012 21-07-2011 18:28:02 18.2 C 11.19 g/m*3 18.2 C 0 km/h
2013 21-07-2011 18:40:01 17.9 C 11.3 g/m*3 17.9 C 0 km/h
2014 21-07-2011 18:52:02 18 C 11.52 g/m*3 18 C 0 km/h
2015 21-07-2011 19:04:01 19.4 C 12.01 g/m*3 19.4 C 0 km/h
2016 21-07-2011 19:16:01 20.2 C 11.02 g/m*3 20.2 C 0 km/h
2017 21-07-2011 19:28:01 18.8 C 11.27 g/m*3 18.8 C 0 km/h
2018 21-07-2011 19:40:02 19.1 C 11.8 g/m*3 19.1 C 0 km/h
2019 21-07-2011 19:52:02 18.4 C 11.48 g/m*3 18.4 C 0 km/h
2020 21-07-2011 20:04:02 17.8 C 11.69 g/m*3 17.8 C 0 km/h
2021 21-07-2011 20:16:02 17.5 C 11.78 g/m*3 17.5 C 0 km/h
2022 21-07-2011 20:28:03 17.1 C 11.65 g/m*3 17.1 C 0 km/h
2023 21-07-2011 20:40:01 16.4 C 11.31 g/m*3 16.4 C 0 km/h
2024 21-07-2011 20:52:02 15.7 C 11.11 g/m*3 15.7 C 0 km/h
2025 21-07-2011 21:04:01 15.1 C 10.71 g/m*3 15.1 C 0 km/h
Sensor: Nr:Datum:Temp:Abs-Feuchte:Windchill:Wind:
Aussen-T/F 2026 21-07-2011 21:16:02 14.7 C 10.58 g/m*3 14.7 C 0 km/h
2027 21-07-2011 21:28:02 14.6 C 10.64 g/m*3 14.6 C 0 km/h
2028 21-07-2011 21:40:02 14.7 C 10.83 g/m*3 14.7 C 0 km/h
2029 21-07-2011 21:52:02 14.7 C 10.83 g/m*3 14.7 C 0 km/h
2030 21-07-2011 22:04:02 14.1 C 10.32 g/m*3 14.1 C 0 km/h
2031 21-07-2011 22:17:04 13.9 C 10.31 g/m*3 13.9 C 0 km/h
2032 21-07-2011 22:29:04 13.8 C 10.37 g/m*3 13.8 C 0 km/h
2033 21-07-2011 22:41:04 13.7 C 10.3 g/m*3 13.7 C 0 km/h
2034 21-07-2011 22:53:04 13.8 C 10.37 g/m*3 13.8 C 0 km/h
2035 21-07-2011 23:05:04 13.8 C 10.37 g/m*3 13.8 C 0 km/h
2036 21-07-2011 23:17:04 13.8 C 10.48 g/m*3 13.8 C 0 km/h
2037 21-07-2011 23:29:04 13.9 C 10.55 g/m*3 13.9 C 0 km/h
2038 21-07-2011 23:41:04 13.7 C 10.42 g/m*3 13.7 C 0 km/h
2039 21-07-2011 23:53:04 13.7 C 10.42 g/m*3 13.7 C 0 km/h
2040 22-07-2011 00:05:04 13.8 C 10.48 g/m*3 13.8 C 0 km/h
2041 22-07-2011 00:17:04 13.9 C 10.55 g/m*3 13.9 C 0 km/h
2042 22-07-2011 00:29:04 14 C 10.61 g/m*3 14 C 0 km/h
2043 22-07-2011 00:41:05 14.1 C 10.68 g/m*3 14.1 C 0 km/h
2044 22-07-2011 00:53:05 14.3 C 10.81 g/m*3 14.3 C 0 km/h
2045 22-07-2011 01:05:05 14.2 C 10.75 g/m*3 14.2 C 0 km/h
2046 22-07-2011 01:17:05 14.3 C 10.81 g/m*3 14.3 C 0 km/h
2047 22-07-2011 01:29:05 14.4 C 10.88 g/m*3 14.4 C 0 km/h
2048 22-07-2011 01:41:05 14.6 C 11.01 g/m*3 14.6 C 0 km/h
2049 22-07-2011 01:53:05 14.7 C 11.08 g/m*3 14.7 C 0 km/h
2050 22-07-2011 02:05:05 14.7 C 11.08 g/m*3 14.7 C 0 km/h
Sensor: Nr:Datum:Temp:Abs-Feuchte:Windchill:Wind:
Aussen-T/F 2051 22-07-2011 02:17:05 14.7 C 11.08 g/m*3 14.7 C 0 km/h
2052 22-07-2011 02:29:05 14.8 C 11.02 g/m*3 14.8 C 0 km/h
2053 22-07-2011 02:41:05 14.8 C 11.02 g/m*3 14.8 C 0 km/h
2054 22-07-2011 02:53:05 14.7 C 10.95 g/m*3 14.7 C 0 km/h
2055 22-07-2011 03:05:05 14.6 C 10.89 g/m*3 14.6 C 0 km/h
2056 22-07-2011 03:17:05 14.7 C 10.95 g/m*3 14.7 C 0 km/h
2057 22-07-2011 03:29:05 14.7 C 10.95 g/m*3 14.7 C 0 km/h
2058 22-07-2011 03:41:05 14.6 C 10.89 g/m*3 14.6 C 0 km/h
2059 22-07-2011 03:53:05 14.6 C 10.76 g/m*3 14.6 C 0 km/h
2060 22-07-2011 04:05:05 14.1 C 10.44 g/m*3 14.1 C 0 km/h
2061 22-07-2011 04:17:05 14 C 10.37 g/m*3 14 C 0 km/h
2062 22-07-2011 04:29:05 14 C 10.49 g/m*3 14 C 0 km/h
2063 22-07-2011 04:41:05 14.2 C 10.62 g/m*3 14.2 C 0 km/h
2064 22-07-2011 04:53:06 14.3 C 10.69 g/m*3 14.3 C 0 km/h
2065 22-07-2011 05:05:06 14.5 C 10.82 g/m*3 14.5 C 0 km/h
2066 22-07-2011 05:17:06 14.5 C 10.82 g/m*3 14.5 C 0 km/h
2067 22-07-2011 05:29:06 14.5 C 10.82 g/m*3 14.5 C 0 km/h
2068 22-07-2011 05:41:06 14.4 C 10.75 g/m*3 14.4 C 0 km/h
2069 22-07-2011 05:53:06 14 C 10.37 g/m*3 14 C 0 km/h
2070 22-07-2011 06:05:06 14.2 C 10.62 g/m*3 14.2 C 0 km/h
2071 22-07-2011 06:17:06 14.4 C 10.75 g/m*3 14.4 C 0 km/h
2072 22-07-2011 06:29:06 14.5 C 10.82 g/m*3 14.5 C 0 km/h
2073 22-07-2011 06:41:06 14.8 C 10.89 g/m*3 14.8 C 0 km/h
2074 22-07-2011 06:53:06 15.2 C 10.64 g/m*3 15.2 C 0 km/h
2075 22-07-2011 07:05:03 15.1 C 10.45 g/m*3 15.1 C 0 km/h
Sensor: Nr:Datum:Temp:Abs-Feuchte:Windchill:Wind:
Aussen-T/F 2076 22-07-2011 07:17:03 15.5 C 10.31 g/m*3 15.5 C 0 km/h
2077 22-07-2011 07:29:03 15.5 C 9.65 g/m*3 15.5 C 0 km/h
2078 22-07-2011 07:41:03 15.4 C 9.33 g/m*3 15.4 C 0 km/h
2079 22-07-2011 07:53:01 15.5 C 9.12 g/m*3 15.5 C 0 km/h
2080 22-07-2011 08:05:02 15.4 C 8.93 g/m*3 15.4 C 0 km/h
2081 22-07-2011 08:17:01 15.4 C 8.93 g/m*3 15.4 C 0 km/h
2082 22-07-2011 08:29:01 15.7 C 8.7 g/m*3 15.7 C 0 km/h
2083 22-07-2011 08:41:01 15.2 C 8.57 g/m*3 15.2 C 0 km/h
2084 22-07-2011 08:53:01 15.1 C 8.13 g/m*3 15.1 C 0 km/h
2085 22-07-2011 09:05:02 15.2 C 7.53 g/m*3 15.2 C 0 km/h
2086 22-07-2011 09:17:01 15.6 C 7.05 g/m*3 15.6 C 0 km/h
2087 22-07-2011 09:29:01 16 C 6.81 g/m*3 16 C 0 km/h
2088 22-07-2011 09:41:01 16.4 C 6.28 g/m*3 16.4 C 0 km/h
2089 22-07-2011 09:53:02 17.6 C 6.15 g/m*3 17.6 C 0 km/h
2090 22-07-2011 10:05:02 18.6 C 6.05 g/m*3 18.6 C 0 km/h
2091 22-07-2011 10:17:02 18.9 C 6.48 g/m*3 18.9 C 0 km/h
2092 22-07-2011 10:29:02 18.5 C 6.33 g/m*3 18.5 C 0 km/h
2093 22-07-2011 10:41:02 17.4 C 6.52 g/m*3 17.4 C 0 km/h
2094 22-07-2011 10:53:02 18.1 C 6.8 g/m*3 18.1 C 0 km/h
2095 22-07-2011 11:05:02 17.8 C 5.92 g/m*3 17.8 C 0 km/h
2096 22-07-2011 11:17:02 19.5 C 6.38 g/m*3 19.5 C 0 km/h
2097 22-07-2011 11:29:03 19 C 6.52 g/m*3 19 C 0 km/h
2098 22-07-2011 11:41:01 18.9 C 6.64 g/m*3 18.9 C 0 km/h
2099 22-07-2011 11:53:02 18 C 6.76 g/m*3 18 C 0 km/h
2100 22-07-2011 12:05:01 18.5 C 6.65 g/m*3 18.5 C 0 km/h
Sensor: Nr:Datum:Temp:Abs-Feuchte:Windchill:Wind:
Aussen-T/F 2101 22-07-2011 12:17:02 19 C 6.84 g/m*3 19 C 0 km/h
2102 22-07-2011 12:29:03 19.6 C 6.75 g/m*3 19.6 C 0 km/h
2103 22-07-2011 12:41:01 19.6 C 6.75 g/m*3 19.6 C 0 km/h
2104 22-07-2011 12:53:01 20.5 C 6.76 g/m*3 20.5 C 0 km/h
2105 22-07-2011 13:05:01 18.5 C 6.8 g/m*3 18.5 C 0 km/h
2106 22-07-2011 13:17:01 19.3 C 6.97 g/m*3 19.3 C 0 km/h
2107 22-07-2011 13:29:01 18.2 C 6.53 g/m*3 18.2 C 0 km/h
2108 22-07-2011 13:41:02 18.1 C 6.95 g/m*3 18.1 C 0 km/h
2109 22-07-2011 13:53:02 18.7 C 7.2 g/m*3 18.7 C 0 km/h
2110 22-07-2011 14:05:02 18.3 C 7.19 g/m*3 18.3 C 0 km/h
2111 22-07-2011 14:17:02 17.5 C 7.16 g/m*3 17.5 C 0 km/h
2112 22-07-2011 14:29:02 17.5 C 7.31 g/m*3 17.5 C 0 km/h
2113 22-07-2011 14:41:02 18.1 C 7.11 g/m*3 18.1 C 0 km/h
2114 22-07-2011 14:53:02 18.5 C 7.28 g/m*3 18.5 C 0 km/h
2115 22-07-2011 15:05:02 17.9 C 7.33 g/m*3 17.9 C 0 km/h
2116 22-07-2011 15:17:02 17.8 C 6.53 g/m*3 17.8 C 0 km/h
2117 22-07-2011 15:29:02 18.1 C 6.64 g/m*3 18.1 C 0 km/h
2118 22-07-2011 15:41:02 17.4 C 6.82 g/m*3 17.4 C 0 km/h
2119 22-07-2011 15:53:02 19.7 C 7.13 g/m*3 19.7 C 0 km/h
2120 22-07-2011 16:05:02 20.8 C 6.88 g/m*3 20.8 C 0 km/h
2121 22-07-2011 16:17:03 21.1 C 6.26 g/m*3 21.1 C 0 km/h
2122 22-07-2011 16:29:03 20.7 C 6.48 g/m*3 20.7 C 0 km/h
2123 22-07-2011 16:41:03 22.8 C 6.71 g/m*3 22.8 C 0 km/h
2124 22-07-2011 16:53:02 23 C 6.58 g/m*3 23 C 0 km/h
2125 22-07-2011 17:05:03 23.2 C 6.03 g/m*3 23.2 C 0 km/h
Sensor: Nr:Datum:Temp:Abs-Feuchte:Windchill:Wind:
Aussen-T/F 2126 22-07-2011 17:17:02 22.1 C 5.66 g/m*3 22.1 C 0 km/h
2127 22-07-2011 17:29:02 22.3 C 6.52 g/m*3 22.3 C 0 km/h
2128 22-07-2011 17:41:03 19.8 C 6.66 g/m*3 19.8 C 0 km/h
2129 22-07-2011 17:53:02 19.6 C 7.09 g/m*3 19.6 C 0 km/h
2130 22-07-2011 18:05:02 19.4 C 6.67 g/m*3 19.4 C 0 km/h
2131 22-07-2011 18:17:01 19.4 C 6.67 g/m*3 19.4 C 0 km/h
2132 22-07-2011 18:29:01 19.4 C 6.67 g/m*3 19.4 C 0 km/h
2133 22-07-2011 18:41:02 19.4 C 6.67 g/m*3 19.4 C 0 km/h
2134 22-07-2011 18:53:02 19.4 C 6.67 g/m*3 19.4 C 0 km/h
2135 22-07-2011 19:05:02 19.4 C 6.67 g/m*3 19.4 C 0 km/h
2136 22-07-2011 19:17:02 19.4 C 6.67 g/m*3 19.4 C 0 km/h
2137 22-07-2011 19:29:02 19.4 C 6.67 g/m*3 19.4 C 0 km/h
2138 22-07-2011 19:41:02 17.9 C 6.72 g/m*3 17.9 C 0 km/h
2139 22-07-2011 19:53:02 17.8 C 6.68 g/m*3 17.8 C 0 km/h
2140 22-07-2011 20:05:02 17.8 C 6.53 g/m*3 17.8 C 0 km/h
2141 22-07-2011 20:17:02 17.7 C 6.64 g/m*3 17.7 C 0 km/h
2142 22-07-2011 20:29:02 17.3 C 6.48 g/m*3 17.3 C 0 km/h
2143 22-07-2011 20:41:02 16.8 C 6.86 g/m*3 16.8 C 0 km/h
2144 22-07-2011 20:53:02 16.8 C 6.72 g/m*3 16.8 C 0 km/h
2145 22-07-2011 21:05:02 16.4 C 6.98 g/m*3 16.4 C 0 km/h
2146 22-07-2011 21:17:02 16.3 C 6.94 g/m*3 16.3 C 0 km/h
2147 22-07-2011 21:29:02 16.1 C 6.85 g/m*3 16.1 C 0 km/h
2148 22-07-2011 21:41:02 16.1 C 6.72 g/m*3 16.1 C 0 km/h
2149 22-07-2011 21:53:02 16 C 6.27 g/m*3 16 C 0 km/h
2150 22-07-2011 22:06:02 16.1 C 6.31 g/m*3 16.1 C 0 km/h
Sensor: Nr:Datum:Temp:Abs-Feuchte:Windchill:Wind:
Aussen-T/F 2151 22-07-2011 22:18:02 16.1 C 6.31 g/m*3 16.1 C 0 km/h
2152 22-07-2011 22:30:02 16.1 C 6.31 g/m*3 16.1 C 0 km/h
2153 22-07-2011 22:42:02 15.7 C 6.56 g/m*3 15.7 C 0 km/h
2154 22-07-2011 22:54:02 15.4 C 6.57 g/m*3 15.4 C 0 km/h
2155 22-07-2011 23:06:02 15.4 C 6.44 g/m*3 15.4 C 0 km/h
2156 22-07-2011 23:18:02 15.3 C 6.4 g/m*3 15.3 C 0 km/h
2157 22-07-2011 23:30:02 15.4 C 6.44 g/m*3 15.4 C 0 km/h
2158 22-07-2011 23:42:02 15.4 C 6.44 g/m*3 15.4 C 0 km/h
2159 22-07-2011 23:54:02 15.1 C 6.58 g/m*3 15.1 C 0 km/h
2160 23-07-2011 00:06:02 15.1 C 6.58 g/m*3 15.1 C 0 km/h
2161 23-07-2011 00:18:02 14.9 C 6.63 g/m*3 14.9 C 0 km/h
2162 23-07-2011 00:30:02 14.5 C 6.59 g/m*3 14.5 C 0 km/h
2163 23-07-2011 00:42:02 14.1 C 6.55 g/m*3 14.1 C 0 km/h
2164 23-07-2011 00:54:02 13 C 6.8 g/m*3 13 C 0 km/h
2165 23-07-2011 01:06:02 13 C 6.8 g/m*3 13 C 0 km/h
2166 23-07-2011 01:18:02 12.4 C 7.1 g/m*3 12.4 C 0 km/h
2167 23-07-2011 01:30:02 11.8 C 7.05 g/m*3 11.8 C 0 km/h
2168 23-07-2011 01:42:02 11.8 C 7.47 g/m*3 11.8 C 0 km/h
2169 23-07-2011 01:54:02 11.7 C 7.32 g/m*3 11.7 C 0 km/h
2170 23-07-2011 02:06:02 11.4 C 7.19 g/m*3 11.4 C 0 km/h
2171 23-07-2011 02:18:03 11.4 C 7.19 g/m*3 11.4 C 0 km/h
2172 23-07-2011 02:30:03 11.4 C 7.19 g/m*3 11.4 C 0 km/h
2173 23-07-2011 02:42:03 11.4 C 7.19 g/m*3 11.4 C 0 km/h
2174 23-07-2011 02:54:03 10.3 C 7.18 g/m*3 10.3 C 0 km/h
2175 23-07-2011 03:06:03 10.5 C 7.37 g/m*3 10.5 C 0 km/h
Sensor: Nr:Datum:Temp:Abs-Feuchte:Windchill:Wind:
Aussen-T/F 2176 23-07-2011 03:18:03 10.7 C 7.46 g/m*3 10.7 C 0 km/h
2177 23-07-2011 03:30:03 11.2 C 7.5 g/m*3 11.2 C 0 km/h
2178 23-07-2011 03:42:03 10.8 C 7.31 g/m*3 10.8 C 0 km/h
2179 23-07-2011 03:54:03 10.4 C 7.23 g/m*3 10.4 C 0 km/h
2180 23-07-2011 04:06:03 9.9 C 7.38 g/m*3 9.9 C 0 km/h
2181 23-07-2011 04:18:03 9.4 C 7.24 g/m*3 9.4 C 0 km/h
2182 23-07-2011 04:30:03 10.2 C 7.71 g/m*3 10.2 C 0 km/h
2183 23-07-2011 04:42:03 10.2 C 7.52 g/m*3 10.2 C 0 km/h
2184 23-07-2011 04:54:03 9.7 C 7.28 g/m*3 9.7 C 0 km/h
2185 23-07-2011 05:06:03 8.9 C 7.1 g/m*3 8.9 C 0 km/h
2186 23-07-2011 05:18:03 9 C 7.32 g/m*3 9 C 0 km/h
2187 23-07-2011 05:30:03 9.8 C 7.79 g/m*3 9.8 C 0 km/h
2188 23-07-2011 05:42:03 9.6 C 7.6 g/m*3 9.6 C 0 km/h
2189 23-07-2011 05:54:03 10.4 C 7.71 g/m*3 10.4 C 0 km/h
2190 23-07-2011 06:06:03 9.9 C 7.38 g/m*3 9.9 C 0 km/h
2191 23-07-2011 06:18:03 9.7 C 7.38 g/m*3 9.7 C 0 km/h
2192 23-07-2011 06:30:03 9.6 C 7.42 g/m*3 9.6 C 0 km/h
2193 23-07-2011 06:42:04 10 C 7.52 g/m*3 10 C 0 km/h
2194 23-07-2011 06:54:04 10.2 C 7.33 g/m*3 10.2 C 0 km/h
2195 23-07-2011 07:06:04 10.3 C 7.28 g/m*3 10.3 C 0 km/h
2196 23-07-2011 07:18:04 10.7 C 7.37 g/m*3 10.7 C 0 km/h
2197 23-07-2011 07:30:04 11 C 7.31 g/m*3 11 C 0 km/h
2198 23-07-2011 07:42:04 11.1 C 7.35 g/m*3 11.1 C 0 km/h
2199 23-07-2011 07:54:04 11.3 C 7.34 g/m*3 11.3 C 0 km/h
2200 23-07-2011 08:06:04 12.3 C 7.17 g/m*3 12.3 C 0 km/h
Sensor: Nr:Datum:Temp:Abs-Feuchte:Windchill:Wind:
Aussen-T/F 2201 23-07-2011 08:18:04 12.4 C 7.21 g/m*3 12.4 C 0 km/h
2202 23-07-2011 08:30:04 12.9 C 7.33 g/m*3 12.9 C 0 km/h
2203 23-07-2011 08:42:04 13.5 C 6.9 g/m*3 13.5 C 0 km/h
2204 23-07-2011 08:54:04 13.8 C 6.91 g/m*3 13.8 C 0 km/h
2205 23-07-2011 09:06:02 13.7 C 6.75 g/m*3 13.7 C 0 km/h
2206 23-07-2011 09:18:02 13.9 C 7.07 g/m*3 13.9 C 0 km/h
2207 23-07-2011 09:30:02 14.8 C 6.71 g/m*3 14.8 C 0 km/h
2208 23-07-2011 09:42:02 14.6 C 6.76 g/m*3 14.6 C 0 km/h
2209 23-07-2011 09:54:01 15.4 C 6.31 g/m*3 15.4 C 0 km/h
2210 23-07-2011 10:06:02 15.6 C 6.25 g/m*3 15.6 C 0 km/h
2211 23-07-2011 10:18:01 15.1 C 6.06 g/m*3 15.1 C 0 km/h
2212 23-07-2011 10:30:01 15.3 C 6.27 g/m*3 15.3 C 0 km/h
2213 23-07-2011 10:42:01 16.1 C 5.89 g/m*3 16.1 C 0 km/h
2214 23-07-2011 10:54:01 16.9 C 6.18 g/m*3 16.9 C 0 km/h
2215 23-07-2011 11:06:02 15.5 C 6.74 g/m*3 15.5 C 0 km/h
2216 23-07-2011 11:18:02 15 C 6.8 g/m*3 15 C 0 km/h
2217 23-07-2011 11:30:02 15.9 C 6.64 g/m*3 15.9 C 0 km/h
2218 23-07-2011 11:42:01 16.2 C 6.48 g/m*3 16.2 C 0 km/h
2219 23-07-2011 11:54:02 16.9 C 6.47 g/m*3 16.9 C 0 km/h
2220 23-07-2011 12:06:01 17 C 5.79 g/m*3 17 C 0 km/h
2221 23-07-2011 12:18:02 17 C 5.79 g/m*3 17 C 0 km/h
2222 23-07-2011 12:30:02 18.2 C 5.75 g/m*3 18.2 C 0 km/h
2223 23-07-2011 12:42:01 18.3 C 5.63 g/m*3 18.3 C 0 km/h
2224 23-07-2011 12:54:02 19.1 C 5.74 g/m*3 19.1 C 0 km/h
2225 23-07-2011 13:06:01 18.6 C 5.57 g/m*3 18.6 C 0 km/h
Sensor: Nr:Datum:Temp:Abs-Feuchte:Windchill:Wind:
Aussen-T/F 2226 23-07-2011 13:18:01 17.5 C 5.67 g/m*3 17.5 C 0 km/h
2227 23-07-2011 13:30:01 17.4 C 5.93 g/m*3 17.4 C 0 km/h
2228 23-07-2011 13:42:01 17.9 C 5.95 g/m*3 17.9 C 0 km/h
2229 23-07-2011 13:54:02 17.6 C 6.15 g/m*3 17.6 C 0 km/h
2230 23-07-2011 14:06:02 18.5 C 6.33 g/m*3 18.5 C 0 km/h
2231 23-07-2011 14:18:02 18.1 C 6.18 g/m*3 18.1 C 0 km/h
2232 23-07-2011 14:30:02 21.6 C 5.88 g/m*3 21.6 C 0 km/h
2233 23-07-2011 14:42:02 19.3 C 5.64 g/m*3 19.3 C 0 km/h
2234 23-07-2011 14:54:01 18.3 C 5.63 g/m*3 18.3 C 0 km/h
2235 23-07-2011 15:06:03 20.3 C 5.8 g/m*3 20.3 C 0 km/h
2236 23-07-2011 15:18:01 19.4 C 5.67 g/m*3 19.4 C 0 km/h
2237 23-07-2011 15:30:01 18.9 C 5.67 g/m*3 18.9 C 0 km/h
2238 23-07-2011 15:42:02 18.4 C 6.45 g/m*3 18.4 C 0 km/h
2239 23-07-2011 15:54:02 17.5 C 6.86 g/m*3 17.5 C 0 km/h
2240 23-07-2011 16:06:02 17.4 C 6.97 g/m*3 17.4 C 0 km/h
2241 23-07-2011 16:18:01 17.1 C 6.99 g/m*3 17.1 C 0 km/h
2242 23-07-2011 16:30:01 16.3 C 6.94 g/m*3 16.3 C 0 km/h
2243 23-07-2011 16:42:02 16.8 C 7.01 g/m*3 16.8 C 0 km/h
2244 23-07-2011 16:54:02 16 C 6.81 g/m*3 16 C 0 km/h
2245 23-07-2011 17:06:02 15.6 C 7.18 g/m*3 15.6 C 0 km/h
2246 23-07-2011 17:18:02 16 C 7.22 g/m*3 16 C 0 km/h
2247 23-07-2011 17:30:02 16 C 7.22 g/m*3 16 C 0 km/h
2248 23-07-2011 17:42:02 16.7 C 7.11 g/m*3 16.7 C 0 km/h
2249 23-07-2011 17:54:02 16.7 C 7.11 g/m*3 16.7 C 0 km/h
2250 23-07-2011 18:06:02 16.7 C 7.11 g/m*3 16.7 C 0 km/h
Sensor: Nr:Datum:Temp:Abs-Feuchte:Windchill:Wind:
Aussen-T/F 2251 23-07-2011 18:18:02 16.7 C 7.11 g/m*3 16.7 C 0 km/h
2252 23-07-2011 18:30:02 16.7 C 7.11 g/m*3 16.7 C 0 km/h
2253 23-07-2011 18:42:02 16.7 C 7.11 g/m*3 16.7 C 0 km/h
2254 23-07-2011 18:54:01 16.7 C 7.11 g/m*3 16.7 C 0 km/h
2255 23-07-2011 19:06:01 16.7 C 7.11 g/m*3 16.7 C 0 km/h
2256 23-07-2011 19:18:02 16.7 C 7.11 g/m*3 16.7 C 0 km/h
2257 23-07-2011 19:30:02 16.7 C 7.11 g/m*3 16.7 C 0 km/h
2258 23-07-2011 19:42:01 16.7 C 7.11 g/m*3 16.7 C 0 km/h
2259 23-07-2011 19:54:02 13.4 C 9.53 g/m*3 13.4 C 0 km/h
2260 23-07-2011 20:06:02 13 C 9.3 g/m*3 13 C 0 km/h
2261 23-07-2011 20:18:03 12.9 C 9.35 g/m*3 12.9 C 0 km/h
2262 23-07-2011 20:30:03 12.5 C 9.24 g/m*3 12.5 C 0 km/h
2263 23-07-2011 20:42:02 12.4 C 9.18 g/m*3 12.4 C 0 km/h
2264 23-07-2011 20:54:03 12.4 C 9.18 g/m*3 12.4 C 0 km/h
2265 23-07-2011 21:06:02 12.3 C 9.23 g/m*3 12.3 C 0 km/h
2266 23-07-2011 21:18:02 12.2 C 9.17 g/m*3 12.2 C 0 km/h
2267 23-07-2011 21:30:03 12.3 C 9.34 g/m*3 12.3 C 0 km/h
2268 23-07-2011 21:42:02 12.2 C 9.17 g/m*3 12.2 C 0 km/h
2269 23-07-2011 21:54:02 12.2 C 9.17 g/m*3 12.2 C 0 km/h
2270 23-07-2011 22:06:02 11.8 C 8.95 g/m*3 11.8 C 0 km/h
2271 23-07-2011 22:18:01 11.8 C 9.05 g/m*3 11.8 C 0 km/h
2272 23-07-2011 22:30:01 11.5 C 8.88 g/m*3 11.5 C 0 km/h
2273 23-07-2011 22:42:02 11.3 C 8.77 g/m*3 11.3 C 0 km/h
2274 23-07-2011 22:54:02 11.1 C 8.66 g/m*3 11.1 C 0 km/h
2275 23-07-2011 23:06:02 11.1 C 8.66 g/m*3 11.1 C 0 km/h
Sensor: Nr:Datum:Temp:Abs-Feuchte:Windchill:Wind:
Aussen-T/F 2276 23-07-2011 23:18:02 11.1 C 8.66 g/m*3 11.1 C 0 km/h
2277 23-07-2011 23:30:02 11.2 C 8.72 g/m*3 11.2 C 0 km/h
2278 23-07-2011 23:42:02 11.2 C 8.82 g/m*3 11.2 C 0 km/h
2279 23-07-2011 23:54:02 11.1 C 8.76 g/m*3 11.1 C 0 km/h
2280 24-07-2011 00:06:02 11.1 C 8.76 g/m*3 11.1 C 0 km/h
2281 24-07-2011 00:18:02 11.2 C 8.72 g/m*3 11.2 C 0 km/h
2282 24-07-2011 00:30:02 11.3 C 8.77 g/m*3 11.3 C 0 km/h
2283 24-07-2011 00:42:02 11.2 C 8.72 g/m*3 11.2 C 0 km/h
2284 24-07-2011 00:54:02 11.2 C 8.72 g/m*3 11.2 C 0 km/h
2285 24-07-2011 01:06:01 11.2 C 8.72 g/m*3 11.2 C 0 km/h
2286 24-07-2011 01:18:02 11.2 C 8.72 g/m*3 11.2 C 0 km/h
2287 24-07-2011 01:30:02 11.1 C 8.66 g/m*3 11.1 C 0 km/h
2288 24-07-2011 01:42:02 11.1 C 8.66 g/m*3 11.1 C 0 km/h
2289 24-07-2011 01:54:02 11.3 C 8.77 g/m*3 11.3 C 0 km/h
2290 24-07-2011 02:06:03 11.3 C 8.57 g/m*3 11.3 C 0 km/h
2291 24-07-2011 02:18:02 11.3 C 8.36 g/m*3 11.3 C 0 km/h
2292 24-07-2011 02:30:02 11 C 8.01 g/m*3 11 C 0 km/h
2293 24-07-2011 02:42:02 11 C 7.91 g/m*3 11 C 0 km/h
2294 24-07-2011 02:55:03 10.8 C 7.81 g/m*3 10.8 C 0 km/h
2295 24-07-2011 03:07:03 10.7 C 7.76 g/m*3 10.7 C 0 km/h
2296 24-07-2011 03:19:03 10.2 C 7.52 g/m*3 10.2 C 0 km/h
2297 24-07-2011 03:31:02 10.2 C 7.52 g/m*3 10.2 C 0 km/h
2298 24-07-2011 03:43:02 10.2 C 7.61 g/m*3 10.2 C 0 km/h
2299 24-07-2011 03:55:02 10.5 C 7.66 g/m*3 10.5 C 0 km/h
2300 24-07-2011 04:07:01 10.9 C 7.46 g/m*3 10.9 C 0 km/h
Sensor: Nr:Datum:Temp:Abs-Feuchte:Windchill:Wind:
Aussen-T/F 2301 24-07-2011 04:19:02 10.9 C 7.36 g/m*3 10.9 C 0 km/h
2302 24-07-2011 04:31:01 10.9 C 7.36 g/m*3 10.9 C 0 km/h
2303 24-07-2011 04:43:01 10.9 C 7.36 g/m*3 10.9 C 0 km/h
2304 24-07-2011 04:55:02 11.3 C 6.94 g/m*3 11.3 C 0 km/h
2305 24-07-2011 05:07:01 11.3 C 6.94 g/m*3 11.3 C 0 km/h
2306 24-07-2011 05:19:01 10.5 C 7.27 g/m*3 10.5 C 0 km/h
2307 24-07-2011 05:31:02 10.5 C 7.27 g/m*3 10.5 C 0 km/h
2308 24-07-2011 05:43:02 10.5 C 7.27 g/m*3 10.5 C 0 km/h
2309 24-07-2011 05:55:02 10 C 7.42 g/m*3 10 C 0 km/h
2310 24-07-2011 06:07:01 10 C 7.42 g/m*3 10 C 0 km/h
2311 24-07-2011 06:19:02 10 C 7.42 g/m*3 10 C 0 km/h
2312 24-07-2011 06:31:02 10 C 7.42 g/m*3 10 C 0 km/h
2313 24-07-2011 06:43:02 10 C 7.42 g/m*3 10 C 0 km/h
2314 24-07-2011 06:55:02 10 C 7.42 g/m*3 10 C 0 km/h
2315 24-07-2011 07:07:03 10 C 7.42 g/m*3 10 C 0 km/h
2316 24-07-2011 07:19:02 10 C 7.42 g/m*3 10 C 0 km/h
2317 24-07-2011 07:31:02 10 C 7.42 g/m*3 10 C 0 km/h
2318 24-07-2011 07:43:03 10 C 7.42 g/m*3 10 C 0 km/h
2319 24-07-2011 07:55:01 10 C 7.42 g/m*3 10 C 0 km/h
2320 24-07-2011 08:07:02 9.9 C 8.22 g/m*3 9.9 C 0 km/h
2321 24-07-2011 08:19:01 9.9 C 8.22 g/m*3 9.9 C 0 km/h
2322 24-07-2011 08:31:01 9.9 C 8.22 g/m*3 9.9 C 0 km/h
2323 24-07-2011 08:43:01 9.9 C 8.22 g/m*3 9.9 C 0 km/h
2324 24-07-2011 08:55:01 9.9 C 8.22 g/m*3 9.9 C 0 km/h
2325 24-07-2011 09:07:02 9.9 C 8.22 g/m*3 9.9 C 0 km/h
Sensor: Nr:Datum:Temp:Abs-Feuchte:Windchill:Wind:
Aussen-T/F 2326 24-07-2011 09:19:01 9.9 C 8.22 g/m*3 9.9 C 0 km/h
2327 24-07-2011 09:31:02 9.9 C 8.22 g/m*3 9.9 C 0 km/h
2328 24-07-2011 09:43:03 10.8 C 8.5 g/m*3 10.8 C 0 km/h
2329 24-07-2011 09:55:02 10.9 C 8.45 g/m*3 10.9 C 0 km/h
2330 24-07-2011 10:07:02 11 C 8.51 g/m*3 11 C 0 km/h
2331 24-07-2011 10:19:01 11.4 C 8.62 g/m*3 11.4 C 0 km/h
2332 24-07-2011 10:31:02 11.5 C 8.68 g/m*3 11.5 C 0 km/h
2333 24-07-2011 10:43:02 11.8 C 8.63 g/m*3 11.8 C 0 km/h
2334 24-07-2011 10:55:02 12.1 C 8.47 g/m*3 12.1 C 0 km/h
2335 24-07-2011 11:07:02 12.2 C 8.52 g/m*3 12.2 C 0 km/h
2336 24-07-2011 11:19:01 12.4 C 8.41 g/m*3 12.4 C 0 km/h
2337 24-07-2011 11:31:02 12.5 C 8.36 g/m*3 12.5 C 0 km/h
2338 24-07-2011 11:43:02 12.5 C 8.47 g/m*3 12.5 C 0 km/h
2339 24-07-2011 11:55:01 12.9 C 8.57 g/m*3 12.9 C 0 km/h
2340 24-07-2011 12:07:02 13.2 C 8.61 g/m*3 13.2 C 0 km/h
2341 24-07-2011 12:19:02 13.2 C 8.61 g/m*3 13.2 C 0 km/h
2342 24-07-2011 12:31:01 13.2 C 8.61 g/m*3 13.2 C 0 km/h
2343 24-07-2011 12:43:01 13.2 C 8.61 g/m*3 13.2 C 0 km/h
2344 24-07-2011 12:55:02 14.2 C 8.18 g/m*3 14.2 C 0 km/h
2345 24-07-2011 13:07:01 13.9 C 8.03 g/m*3 13.9 C 0 km/h
2346 24-07-2011 13:19:02 13.9 C 8.03 g/m*3 13.9 C 0 km/h
2347 24-07-2011 13:31:01 15.6 C 7.85 g/m*3 15.6 C 0 km/h
2348 24-07-2011 13:43:01 15 C 7.69 g/m*3 15 C 0 km/h
2349 24-07-2011 13:55:02 15.1 C 7.61 g/m*3 15.1 C 0 km/h
2350 24-07-2011 14:07:02 15.3 C 7.7 g/m*3 15.3 C 0 km/h
Sensor: Nr:Datum:Temp:Abs-Feuchte:Windchill:Wind:
Aussen-T/F 2351 24-07-2011 14:19:02 15.3 C 7.7 g/m*3 15.3 C 0 km/h
2352 24-07-2011 14:31:03 15.3 C 7.7 g/m*3 15.3 C 0 km/h
2353 24-07-2011 14:43:03 15.3 C 7.7 g/m*3 15.3 C 0 km/h
2354 24-07-2011 14:55:02 15.3 C 7.7 g/m*3 15.3 C 0 km/h
2355 24-07-2011 15:07:01 15.3 C 7.7 g/m*3 15.3 C 0 km/h
2356 24-07-2011 15:19:02 15.3 C 7.7 g/m*3 15.3 C 0 km/h
2357 24-07-2011 15:31:02 15.3 C 7.7 g/m*3 15.3 C 0 km/h
2358 24-07-2011 15:43:02 15.3 C 7.7 g/m*3 15.3 C 0 km/h
2359 24-07-2011 15:55:02 18.1 C 7.42 g/m*3 18.1 C 0 km/h
2360 24-07-2011 16:07:02 18.1 C 7.42 g/m*3 18.1 C 0 km/h
2361 24-07-2011 16:19:02 17.7 C 7.54 g/m*3 17.7 C 0 km/h
2362 24-07-2011 16:31:02 17.8 C 7.89 g/m*3 17.8 C 0 km/h
2363 24-07-2011 16:43:03 17.1 C 7.42 g/m*3 17.1 C 0 km/h
2364 24-07-2011 16:55:01 17.1 C 7.42 g/m*3 17.1 C 0 km/h
2365 24-07-2011 17:07:02 17.1 C 7.42 g/m*3 17.1 C 0 km/h
2366 24-07-2011 17:19:01 16.2 C 8.14 g/m*3 16.2 C 0 km/h
2367 24-07-2011 17:31:01 16 C 8.31 g/m*3 16 C 0 km/h
2368 24-07-2011 17:43:01 16 C 8.31 g/m*3 16 C 0 km/h
2369 24-07-2011 17:55:02 15.8 C 8.21 g/m*3 15.8 C 0 km/h
2370 24-07-2011 18:07:02 15.3 C 8.36 g/m*3 15.3 C 0 km/h
2371 24-07-2011 18:19:01 15.7 C 8.43 g/m*3 15.7 C 0 km/h
2372 24-07-2011 18:31:02 15.4 C 8.41 g/m*3 15.4 C 0 km/h
2373 24-07-2011 18:43:02 15.1 C 7.74 g/m*3 15.1 C 0 km/h
2374 24-07-2011 18:55:02 15 C 8.21 g/m*3 15 C 0 km/h
2375 24-07-2011 19:07:02 14.7 C 8.69 g/m*3 14.7 C 0 km/h
Sensor: Nr:Datum:Temp:Abs-Feuchte:Windchill:Wind:
Aussen-T/F 2376 24-07-2011 19:19:01 14.7 C 8.69 g/m*3 14.7 C 0 km/h
2377 24-07-2011 19:31:02 14.1 C 9.59 g/m*3 14.1 C 0 km/h
2378 24-07-2011 19:43:02 14 C 9.65 g/m*3 14 C 0 km/h
2379 24-07-2011 19:55:02 14.1 C 9.83 g/m*3 14.1 C 0 km/h
2380 24-07-2011 20:07:02 13.9 C 9.83 g/m*3 13.9 C 0 km/h
2381 24-07-2011 20:19:02 13.6 C 9.65 g/m*3 13.6 C 0 km/h
2382 24-07-2011 20:31:02 13.5 C 9.71 g/m*3 13.5 C 0 km/h
2383 24-07-2011 20:43:02 13.1 C 9.59 g/m*3 13.1 C 0 km/h
2384 24-07-2011 20:55:02 13.3 C 9.7 g/m*3 13.3 C 0 km/h
2385 24-07-2011 21:07:02 13.2 C 9.64 g/m*3 13.2 C 0 km/h
2386 24-07-2011 21:19:02 13.1 C 9.59 g/m*3 13.1 C 0 km/h
2387 24-07-2011 21:31:01 13.1 C 9.59 g/m*3 13.1 C 0 km/h
2388 24-07-2011 21:43:01 13.1 C 9.59 g/m*3 13.1 C 0 km/h
2389 24-07-2011 21:55:02 12.5 C 9.46 g/m*3 12.5 C 0 km/h
2390 24-07-2011 22:08:02 12.4 C 9.51 g/m*3 12.4 C 0 km/h
2391 24-07-2011 22:20:02 12.2 C 9.39 g/m*3 12.2 C 0 km/h
2392 24-07-2011 22:32:02 12.1 C 9.33 g/m*3 12.1 C 0 km/h
2393 24-07-2011 22:44:02 12.1 C 9.33 g/m*3 12.1 C 0 km/h
2394 24-07-2011 22:56:02 12.1 C 9.44 g/m*3 12.1 C 0 km/h
2395 24-07-2011 23:08:02 12.3 C 9.56 g/m*3 12.3 C 0 km/h
2396 24-07-2011 23:20:02 12.3 C 9.56 g/m*3 12.3 C 0 km/h
2397 24-07-2011 23:32:02 12.4 C 9.62 g/m*3 12.4 C 0 km/h
2398 24-07-2011 23:44:02 12.1 C 9.44 g/m*3 12.1 C 0 km/h
2399 24-07-2011 23:56:02 12 C 9.38 g/m*3 12 C 0 km/h
2400 25-07-2011 00:08:02 12 C 9.38 g/m*3 12 C 0 km/h
Sensor: Nr:Datum:Temp:Abs-Feuchte:Windchill:Wind:
Aussen-T/F 2401 25-07-2011 00:20:02 12 C 9.38 g/m*3 12 C 0 km/h
2402 25-07-2011 00:32:02 11.8 C 9.37 g/m*3 11.8 C 0 km/h
2403 25-07-2011 00:44:03 11.7 C 9.31 g/m*3 11.7 C 0 km/h
2404 25-07-2011 00:56:03 11.6 C 9.25 g/m*3 11.6 C 0 km/h
2405 25-07-2011 01:08:03 11.7 C 9.31 g/m*3 11.7 C 0 km/h
2406 25-07-2011 01:20:03 11.8 C 9.37 g/m*3 11.8 C 0 km/h
2407 25-07-2011 01:32:03 11.6 C 9.25 g/m*3 11.6 C 0 km/h
2408 25-07-2011 01:44:03 11.6 C 9.25 g/m*3 11.6 C 0 km/h
2409 25-07-2011 01:56:03 11.5 C 9.19 g/m*3 11.5 C 0 km/h
2410 25-07-2011 02:08:03 11.5 C 9.19 g/m*3 11.5 C 0 km/h
2411 25-07-2011 02:20:03 11.4 C 9.14 g/m*3 11.4 C 0 km/h
2412 25-07-2011 02:32:03 11.8 C 9.37 g/m*3 11.8 C 0 km/h
2413 25-07-2011 02:44:03 11.5 C 9.3 g/m*3 11.5 C 0 km/h
2414 25-07-2011 02:56:03 11.4 C 9.14 g/m*3 11.4 C 0 km/h
2415 25-07-2011 03:08:03 11.4 C 9.24 g/m*3 11.4 C 0 km/h
2416 25-07-2011 03:20:03 11.5 C 9.3 g/m*3 11.5 C 0 km/h
2417 25-07-2011 03:32:03 11.5 C 9.3 g/m*3 11.5 C 0 km/h
2418 25-07-2011 03:44:03 11.5 C 9.3 g/m*3 11.5 C 0 km/h
2419 25-07-2011 03:56:03 11.3 C 9.18 g/m*3 11.3 C 0 km/h
2420 25-07-2011 04:08:03 10.8 C 8.9 g/m*3 10.8 C 0 km/h
2421 25-07-2011 04:20:03 10.6 C 8.78 g/m*3 10.6 C 0 km/h
2422 25-07-2011 04:32:03 10.2 C 8.47 g/m*3 10.2 C 0 km/h
2423 25-07-2011 04:44:03 10 C 8.36 g/m*3 10 C 0 km/h
2424 25-07-2011 04:56:03 9.8 C 8.44 g/m*3 9.8 C 0 km/h
2425 25-07-2011 05:08:03 9.8 C 8.44 g/m*3 9.8 C 0 km/h
Sensor: Nr:Datum:Temp:Abs-Feuchte:Windchill:Wind:
Aussen-T/F 2426 25-07-2011 05:20:04 10.3 C 8.62 g/m*3 10.3 C 0 km/h
2427 25-07-2011 05:32:04 10.2 C 8.56 g/m*3 10.2 C 0 km/h
2428 25-07-2011 05:44:04 10 C 8.46 g/m*3 10 C 0 km/h
2429 25-07-2011 05:56:04 9.9 C 8.5 g/m*3 9.9 C 0 km/h
2430 25-07-2011 06:08:04 9.6 C 8.34 g/m*3 9.6 C 0 km/h
2431 25-07-2011 06:20:04 9.4 C 8.23 g/m*3 9.4 C 0 km/h
2432 25-07-2011 06:32:04 9.2 C 8.13 g/m*3 9.2 C 0 km/h
2433 25-07-2011 06:44:04 9.2 C 8.13 g/m*3 9.2 C 0 km/h
2434 25-07-2011 06:56:04 8.9 C 8.06 g/m*3 8.9 C 0 km/h
2435 25-07-2011 07:08:02 9.4 C 8.23 g/m*3 9.4 C 0 km/h
2436 25-07-2011 07:20:01 9.4 C 8.23 g/m*3 9.4 C 0 km/h
2437 25-07-2011 07:32:02 9.4 C 8.23 g/m*3 9.4 C 0 km/h
2438 25-07-2011 07:44:02 9.4 C 8.23 g/m*3 9.4 C 0 km/h
2439 25-07-2011 07:56:02 9.4 C 8.23 g/m*3 9.4 C 0 km/h
2440 25-07-2011 08:08:02 9.4 C 8.23 g/m*3 9.4 C 0 km/h
2441 25-07-2011 08:20:02 11 C 8.81 g/m*3 11 C 0 km/h
2442 25-07-2011 08:32:02 11 C 8.81 g/m*3 11 C 0 km/h
2443 25-07-2011 08:44:02 11 C 8.81 g/m*3 11 C 0 km/h
2444 25-07-2011 08:56:02 11.2 C 8.92 g/m*3 11.2 C 0 km/h
2445 25-07-2011 09:08:02 11.4 C 9.03 g/m*3 11.4 C 0 km/h
2446 25-07-2011 09:20:03 11.7 C 9.2 g/m*3 11.7 C 0 km/h
2447 25-07-2011 09:32:02 12 C 9.27 g/m*3 12 C 0 km/h
2448 25-07-2011 09:44:02 12.3 C 9.45 g/m*3 12.3 C 0 km/h
2449 25-07-2011 09:56:02 12.7 C 9.57 g/m*3 12.7 C 0 km/h
2450 25-07-2011 10:08:02 13.4 C 9.76 g/m*3 13.4 C 0 km/h
Sensor: Nr:Datum:Temp:Abs-Feuchte:Windchill:Wind:
Aussen-T/F 2451 25-07-2011 10:20:03 14.7 C 10.2 g/m*3 14.7 C 0 km/h
2452 25-07-2011 10:32:02 15 C 9.23 g/m*3 15 C 0 km/h
2453 25-07-2011 10:44:02 15 C 9.23 g/m*3 15 C 0 km/h
2454 25-07-2011 10:56:02 15.5 C 9.12 g/m*3 15.5 C 0 km/h
2455 25-07-2011 11:08:02 16.3 C 8.32 g/m*3 16.3 C 0 km/h
2456 25-07-2011 11:20:02 17.1 C 6.99 g/m*3 17.1 C 0 km/h
2457 25-07-2011 11:32:03 17.5 C 7.75 g/m*3 17.5 C 0 km/h
2458 25-07-2011 11:44:03 18.3 C 5.94 g/m*3 18.3 C 0 km/h
2459 25-07-2011 11:56:02 18.7 C 5.92 g/m*3 18.7 C 0 km/h
2460 25-07-2011 12:08:01 19.1 C 5.74 g/m*3 19.1 C 0 km/h
2461 25-07-2011 12:20:02 19.5 C 5.87 g/m*3 19.5 C 0 km/h
2462 25-07-2011 12:32:02 19.6 C 5.74 g/m*3 19.6 C 0 km/h
2463 25-07-2011 12:44:02 19.5 C 6.21 g/m*3 19.5 C 0 km/h
2464 25-07-2011 12:56:02 20.4 C 6.19 g/m*3 20.4 C 0 km/h
2465 25-07-2011 13:08:03 21.3 C 5.22 g/m*3 21.3 C 0 km/h
2466 25-07-2011 13:20:02 21.6 C 4.93 g/m*3 21.6 C 0 km/h
2467 25-07-2011 13:32:03 22.5 C 4.59 g/m*3 22.5 C 0 km/h
2468 25-07-2011 13:44:03 27.2 C 5.2 g/m*3 27.2 C 0 km/h
2469 25-07-2011 13:56:02 29.3 C 5.84 g/m*3 29.3 C 0 km/h
2470 25-07-2011 14:08:01 26.1 C 4.9 g/m*3 26.1 C 0 km/h
2471 25-07-2011 14:20:02 24.4 C 4.45 g/m*3 24.4 C 0 km/h
2472 25-07-2011 14:32:02 23.9 C 4.54 g/m*3 23.9 C 0 km/h
2473 25-07-2011 14:44:02 27.9 C 5.41 g/m*3 27.9 C 0 km/h
2474 25-07-2011 14:56:02 23 C 6.78 g/m*3 23 C 0 km/h
2475 25-07-2011 15:08:01 23.1 C 6.82 g/m*3 23.1 C 0 km/h
Sensor: Nr:Datum:Temp:Abs-Feuchte:Windchill:Wind:
Aussen-T/F 2476 25-07-2011 15:20:01 29.4 C 5.87 g/m*3 29.4 C 0 km/h
2477 25-07-2011 15:32:02 28 C 5.44 g/m*3 28 C 0 km/h
2478 25-07-2011 15:44:02 27.3 C 5.23 g/m*3 27.3 C 0 km/h
2479 25-07-2011 15:56:02 24.3 C 4.43 g/m*3 24.3 C 0 km/h
2480 25-07-2011 16:08:02 26.2 C 7.14 g/m*3 26.2 C 0 km/h
2481 25-07-2011 16:20:02 23.9 C 7.36 g/m*3 23.9 C 0 km/h
2482 25-07-2011 16:32:02 22.7 C 7.48 g/m*3 22.7 C 0 km/h
2483 25-07-2011 16:44:02 22.1 C 8 g/m*3 22.1 C 0 km/h
2484 25-07-2011 16:56:01 22.8 C 8.13 g/m*3 22.8 C 0 km/h
2485 25-07-2011 17:08:02 22.7 C 8.28 g/m*3 22.7 C 0 km/h
2486 25-07-2011 17:20:01 24.8 C 6.83 g/m*3 24.8 C 0 km/h
2487 25-07-2011 17:32:02 24.5 C 5.15 g/m*3 24.5 C 0 km/h
2488 25-07-2011 17:44:02 27.9 C 5.41 g/m*3 27.9 C 0 km/h
2489 25-07-2011 17:56:02 30.1 C 6.1 g/m*3 30.1 C 0 km/h
2490 25-07-2011 18:08:02 24 C 5.66 g/m*3 24 C 0 km/h
2491 25-07-2011 18:20:01 21.7 C 8.01 g/m*3 21.7 C 0 km/h
2492 25-07-2011 18:32:02 21.2 C 8.15 g/m*3 21.2 C 0 km/h
2493 25-07-2011 18:44:02 23.7 C 6.42 g/m*3 23.7 C 0 km/h
2494 25-07-2011 18:56:02 22.3 C 8.29 g/m*3 22.3 C 0 km/h
2495 25-07-2011 19:08:02 23.7 C 8.56 g/m*3 23.7 C 0 km/h
2496 25-07-2011 19:20:01 20.6 C 8.77 g/m*3 20.6 C 0 km/h
2497 25-07-2011 19:32:02 21.7 C 8.39 g/m*3 21.7 C 0 km/h
2498 25-07-2011 19:44:02 20.1 C 8.69 g/m*3 20.1 C 0 km/h
2499 25-07-2011 19:56:02 19 C 8.47 g/m*3 19 C 0 km/h
2500 25-07-2011 20:08:02 18.2 C 8.55 g/m*3 18.2 C 0 km/h
Sensor: Nr:Datum:Temp:Abs-Feuchte:Windchill:Wind:
Aussen-T/F 2501 25-07-2011 20:20:02 17.3 C 8.69 g/m*3 17.3 C 0 km/h
2502 25-07-2011 20:32:02 16.9 C 8.49 g/m*3 16.9 C 0 km/h
2503 25-07-2011 20:44:02 17 C 8.1 g/m*3 17 C 0 km/h
2504 25-07-2011 20:56:02 16.7 C 8.53 g/m*3 16.7 C 0 km/h
2505 25-07-2011 21:08:02 16.2 C 8.27 g/m*3 16.2 C 0 km/h
2506 25-07-2011 21:20:02 16.1 C 8.36 g/m*3 16.1 C 0 km/h
2507 25-07-2011 21:32:02 16.1 C 8.64 g/m*3 16.1 C 0 km/h
2508 25-07-2011 21:44:02 16 C 8.58 g/m*3 16 C 0 km/h
2509 25-07-2011 21:56:02 16 C 8.58 g/m*3 16 C 0 km/h
2510 25-07-2011 22:08:02 15.9 C 8.67 g/m*3 15.9 C 0 km/h
2511 25-07-2011 22:21:03 15.8 C 8.62 g/m*3 15.8 C 0 km/h
2512 25-07-2011 22:33:03 15.9 C 8.67 g/m*3 15.9 C 0 km/h
2513 25-07-2011 22:45:03 15.9 C 8.53 g/m*3 15.9 C 0 km/h
2514 25-07-2011 22:57:04 15.7 C 8.56 g/m*3 15.7 C 0 km/h
2515 25-07-2011 23:09:04 15.5 C 8.99 g/m*3 15.5 C 0 km/h
2516 25-07-2011 23:21:04 15.3 C 9.01 g/m*3 15.3 C 0 km/h
2517 25-07-2011 23:33:04 15.2 C 9.09 g/m*3 15.2 C 0 km/h
2518 25-07-2011 23:45:04 15.2 C 9.22 g/m*3 15.2 C 0 km/h
2519 25-07-2011 23:57:04 15.1 C 9.16 g/m*3 15.1 C 0 km/h
2520 26-07-2011 00:09:04 15.3 C 9.4 g/m*3 15.3 C 0 km/h
2521 26-07-2011 00:21:04 15.4 C 9.2 g/m*3 15.4 C 0 km/h
2522 26-07-2011 00:33:04 15.2 C 9.09 g/m*3 15.2 C 0 km/h
2523 26-07-2011 00:45:04 15 C 8.85 g/m*3 15 C 0 km/h
2524 26-07-2011 00:57:04 15.3 C 8.75 g/m*3 15.3 C 0 km/h
2525 26-07-2011 01:09:04 15.1 C 9.29 g/m*3 15.1 C 0 km/h
Sensor: Nr:Datum:Temp:Abs-Feuchte:Windchill:Wind:
Aussen-T/F 2526 26-07-2011 01:21:04 14.9 C 9.56 g/m*3 14.9 C 0 km/h
2527 26-07-2011 01:33:04 14.2 C 9.28 g/m*3 14.2 C 0 km/h
2528 26-07-2011 01:45:04 14.2 C 9.65 g/m*3 14.2 C 0 km/h
2529 26-07-2011 01:57:04 14.1 C 9.83 g/m*3 14.1 C 0 km/h
2530 26-07-2011 02:09:04 13.9 C 9.95 g/m*3 13.9 C 0 km/h
2531 26-07-2011 02:21:04 13.7 C 9.83 g/m*3 13.7 C 0 km/h
2532 26-07-2011 02:33:04 13.6 C 9.77 g/m*3 13.6 C 0 km/h
2533 26-07-2011 02:45:04 13.6 C 9.77 g/m*3 13.6 C 0 km/h
2534 26-07-2011 02:57:04 13.6 C 9.77 g/m*3 13.6 C 0 km/h
2535 26-07-2011 03:09:04 13.5 C 9.71 g/m*3 13.5 C 0 km/h
2536 26-07-2011 03:21:05 13.5 C 9.71 g/m*3 13.5 C 0 km/h
2537 26-07-2011 03:33:05 13.6 C 9.77 g/m*3 13.6 C 0 km/h
2538 26-07-2011 03:45:05 13.4 C 9.65 g/m*3 13.4 C 0 km/h
2539 26-07-2011 03:57:05 13.6 C 9.77 g/m*3 13.6 C 0 km/h
2540 26-07-2011 04:09:05 13.8 C 10.01 g/m*3 13.8 C 0 km/h
2541 26-07-2011 04:21:05 13.8 C 9.89 g/m*3 13.8 C 0 km/h
2542 26-07-2011 04:33:05 13.9 C 9.95 g/m*3 13.9 C 0 km/h
2543 26-07-2011 04:45:05 13.9 C 9.83 g/m*3 13.9 C 0 km/h
2544 26-07-2011 04:57:05 13.9 C 9.95 g/m*3 13.9 C 0 km/h
2545 26-07-2011 05:09:05 13.8 C 9.77 g/m*3 13.8 C 0 km/h
2546 26-07-2011 05:21:05 13.8 C 9.77 g/m*3 13.8 C 0 km/h
2547 26-07-2011 05:33:05 13.7 C 9.71 g/m*3 13.7 C 0 km/h
2548 26-07-2011 05:45:05 13.6 C 9.65 g/m*3 13.6 C 0 km/h
2549 26-07-2011 05:57:05 13.4 C 9.53 g/m*3 13.4 C 0 km/h
2550 26-07-2011 06:09:05 13.2 C 9.42 g/m*3 13.2 C 0 km/h
Sensor: Nr:Datum:Temp:Abs-Feuchte:Windchill:Wind:
Aussen-T/F 2551 26-07-2011 06:21:05 13.2 C 9.53 g/m*3 13.2 C 0 km/h
2552 26-07-2011 06:33:05 13.3 C 9.59 g/m*3 13.3 C 0 km/h
2553 26-07-2011 06:45:05 13.5 C 9.71 g/m*3 13.5 C 0 km/h
2554 26-07-2011 06:57:05 13.7 C 9.95 g/m*3 13.7 C 0 km/h
2555 26-07-2011 07:09:05 13.8 C 10.01 g/m*3 13.8 C 0 km/h
2556 26-07-2011 07:21:02 14 C 10.01 g/m*3 14 C 0 km/h
2557 26-07-2011 07:33:02 14.2 C 10.14 g/m*3 14.2 C 0 km/h
2558 26-07-2011 07:45:02 14.3 C 10.2 g/m*3 14.3 C 0 km/h
2559 26-07-2011 07:57:02 14.3 C 10.2 g/m*3 14.3 C 0 km/h
2560 26-07-2011 08:09:02 14.2 C 10.14 g/m*3 14.2 C 0 km/h
2561 26-07-2011 08:21:02 14.3 C 10.2 g/m*3 14.3 C 0 km/h
2562 26-07-2011 08:33:02 14.4 C 10.38 g/m*3 14.4 C 0 km/h
2563 26-07-2011 08:45:01 14.5 C 10.57 g/m*3 14.5 C 0 km/h
2564 26-07-2011 08:57:01 14.7 C 10.83 g/m*3 14.7 C 0 km/h
2565 26-07-2011 09:09:01 14.7 C 10.83 g/m*3 14.7 C 0 km/h
2566 26-07-2011 09:21:02 14.7 C 10.7 g/m*3 14.7 C 0 km/h
2567 26-07-2011 09:33:01 15.3 C 10.97 g/m*3 15.3 C 0 km/h
2568 26-07-2011 09:45:02 15.5 C 10.97 g/m*3 15.5 C 0 km/h
2569 26-07-2011 09:57:02 15.5 C 10.84 g/m*3 15.5 C 0 km/h
2570 26-07-2011 10:09:01 15.4 C 10.9 g/m*3 15.4 C 0 km/h
2571 26-07-2011 10:21:02 15.3 C 10.71 g/m*3 15.3 C 0 km/h
2572 26-07-2011 10:33:01 15 C 10.51 g/m*3 15 C 0 km/h
2573 26-07-2011 10:45:02 15.3 C 10.84 g/m*3 15.3 C 0 km/h
2574 26-07-2011 10:57:02 15.3 C 10.84 g/m*3 15.3 C 0 km/h
2575 26-07-2011 11:09:02 15.8 C 10.9 g/m*3 15.8 C 0 km/h
Sensor: Nr:Datum:Temp:Abs-Feuchte:Windchill:Wind:
Aussen-T/F 2576 26-07-2011 11:21:03 16.4 C 11.03 g/m*3 16.4 C 0 km/h
2577 26-07-2011 11:33:02 17.7 C 11.16 g/m*3 17.7 C 0 km/h
2578 26-07-2011 11:45:02 18.6 C 10.5 g/m*3 18.6 C 0 km/h
2579 26-07-2011 11:57:02 17.5 C 10.29 g/m*3 17.5 C 0 km/h
2580 26-07-2011 12:09:02 17.5 C 10.29 g/m*3 17.5 C 0 km/h
2581 26-07-2011 12:21:02 18.3 C 10.48 g/m*3 18.3 C 0 km/h
2582 26-07-2011 12:33:02 18.7 C 9.93 g/m*3 18.7 C 0 km/h
2583 26-07-2011 12:45:02 19.4 C 10.01 g/m*3 19.4 C 0 km/h
2584 26-07-2011 12:57:02 19.3 C 9.79 g/m*3 19.3 C 0 km/h
2585 26-07-2011 13:09:02 20.5 C 9.61 g/m*3 20.5 C 0 km/h
2586 26-07-2011 13:21:02 21.7 C 9.92 g/m*3 21.7 C 0 km/h
2587 26-07-2011 13:33:01 21.8 C 9.4 g/m*3 21.8 C 0 km/h
2588 26-07-2011 13:45:02 22.2 C 9.62 g/m*3 22.2 C 0 km/h
2589 26-07-2011 13:57:02 22.1 C 9.56 g/m*3 22.1 C 0 km/h
2590 26-07-2011 14:09:01 22.3 C 9.28 g/m*3 22.3 C 0 km/h
2591 26-07-2011 14:21:02 25.7 C 8.86 g/m*3 25.7 C 0 km/h
2592 26-07-2011 14:33:02 24.2 C 8.8 g/m*3 24.2 C 0 km/h
2593 26-07-2011 14:45:02 24.5 C 8.73 g/m*3 24.5 C 0 km/h
2594 26-07-2011 14:57:02 23.4 C 7.99 g/m*3 23.4 C 0 km/h
2595 26-07-2011 15:09:03 25 C 8.52 g/m*3 25 C 0 km/h
2596 26-07-2011 15:21:02 23.7 C 8.56 g/m*3 23.7 C 0 km/h
2597 26-07-2011 15:33:02 22.6 C 9.24 g/m*3 22.6 C 0 km/h
2598 26-07-2011 15:45:01 22.3 C 9.08 g/m*3 22.3 C 0 km/h
2599 26-07-2011 15:57:01 22.2 C 9.03 g/m*3 22.2 C 0 km/h
2600 26-07-2011 16:09:02 21.4 C 9 g/m*3 21.4 C 0 km/h
Sensor: Nr:Datum:Temp:Abs-Feuchte:Windchill:Wind:
Aussen-T/F 2601 26-07-2011 16:21:01 20.5 C 9.61 g/m*3 20.5 C 0 km/h
2602 26-07-2011 16:33:01 20.3 C 10.38 g/m*3 20.3 C 0 km/h
2603 26-07-2011 16:45:01 20.6 C 10.2 g/m*3 20.6 C 0 km/h
2604 26-07-2011 16:57:01 20.1 C 10.78 g/m*3 20.1 C 0 km/h
2605 26-07-2011 17:09:02 19 C 9.94 g/m*3 19 C 0 km/h
2606 26-07-2011 17:21:01 18.7 C 11.05 g/m*3 18.7 C 0 km/h
2607 26-07-2011 17:33:02 19 C 11.57 g/m*3 19 C 0 km/h
2608 26-07-2011 17:45:01 18.6 C 10.66 g/m*3 18.6 C 0 km/h
2609 26-07-2011 17:57:01 18.8 C 10.95 g/m*3 18.8 C 0 km/h
2610 26-07-2011 18:09:02 18.9 C 11.5 g/m*3 18.9 C 0 km/h
2611 26-07-2011 18:21:02 18.5 C 10.76 g/m*3 18.5 C 0 km/h
2612 26-07-2011 18:33:01 18.4 C 10.38 g/m*3 18.4 C 0 km/h
2613 26-07-2011 18:45:02 18.1 C 10.51 g/m*3 18.1 C 0 km/h
2614 26-07-2011 18:57:02 17.9 C 10.69 g/m*3 17.9 C 0 km/h
2615 26-07-2011 19:09:01 17.7 C 10.56 g/m*3 17.7 C 0 km/h
2616 26-07-2011 19:21:02 17.4 C 10.52 g/m*3 17.4 C 0 km/h
2617 26-07-2011 19:33:01 17.3 C 10.61 g/m*3 17.3 C 0 km/h
2618 26-07-2011 19:45:02 17.2 C 10.69 g/m*3 17.2 C 0 km/h
2619 26-07-2011 19:57:02 16.9 C 10.79 g/m*3 16.9 C 0 km/h
2620 26-07-2011 20:09:01 16.7 C 10.94 g/m*3 16.7 C 0 km/h
2621 26-07-2011 20:21:01 16.4 C 10.75 g/m*3 16.4 C 0 km/h
2622 26-07-2011 20:33:01 16.5 C 10.95 g/m*3 16.5 C 0 km/h
2623 26-07-2011 20:45:02 16.6 C 11.02 g/m*3 16.6 C 0 km/h
2624 26-07-2011 20:57:02 16.5 C 11.09 g/m*3 16.5 C 0 km/h
2625 26-07-2011 21:09:02 16.4 C 11.17 g/m*3 16.4 C 0 km/h
Sensor: Nr:Datum:Temp:Abs-Feuchte:Windchill:Wind:
Aussen-T/F 2626 26-07-2011 21:21:02 16 C 10.9 g/m*3 16 C 0 km/h
2627 26-07-2011 21:33:02 15.7 C 10.97 g/m*3 15.7 C 0 km/h
2628 26-07-2011 21:46:04 15.4 C 10.9 g/m*3 15.4 C 0 km/h
2629 26-07-2011 21:58:04 15 C 10.64 g/m*3 15 C 0 km/h
2630 26-07-2011 22:10:04 14.7 C 10.58 g/m*3 14.7 C 0 km/h
2631 26-07-2011 22:22:04 14.3 C 10.32 g/m*3 14.3 C 0 km/h
2632 26-07-2011 22:34:04 14.1 C 10.32 g/m*3 14.1 C 0 km/h
2633 26-07-2011 22:46:04 13.7 C 10.07 g/m*3 13.7 C 0 km/h
2634 26-07-2011 22:58:04 13.8 C 10.25 g/m*3 13.8 C 0 km/h
2635 26-07-2011 23:10:04 13.8 C 10.37 g/m*3 13.8 C 0 km/h
2636 26-07-2011 23:22:04 13.7 C 10.3 g/m*3 13.7 C 0 km/h
2637 26-07-2011 23:34:04 14.1 C 10.56 g/m*3 14.1 C 0 km/h
2638 26-07-2011 23:46:04 14.2 C 10.75 g/m*3 14.2 C 0 km/h
2639 26-07-2011 23:58:05 14.3 C 10.81 g/m*3 14.3 C 0 km/h
2640 27-07-2011 00:10:05 14.3 C 10.81 g/m*3 14.3 C 0 km/h
2641 27-07-2011 00:22:05 14.3 C 10.81 g/m*3 14.3 C 0 km/h
2642 27-07-2011 00:34:05 14.2 C 10.75 g/m*3 14.2 C 0 km/h
2643 27-07-2011 00:46:05 14.2 C 10.75 g/m*3 14.2 C 0 km/h
2644 27-07-2011 00:58:05 13.9 C 10.67 g/m*3 13.9 C 0 km/h
2645 27-07-2011 01:10:05 13.8 C 10.6 g/m*3 13.8 C 0 km/h
2646 27-07-2011 01:22:05 13.7 C 10.54 g/m*3 13.7 C 0 km/h
2647 27-07-2011 01:34:05 13.5 C 10.41 g/m*3 13.5 C 0 km/h
2648 27-07-2011 01:46:05 13.2 C 10.22 g/m*3 13.2 C 0 km/h
2649 27-07-2011 01:58:05 13.2 C 10.22 g/m*3 13.2 C 0 km/h
2650 27-07-2011 02:10:05 13.4 C 10.35 g/m*3 13.4 C 0 km/h
Sensor: Nr:Datum:Temp:Abs-Feuchte:Windchill:Wind:
Aussen-T/F 2651 27-07-2011 02:22:05 13.2 C 10.22 g/m*3 13.2 C 0 km/h
2652 27-07-2011 02:34:05 13.4 C 10.35 g/m*3 13.4 C 0 km/h
2653 27-07-2011 02:46:05 13.3 C 10.28 g/m*3 13.3 C 0 km/h
2654 27-07-2011 02:58:05 13.2 C 10.22 g/m*3 13.2 C 0 km/h
2655 27-07-2011 03:10:05 13.2 C 10.22 g/m*3 13.2 C 0 km/h
2656 27-07-2011 03:22:05 13.1 C 10.16 g/m*3 13.1 C 0 km/h
2657 27-07-2011 03:34:05 13 C 10.09 g/m*3 13 C 0 km/h
2658 27-07-2011 03:46:05 13.2 C 10.22 g/m*3 13.2 C 0 km/h
2659 27-07-2011 03:58:05 13 C 10.09 g/m*3 13 C 0 km/h
2660 27-07-2011 04:10:06 12.9 C 10.14 g/m*3 12.9 C 0 km/h
2661 27-07-2011 04:22:06 13 C 10.09 g/m*3 13 C 0 km/h
2662 27-07-2011 04:34:06 13 C 10.09 g/m*3 13 C 0 km/h
2663 27-07-2011 04:46:06 13.2 C 10.22 g/m*3 13.2 C 0 km/h
2664 27-07-2011 04:58:06 13.2 C 10.33 g/m*3 13.2 C 0 km/h
2665 27-07-2011 05:10:06 13.4 C 10.46 g/m*3 13.4 C 0 km/h
2666 27-07-2011 05:22:06 13.5 C 10.53 g/m*3 13.5 C 0 km/h
2667 27-07-2011 05:34:06 13.3 C 10.4 g/m*3 13.3 C 0 km/h
2668 27-07-2011 05:46:06 13.3 C 10.4 g/m*3 13.3 C 0 km/h
2669 27-07-2011 05:58:06 13.3 C 10.4 g/m*3 13.3 C 0 km/h
2670 27-07-2011 06:10:06 13.3 C 10.4 g/m*3 13.3 C 0 km/h
2671 27-07-2011 06:22:06 13.4 C 10.46 g/m*3 13.4 C 0 km/h
2672 27-07-2011 06:34:06 13.8 C 10.72 g/m*3 13.8 C 0 km/h
2673 27-07-2011 06:46:06 14 C 10.86 g/m*3 14 C 0 km/h
2674 27-07-2011 06:58:06 14.1 C 10.92 g/m*3 14.1 C 0 km/h
2675 27-07-2011 07:10:06 14.3 C 11.06 g/m*3 14.3 C 0 km/h
Sensor: Nr:Datum:Temp:Abs-Feuchte:Windchill:Wind:
Aussen-T/F 2676 27-07-2011 07:22:06 14.6 C 11.26 g/m*3 14.6 C 0 km/h
2677 27-07-2011 07:34:03 14.7 C 11.21 g/m*3 14.7 C 0 km/h
2678 27-07-2011 07:46:02 15 C 11.28 g/m*3 15 C 0 km/h
2679 27-07-2011 07:58:03 15.3 C 11.49 g/m*3 15.3 C 0 km/h
2680 27-07-2011 08:10:01 15.4 C 11.56 g/m*3 15.4 C 0 km/h
2681 27-07-2011 08:22:02 15.8 C 11.71 g/m*3 15.8 C 0 km/h
2682 27-07-2011 08:34:02 15.7 C 11.51 g/m*3 15.7 C 0 km/h
2683 27-07-2011 08:46:02 16.3 C 11.38 g/m*3 16.3 C 0 km/h
2684 27-07-2011 08:58:02 16.4 C 11.17 g/m*3 16.4 C 0 km/h
2685 27-07-2011 09:10:02 16.4 C 10.89 g/m*3 16.4 C 0 km/h
2686 27-07-2011 09:22:02 16.4 C 10.89 g/m*3 16.4 C 0 km/h
2687 27-07-2011 09:34:02 16.4 C 10.89 g/m*3 16.4 C 0 km/h
2688 27-07-2011 09:46:02 17.1 C 10.34 g/m*3 17.1 C 0 km/h
2689 27-07-2011 09:58:02 17.5 C 9.99 g/m*3 17.5 C 0 km/h
2690 27-07-2011 10:10:02 18.4 C 10.07 g/m*3 18.4 C 0 km/h
2691 27-07-2011 10:22:01 18.4 C 10.07 g/m*3 18.4 C 0 km/h
2692 27-07-2011 10:34:02 19.3 C 9.62 g/m*3 19.3 C 0 km/h
2693 27-07-2011 10:46:02 19.3 C 9.62 g/m*3 19.3 C 0 km/h
2694 27-07-2011 10:58:02 19.5 C 9.9 g/m*3 19.5 C 0 km/h
2695 27-07-2011 11:10:02 19.9 C 9.62 g/m*3 19.9 C 0 km/h
2696 27-07-2011 11:22:01 20.7 C 9.54 g/m*3 20.7 C 0 km/h
2697 27-07-2011 11:34:02 21.1 C 9.21 g/m*3 21.1 C 0 km/h
2698 27-07-2011 11:46:02 21.7 C 9.54 g/m*3 21.7 C 0 km/h
2699 27-07-2011 11:58:02 22.5 C 8.99 g/m*3 22.5 C 0 km/h
2700 27-07-2011 12:10:02 21.3 C 9.32 g/m*3 21.3 C 0 km/h
Sensor: Nr:Datum:Temp:Abs-Feuchte:Windchill:Wind:
Aussen-T/F 2701 27-07-2011 12:22:01 21.2 C 9.45 g/m*3 21.2 C 0 km/h
2702 27-07-2011 12:34:02 21.6 C 9.67 g/m*3 21.6 C 0 km/h
2703 27-07-2011 12:46:01 22.5 C 9.59 g/m*3 22.5 C 0 km/h
2704 27-07-2011 12:58:01 23.5 C 9.09 g/m*3 23.5 C 0 km/h
2705 27-07-2011 13:10:02 23.7 C 9.2 g/m*3 23.7 C 0 km/h
2706 27-07-2011 13:22:02 23 C 9.25 g/m*3 23 C 0 km/h
2707 27-07-2011 13:34:02 23.8 C 9.03 g/m*3 23.8 C 0 km/h
2708 27-07-2011 13:46:02 24.1 C 8.97 g/m*3 24.1 C 0 km/h
2709 27-07-2011 13:58:02 22.7 C 9.7 g/m*3 22.7 C 0 km/h
2710 27-07-2011 14:10:02 22 C 10.87 g/m*3 22 C 0 km/h
2711 27-07-2011 14:22:02 21.3 C 10.81 g/m*3 21.3 C 0 km/h
2712 27-07-2011 14:34:02 20.8 C 11.41 g/m*3 20.8 C 0 km/h
2713 27-07-2011 14:46:01 20.8 C 11.41 g/m*3 20.8 C 0 km/h
2714 27-07-2011 14:58:01 19.4 C 12.01 g/m*3 19.4 C 0 km/h
2715 27-07-2011 15:10:02 17.8 C 11.69 g/m*3 17.8 C 0 km/h
2716 27-07-2011 15:22:02 17.4 C 11.86 g/m*3 17.4 C 0 km/h
2717 27-07-2011 15:34:01 17.5 C 12.08 g/m*3 17.5 C 0 km/h
2718 27-07-2011 15:46:02 17.2 C 11.72 g/m*3 17.2 C 0 km/h
2719 27-07-2011 15:58:02 17.8 C 11.99 g/m*3 17.8 C 0 km/h
2720 27-07-2011 16:10:01 18.8 C 12.4 g/m*3 18.8 C 0 km/h
2721 27-07-2011 16:22:02 19 C 12.06 g/m*3 19 C 0 km/h
2722 27-07-2011 16:34:01 19.2 C 12.2 g/m*3 19.2 C 0 km/h
2723 27-07-2011 16:46:02 19.5 C 12.92 g/m*3 19.5 C 0 km/h
2724 27-07-2011 16:58:02 19.1 C 12.62 g/m*3 19.1 C 0 km/h
2725 27-07-2011 17:10:02 19.2 C 12.04 g/m*3 19.2 C 0 km/h
Sensor: Nr:Datum:Temp:Abs-Feuchte:Windchill:Wind:
Aussen-T/F 2726 27-07-2011 17:22:02 19.1 C 12.13 g/m*3 19.1 C 0 km/h
2727 27-07-2011 17:34:02 18.5 C 12.02 g/m*3 18.5 C 0 km/h
2728 27-07-2011 17:46:02 17.9 C 12.06 g/m*3 17.9 C 0 km/h
2729 27-07-2011 17:58:02 18.2 C 12.43 g/m*3 18.2 C 0 km/h
2730 27-07-2011 18:10:02 19 C 12.87 g/m*3 19 C 0 km/h
2731 27-07-2011 18:22:01 19.8 C 12.98 g/m*3 19.8 C 0 km/h
2732 27-07-2011 18:34:02 19.9 C 12.37 g/m*3 19.9 C 0 km/h
2733 27-07-2011 18:46:02 20 C 12.1 g/m*3 20 C 0 km/h
2734 27-07-2011 18:58:02 22.6 C 10.65 g/m*3 22.6 C 0 km/h
2735 27-07-2011 19:10:02 23.3 C 10.66 g/m*3 23.3 C 0 km/h
2736 27-07-2011 19:22:02 21.2 C 10.93 g/m*3 21.2 C 0 km/h
2737 27-07-2011 19:34:02 19.7 C 11.72 g/m*3 19.7 C 0 km/h
2738 27-07-2011 19:46:02 19.1 C 12.13 g/m*3 19.1 C 0 km/h
2739 27-07-2011 19:58:02 18.5 C 12.02 g/m*3 18.5 C 0 km/h
2740 27-07-2011 20:10:03 18.2 C 12.12 g/m*3 18.2 C 0 km/h
2741 27-07-2011 20:22:02 17.9 C 12.21 g/m*3 17.9 C 0 km/h
2742 27-07-2011 20:34:02 17.4 C 12 g/m*3 17.4 C 0 km/h
2743 27-07-2011 20:46:02 17 C 11.87 g/m*3 17 C 0 km/h
2744 27-07-2011 20:58:02 16.4 C 11.72 g/m*3 16.4 C 0 km/h
2745 27-07-2011 21:10:01 16.4 C 11.86 g/m*3 16.4 C 0 km/h
2746 27-07-2011 21:22:01 16.2 C 11.72 g/m*3 16.2 C 0 km/h
2747 27-07-2011 21:34:02 16 C 11.72 g/m*3 16 C 0 km/h
2748 27-07-2011 21:46:02 16.2 C 11.72 g/m*3 16.2 C 0 km/h
2749 27-07-2011 21:58:02 16 C 11.58 g/m*3 16 C 0 km/h
2750 27-07-2011 22:10:02 16 C 11.72 g/m*3 16 C 0 km/h
Sensor: Nr:Datum:Temp:Abs-Feuchte:Windchill:Wind:
Aussen-T/F 2751 27-07-2011 22:22:02 15.9 C 11.78 g/m*3 15.9 C 0 km/h
2752 27-07-2011 22:35:05 15.8 C 11.71 g/m*3 15.8 C 0 km/h
2753 27-07-2011 22:47:05 16 C 11.72 g/m*3 16 C 0 km/h
2754 27-07-2011 22:59:05 15.8 C 11.71 g/m*3 15.8 C 0 km/h
2755 27-07-2011 23:11:05 15.7 C 11.64 g/m*3 15.7 C 0 km/h
2756 27-07-2011 23:23:05 15.6 C 11.57 g/m*3 15.6 C 0 km/h
2757 27-07-2011 23:35:05 15.6 C 11.7 g/m*3 15.6 C 0 km/h
2758 27-07-2011 23:47:05 15.6 C 11.7 g/m*3 15.6 C 0 km/h
2759 27-07-2011 23:59:06 15.6 C 11.7 g/m*3 15.6 C 0 km/h
2760 28-07-2011 00:11:06 15.7 C 11.77 g/m*3 15.7 C 0 km/h
2761 28-07-2011 00:23:06 15.5 C 11.63 g/m*3 15.5 C 0 km/h
2762 28-07-2011 00:35:06 15.4 C 11.56 g/m*3 15.4 C 0 km/h
2763 28-07-2011 00:47:06 15.2 C 11.42 g/m*3 15.2 C 0 km/h
2764 28-07-2011 00:59:06 15.3 C 11.49 g/m*3 15.3 C 0 km/h
2765 28-07-2011 01:11:06 15.3 C 11.62 g/m*3 15.3 C 0 km/h
2766 28-07-2011 01:23:06 15.4 C 11.69 g/m*3 15.4 C 0 km/h
2767 28-07-2011 01:35:06 15.3 C 11.62 g/m*3 15.3 C 0 km/h
2768 28-07-2011 01:47:06 15.4 C 11.69 g/m*3 15.4 C 0 km/h
2769 28-07-2011 01:59:06 15.3 C 11.62 g/m*3 15.3 C 0 km/h
2770 28-07-2011 02:11:06 15.3 C 11.62 g/m*3 15.3 C 0 km/h
2771 28-07-2011 02:23:06 15.4 C 11.69 g/m*3 15.4 C 0 km/h
2772 28-07-2011 02:35:06 15.4 C 11.69 g/m*3 15.4 C 0 km/h
2773 28-07-2011 02:47:06 15.4 C 11.69 g/m*3 15.4 C 0 km/h
2774 28-07-2011 02:59:06 15.4 C 11.69 g/m*3 15.4 C 0 km/h
2775 28-07-2011 03:11:06 15.4 C 11.69 g/m*3 15.4 C 0 km/h
Sensor: Nr:Datum:Temp:Abs-Feuchte:Windchill:Wind:
Aussen-T/F 2776 28-07-2011 03:23:06 15.4 C 11.69 g/m*3 15.4 C 0 km/h
2777 28-07-2011 03:35:06 15.4 C 11.69 g/m*3 15.4 C 0 km/h
2778 28-07-2011 03:47:06 15.4 C 11.69 g/m*3 15.4 C 0 km/h
2779 28-07-2011 03:59:06 15.4 C 11.82 g/m*3 15.4 C 0 km/h
2780 28-07-2011 04:11:07 15.3 C 11.62 g/m*3 15.3 C 0 km/h
2781 28-07-2011 04:23:07 15.2 C 11.55 g/m*3 15.2 C 0 km/h
2782 28-07-2011 04:35:07 15 C 11.41 g/m*3 15 C 0 km/h
2783 28-07-2011 04:47:07 14.9 C 11.47 g/m*3 14.9 C 0 km/h
2784 28-07-2011 04:59:07 14.9 C 11.47 g/m*3 14.9 C 0 km/h
2785 28-07-2011 05:11:07 14.9 C 11.47 g/m*3 14.9 C 0 km/h
2786 28-07-2011 05:23:07 15 C 11.41 g/m*3 15 C 0 km/h
2787 28-07-2011 05:35:07 15.1 C 11.61 g/m*3 15.1 C 0 km/h
2788 28-07-2011 05:47:07 15.1 C 11.61 g/m*3 15.1 C 0 km/h
2789 28-07-2011 05:59:07 15.1 C 11.61 g/m*3 15.1 C 0 km/h
2790 28-07-2011 06:11:07 15.2 C 11.68 g/m*3 15.2 C 0 km/h
2791 28-07-2011 06:23:07 15.2 C 11.68 g/m*3 15.2 C 0 km/h
2792 28-07-2011 06:35:07 15.2 C 11.68 g/m*3 15.2 C 0 km/h
2793 28-07-2011 06:47:02 15.3 C 11.75 g/m*3 15.3 C 0 km/h
2794 28-07-2011 06:59:02 15.4 C 11.82 g/m*3 15.4 C 0 km/h
2795 28-07-2011 07:11:02 15.5 C 11.9 g/m*3 15.5 C 0 km/h
2796 28-07-2011 07:23:03 15.7 C 12.04 g/m*3 15.7 C 0 km/h
2797 28-07-2011 07:35:03 15.9 C 12.19 g/m*3 15.9 C 0 km/h
2798 28-07-2011 07:47:02 16 C 12.13 g/m*3 16 C 0 km/h
2799 28-07-2011 07:59:02 16 C 12.13 g/m*3 16 C 0 km/h
2800 28-07-2011 08:11:02 16.1 C 12.2 g/m*3 16.1 C 0 km/h
Sensor: Nr:Datum:Temp:Abs-Feuchte:Windchill:Wind:
Aussen-T/F 2801 28-07-2011 08:23:01 16.1 C 12.2 g/m*3 16.1 C 0 km/h
2802 28-07-2011 08:35:02 16 C 12.13 g/m*3 16 C 0 km/h
2803 28-07-2011 08:47:02 16.1 C 12.2 g/m*3 16.1 C 0 km/h
2804 28-07-2011 08:59:02 16.2 C 12.14 g/m*3 16.2 C 0 km/h
2805 28-07-2011 09:11:02 16.4 C 12.28 g/m*3 16.4 C 0 km/h
2806 28-07-2011 09:23:02 16.4 C 12 g/m*3 16.4 C 0 km/h
2807 28-07-2011 09:35:02 16.6 C 11.87 g/m*3 16.6 C 0 km/h
2808 28-07-2011 09:47:02 16.6 C 11.58 g/m*3 16.6 C 0 km/h
2809 28-07-2011 09:59:02 16.8 C 11.29 g/m*3 16.8 C 0 km/h
2810 28-07-2011 10:11:02 17.2 C 11.42 g/m*3 17.2 C 0 km/h
2811 28-07-2011 10:23:02 17.2 C 11.13 g/m*3 17.2 C 0 km/h
2812 28-07-2011 10:35:02 17.3 C 11.2 g/m*3 17.3 C 0 km/h
2813 28-07-2011 10:47:02 17.5 C 11.33 g/m*3 17.5 C 0 km/h
2814 28-07-2011 10:59:02 17.7 C 11.47 g/m*3 17.7 C 0 km/h
2815 28-07-2011 11:11:02 18.1 C 11.28 g/m*3 18.1 C 0 km/h
2816 28-07-2011 11:23:02 18.3 C 11.1 g/m*3 18.3 C 0 km/h
2817 28-07-2011 11:35:02 18.3 C 11.1 g/m*3 18.3 C 0 km/h
2818 28-07-2011 11:47:02 18 C 11.21 g/m*3 18 C 0 km/h
2819 28-07-2011 11:59:02 18.1 C 11.12 g/m*3 18.1 C 0 km/h
2820 28-07-2011 12:11:02 18.3 C 11.26 g/m*3 18.3 C 0 km/h
2821 28-07-2011 12:23:02 18.1 C 11.12 g/m*3 18.1 C 0 km/h
2822 28-07-2011 12:35:02 18.5 C 11.39 g/m*3 18.5 C 0 km/h
2823 28-07-2011 12:47:02 20 C 10.54 g/m*3 20 C 0 km/h
2824 28-07-2011 12:59:02 20.6 C 10.56 g/m*3 20.6 C 0 km/h
2825 28-07-2011 13:11:02 20.5 C 10.14 g/m*3 20.5 C 0 km/h
Sensor: Nr:Datum:Temp:Abs-Feuchte:Windchill:Wind:
Aussen-T/F 2826 28-07-2011 13:23:02 21.4 C 10.31 g/m*3 21.4 C 0 km/h
2827 28-07-2011 13:35:01 20.8 C 10.14 g/m*3 20.8 C 0 km/h
2828 28-07-2011 13:47:02 20.9 C 10.38 g/m*3 20.9 C 0 km/h
2829 28-07-2011 13:59:02 21 C 10.26 g/m*3 21 C 0 km/h
2830 28-07-2011 14:11:01 21.5 C 10.37 g/m*3 21.5 C 0 km/h
2831 28-07-2011 14:23:01 21.8 C 10.36 g/m*3 21.8 C 0 km/h
2832 28-07-2011 14:35:02 23.4 C 9.67 g/m*3 23.4 C 0 km/h
2833 28-07-2011 14:47:02 22.5 C 10.19 g/m*3 22.5 C 0 km/h
2834 28-07-2011 14:59:02 21.6 C 10.43 g/m*3 21.6 C 0 km/h
2835 28-07-2011 15:11:01 23.6 C 10.42 g/m*3 23.6 C 0 km/h
2836 28-07-2011 15:23:02 25.1 C 9.49 g/m*3 25.1 C 0 km/h
2837 28-07-2011 15:35:02 26 C 9.49 g/m*3 26 C 0 km/h
2838 28-07-2011 15:47:01 28.1 C 9.3 g/m*3 28.1 C 0 km/h
2839 28-07-2011 15:59:01 27.5 C 8.47 g/m*3 27.5 C 0 km/h
2840 28-07-2011 16:11:02 29.1 C 8.66 g/m*3 29.1 C 0 km/h
2841 28-07-2011 16:23:01 30.4 C 7.75 g/m*3 30.4 C 0 km/h
2842 28-07-2011 16:35:01 30.9 C 7.96 g/m*3 30.9 C 0 km/h
2843 28-07-2011 16:47:02 31.4 C 7.19 g/m*3 31.4 C 0 km/h
2844 28-07-2011 16:59:02 31.5 C 7.23 g/m*3 31.5 C 0 km/h
2845 28-07-2011 17:11:02 30.6 C 7.83 g/m*3 30.6 C 0 km/h
2846 28-07-2011 17:23:01 29.5 C 7.97 g/m*3 29.5 C 0 km/h
2847 28-07-2011 17:35:02 27.6 C 8.51 g/m*3 27.6 C 0 km/h
2848 28-07-2011 17:47:02 27.1 C 8.54 g/m*3 27.1 C 0 km/h
2849 28-07-2011 17:59:02 26.9 C 8.7 g/m*3 26.9 C 0 km/h
2850 28-07-2011 18:11:02 24.7 C 9.05 g/m*3 24.7 C 0 km/h
Sensor: Nr:Datum:Temp:Abs-Feuchte:Windchill:Wind:
Aussen-T/F 2851 28-07-2011 18:23:01 23.5 C 10.57 g/m*3 23.5 C 0 km/h
2852 28-07-2011 18:35:02 22.9 C 9.4 g/m*3 22.9 C 0 km/h
2853 28-07-2011 18:47:02 22.7 C 9.7 g/m*3 22.7 C 0 km/h
2854 28-07-2011 18:59:02 22.5 C 9.79 g/m*3 22.5 C 0 km/h
2855 28-07-2011 19:11:02 22.2 C 9.62 g/m*3 22.2 C 0 km/h
2856 28-07-2011 19:23:02 21.7 C 10.3 g/m*3 21.7 C 0 km/h
2857 28-07-2011 19:35:02 20.8 C 11.05 g/m*3 20.8 C 0 km/h
2858 28-07-2011 19:47:02 20.3 C 11.26 g/m*3 20.3 C 0 km/h
2859 28-07-2011 19:59:02 19.6 C 11.48 g/m*3 19.6 C 0 km/h
2860 28-07-2011 20:11:02 19.1 C 11.31 g/m*3 19.1 C 0 km/h
2861 28-07-2011 20:23:02 19.5 C 10.91 g/m*3 19.5 C 0 km/h
2862 28-07-2011 20:35:02 19.3 C 10.78 g/m*3 19.3 C 0 km/h
2863 28-07-2011 20:47:02 18.6 C 11.14 g/m*3 18.6 C 0 km/h
2864 28-07-2011 20:59:02 17.8 C 11.08 g/m*3 17.8 C 0 km/h
2865 28-07-2011 21:11:02 17.3 C 11.2 g/m*3 17.3 C 0 km/h
2866 28-07-2011 21:23:02 16.8 C 11.29 g/m*3 16.8 C 0 km/h
2867 28-07-2011 21:35:02 16.3 C 10.96 g/m*3 16.3 C 0 km/h
2868 28-07-2011 21:47:02 16 C 10.9 g/m*3 16 C 0 km/h
2869 28-07-2011 21:59:02 15.8 C 11.04 g/m*3 15.8 C 0 km/h
2870 28-07-2011 22:11:02 15.5 C 10.97 g/m*3 15.5 C 0 km/h
2871 28-07-2011 22:24:02 15.5 C 10.97 g/m*3 15.5 C 0 km/h
2872 28-07-2011 22:36:02 15.2 C 10.9 g/m*3 15.2 C 0 km/h
2873 28-07-2011 22:48:02 15.2 C 10.9 g/m*3 15.2 C 0 km/h
2874 28-07-2011 23:00:02 15.4 C 11.04 g/m*3 15.4 C 0 km/h
2875 28-07-2011 23:12:02 15.4 C 11.04 g/m*3 15.4 C 0 km/h
Sensor: Nr:Datum:Temp:Abs-Feuchte:Windchill:Wind:
Aussen-T/F 2876 28-07-2011 23:24:02 15.4 C 11.04 g/m*3 15.4 C 0 km/h
2877 28-07-2011 23:36:02 15.5 C 11.1 g/m*3 15.5 C 0 km/h
2878 28-07-2011 23:48:02 15.6 C 11.04 g/m*3 15.6 C 0 km/h
2879 29-07-2011 00:00:02 15.5 C 11.1 g/m*3 15.5 C 0 km/h
2880 29-07-2011 00:12:02 15.6 C 11.04 g/m*3 15.6 C 0 km/h
2881 29-07-2011 00:24:02 15.6 C 11.04 g/m*3 15.6 C 0 km/h
2882 29-07-2011 00:36:02 15.6 C 11.04 g/m*3 15.6 C 0 km/h
2883 29-07-2011 00:48:02 15.7 C 11.11 g/m*3 15.7 C 0 km/h
2884 29-07-2011 01:00:02 15.8 C 11.17 g/m*3 15.8 C 0 km/h
2885 29-07-2011 01:12:02 15.8 C 11.17 g/m*3 15.8 C 0 km/h
2886 29-07-2011 01:24:02 15.8 C 11.04 g/m*3 15.8 C 0 km/h
2887 29-07-2011 01:36:02 15.9 C 11.1 g/m*3 15.9 C 0 km/h
2888 29-07-2011 01:48:03 16.3 C 10.96 g/m*3 16.3 C 0 km/h
2889 29-07-2011 02:00:03 16.3 C 10.82 g/m*3 16.3 C 0 km/h
2890 29-07-2011 02:12:03 16.2 C 10.76 g/m*3 16.2 C 0 km/h
2891 29-07-2011 02:24:03 16 C 10.76 g/m*3 16 C 0 km/h
2892 29-07-2011 02:36:03 15.9 C 10.83 g/m*3 15.9 C 0 km/h
2893 29-07-2011 02:48:03 15.8 C 10.9 g/m*3 15.8 C 0 km/h
2894 29-07-2011 03:00:03 15.6 C 10.91 g/m*3 15.6 C 0 km/h
2895 29-07-2011 03:12:03 15.6 C 11.04 g/m*3 15.6 C 0 km/h
2896 29-07-2011 03:24:03 15.6 C 11.04 g/m*3 15.6 C 0 km/h
2897 29-07-2011 03:36:03 15.5 C 11.1 g/m*3 15.5 C 0 km/h
2898 29-07-2011 03:48:03 15.5 C 11.1 g/m*3 15.5 C 0 km/h
2899 29-07-2011 04:00:03 15.5 C 11.24 g/m*3 15.5 C 0 km/h
2900 29-07-2011 04:12:03 15.3 C 11.1 g/m*3 15.3 C 0 km/h
Sensor: Nr:Datum:Temp:Abs-Feuchte:Windchill:Wind:
Aussen-T/F 2901 29-07-2011 04:24:03 15.2 C 11.03 g/m*3 15.2 C 0 km/h
2902 29-07-2011 04:36:03 15.1 C 10.97 g/m*3 15.1 C 0 km/h
2903 29-07-2011 04:48:03 15 C 10.9 g/m*3 15 C 0 km/h
2904 29-07-2011 05:00:03 15 C 10.9 g/m*3 15 C 0 km/h
2905 29-07-2011 05:12:03 15 C 10.9 g/m*3 15 C 0 km/h
2906 29-07-2011 05:24:03 14.8 C 10.89 g/m*3 14.8 C 0 km/h
2907 29-07-2011 05:36:03 14.9 C 11.09 g/m*3 14.9 C 0 km/h
2908 29-07-2011 05:48:04 14.9 C 11.09 g/m*3 14.9 C 0 km/h
2909 29-07-2011 06:00:04 15 C 11.16 g/m*3 15 C 0 km/h
2910 29-07-2011 06:12:04 15.1 C 11.22 g/m*3 15.1 C 0 km/h
2911 29-07-2011 06:24:04 15.3 C 11.36 g/m*3 15.3 C 0 km/h
2912 29-07-2011 06:36:04 15.4 C 11.3 g/m*3 15.4 C 0 km/h
2913 29-07-2011 06:48:04 15.6 C 11.3 g/m*3 15.6 C 0 km/h
2914 29-07-2011 07:00:04 15.7 C 11.24 g/m*3 15.7 C 0 km/h
2915 29-07-2011 07:12:04 16 C 11.17 g/m*3 16 C 0 km/h
2916 29-07-2011 07:24:04 16.2 C 11.17 g/m*3 16.2 C 0 km/h
2917 29-07-2011 07:36:04 16.2 C 11.03 g/m*3 16.2 C 0 km/h
2918 29-07-2011 07:48:04 16.4 C 11.03 g/m*3 16.4 C 0 km/h
2919 29-07-2011 08:00:04 16.6 C 11.16 g/m*3 16.6 C 0 km/h
2920 29-07-2011 08:12:04 16.6 C 11.02 g/m*3 16.6 C 0 km/h
2921 29-07-2011 08:24:01 16.8 C 11.15 g/m*3 16.8 C 0 km/h
2922 29-07-2011 08:36:02 16.8 C 11.01 g/m*3 16.8 C 0 km/h
2923 29-07-2011 08:48:02 16.8 C 11.01 g/m*3 16.8 C 0 km/h
2924 29-07-2011 09:00:02 17.2 C 10.98 g/m*3 17.2 C 0 km/h
2925 29-07-2011 09:12:02 17.6 C 11.1 g/m*3 17.6 C 0 km/h
Sensor: Nr:Datum:Temp:Abs-Feuchte:Windchill:Wind:
Aussen-T/F 2926 29-07-2011 09:24:01 17.7 C 11.01 g/m*3 17.7 C 0 km/h
2927 29-07-2011 09:36:02 17.9 C 11.15 g/m*3 17.9 C 0 km/h
2928 29-07-2011 09:48:02 17.7 C 11.01 g/m*3 17.7 C 0 km/h
2929 29-07-2011 10:00:02 17.6 C 11.1 g/m*3 17.6 C 0 km/h
2930 29-07-2011 10:12:02 17.7 C 11.01 g/m*3 17.7 C 0 km/h
2931 29-07-2011 10:24:03 17.8 C 11.23 g/m*3 17.8 C 0 km/h
2932 29-07-2011 10:36:02 17.7 C 11.16 g/m*3 17.7 C 0 km/h
2933 29-07-2011 10:48:03 17.5 C 11.18 g/m*3 17.5 C 0 km/h
2934 29-07-2011 11:00:03 17.9 C 11.3 g/m*3 17.9 C 0 km/h
2935 29-07-2011 11:12:02 18.4 C 11.17 g/m*3 18.4 C 0 km/h
2936 29-07-2011 11:24:02 18.8 C 10.95 g/m*3 18.8 C 0 km/h
2937 29-07-2011 11:36:02 19.5 C 10.57 g/m*3 19.5 C 0 km/h
2938 29-07-2011 11:48:02 19.8 C 10.42 g/m*3 19.8 C 0 km/h
2939 29-07-2011 12:00:02 19.5 C 10.24 g/m*3 19.5 C 0 km/h
2940 29-07-2011 12:12:02 19.7 C 10.36 g/m*3 19.7 C 0 km/h
2941 29-07-2011 12:24:02 19.1 C 10.16 g/m*3 19.1 C 0 km/h
2942 29-07-2011 12:36:03 19 C 10.1 g/m*3 19 C 0 km/h
2943 29-07-2011 12:48:02 18.6 C 10.35 g/m*3 18.6 C 0 km/h
2944 29-07-2011 13:00:02 18.8 C 10.47 g/m*3 18.8 C 0 km/h
2945 29-07-2011 13:12:01 18.6 C 9.87 g/m*3 18.6 C 0 km/h
2946 29-07-2011 13:24:02 20 C 9.85 g/m*3 20 C 0 km/h
2947 29-07-2011 13:36:02 20.8 C 9.42 g/m*3 20.8 C 0 km/h
2948 29-07-2011 13:48:02 21.5 C 9.05 g/m*3 21.5 C 0 km/h
2949 29-07-2011 14:00:02 21.1 C 8.84 g/m*3 21.1 C 0 km/h
2950 29-07-2011 14:12:03 20.2 C 8.22 g/m*3 20.2 C 0 km/h
Sensor: Nr:Datum:Temp:Abs-Feuchte:Windchill:Wind:
Aussen-T/F 2951 29-07-2011 14:24:02 23.3 C 8.15 g/m*3 23.3 C 0 km/h
2952 29-07-2011 14:36:02 24.2 C 7.92 g/m*3 24.2 C 0 km/h
2953 29-07-2011 14:48:01 23.4 C 7.99 g/m*3 23.4 C 0 km/h
2954 29-07-2011 15:00:01 23.6 C 8.29 g/m*3 23.6 C 0 km/h
2955 29-07-2011 15:12:02 22.3 C 8.1 g/m*3 22.3 C 0 km/h
2956 29-07-2011 15:24:01 20.7 C 8.1 g/m*3 20.7 C 0 km/h
2957 29-07-2011 15:36:02 20.5 C 8.54 g/m*3 20.5 C 0 km/h
2958 29-07-2011 15:48:02 21 C 8.06 g/m*3 21 C 0 km/h
2959 29-07-2011 16:00:02 21 C 8.06 g/m*3 21 C 0 km/h
2960 29-07-2011 16:12:02 21.7 C 8.2 g/m*3 21.7 C 0 km/h
2961 29-07-2011 16:24:02 22 C 7.96 g/m*3 22 C 0 km/h
2962 29-07-2011 16:36:02 21.4 C 7.31 g/m*3 21.4 C 0 km/h
2963 29-07-2011 16:48:02 20.9 C 7.83 g/m*3 20.9 C 0 km/h
2964 29-07-2011 17:00:02 22.1 C 6.83 g/m*3 22.1 C 0 km/h
2965 29-07-2011 17:12:03 24.1 C 7.22 g/m*3 24.1 C 0 km/h
2966 29-07-2011 17:24:02 22.4 C 7.15 g/m*3 22.4 C 0 km/h
2967 29-07-2011 17:36:02 20.6 C 7.87 g/m*3 20.6 C 0 km/h
2968 29-07-2011 17:48:01 20.8 C 7.97 g/m*3 20.8 C 0 km/h
2969 29-07-2011 18:00:01 19.9 C 8.08 g/m*3 19.9 C 0 km/h
2970 29-07-2011 18:12:01 20.1 C 7.82 g/m*3 20.1 C 0 km/h
2971 29-07-2011 18:24:02 20.1 C 7.82 g/m*3 20.1 C 0 km/h
2972 29-07-2011 18:36:01 19.8 C 7.69 g/m*3 19.8 C 0 km/h
2973 29-07-2011 18:48:02 22.3 C 7.31 g/m*3 22.3 C 0 km/h
2974 29-07-2011 19:00:02 21.9 C 6.75 g/m*3 21.9 C 0 km/h
2975 29-07-2011 19:12:01 22.3 C 6.91 g/m*3 22.3 C 0 km/h
Sensor: Nr:Datum:Temp:Abs-Feuchte:Windchill:Wind:
Aussen-T/F 2976 29-07-2011 19:24:02 21.7 C 6.49 g/m*3 21.7 C 0 km/h
2977 29-07-2011 19:36:01 23.2 C 6.65 g/m*3 23.2 C 0 km/h
2978 29-07-2011 19:48:02 21.4 C 7.31 g/m*3 21.4 C 0 km/h
2979 29-07-2011 20:00:02 20.3 C 7.21 g/m*3 20.3 C 0 km/h
2980 29-07-2011 20:12:02 20.1 C 7.3 g/m*3 20.1 C 0 km/h
2981 29-07-2011 20:24:02 19.5 C 7.55 g/m*3 19.5 C 0 km/h
2982 29-07-2011 20:36:02 18.9 C 7.45 g/m*3 18.9 C 0 km/h
2983 29-07-2011 20:48:02 18.6 C 7.48 g/m*3 18.6 C 0 km/h
2984 29-07-2011 21:00:03 18.2 C 7.62 g/m*3 18.2 C 0 km/h
2985 29-07-2011 21:12:01 17.1 C 7.71 g/m*3 17.1 C 0 km/h
2986 29-07-2011 21:24:02 16 C 8.17 g/m*3 16 C 0 km/h
2987 29-07-2011 21:36:02 14.8 C 8.49 g/m*3 14.8 C 0 km/h
2988 29-07-2011 21:49:02 14.5 C 8.71 g/m*3 14.5 C 0 km/h
2989 29-07-2011 22:01:02 14.2 C 8.79 g/m*3 14.2 C 0 km/h
2990 29-07-2011 22:13:03 14.2 C 9.04 g/m*3 14.2 C 0 km/h
2991 29-07-2011 22:25:03 13.8 C 8.94 g/m*3 13.8 C 0 km/h
2992 29-07-2011 22:37:03 13.9 C 9.23 g/m*3 13.9 C 0 km/h
2993 29-07-2011 22:49:03 14.4 C 9.39 g/m*3 14.4 C 0 km/h
2994 29-07-2011 23:01:03 14.5 C 8.95 g/m*3 14.5 C 0 km/h
2995 29-07-2011 23:13:03 14.5 C 9.08 g/m*3 14.5 C 0 km/h
2996 29-07-2011 23:25:03 14.9 C 9.18 g/m*3 14.9 C 0 km/h
2997 29-07-2011 23:37:03 15 C 8.72 g/m*3 15 C 0 km/h
2998 29-07-2011 23:49:03 14.5 C 8.83 g/m*3 14.5 C 0 km/h
2999 30-07-2011 00:01:03 14.1 C 8.86 g/m*3 14.1 C 0 km/h
3000 30-07-2011 00:13:03 14.3 C 8.97 g/m*3 14.3 C 0 km/h
Sensor: Nr:Datum:Temp:Abs-Feuchte:Windchill:Wind:
Aussen-T/F 3001 30-07-2011 00:25:03 14 C 8.93 g/m*3 14 C 0 km/h
3002 30-07-2011 00:37:03 14 C 9.05 g/m*3 14 C 0 km/h
3003 30-07-2011 00:49:03 14.4 C 9.27 g/m*3 14.4 C 0 km/h
3004 30-07-2011 01:01:03 14.7 C 9.32 g/m*3 14.7 C 0 km/h
3005 30-07-2011 01:13:03 14.9 C 9.43 g/m*3 14.9 C 0 km/h
3006 30-07-2011 01:25:03 15.1 C 9.29 g/m*3 15.1 C 0 km/h
3007 30-07-2011 01:37:03 15.1 C 9.29 g/m*3 15.1 C 0 km/h
3008 30-07-2011 01:49:03 15.2 C 9.35 g/m*3 15.2 C 0 km/h
3009 30-07-2011 02:01:03 15.2 C 9.35 g/m*3 15.2 C 0 km/h
3010 30-07-2011 02:13:04 15.2 C 9.35 g/m*3 15.2 C 0 km/h
3011 30-07-2011 02:25:04 15.4 C 9.33 g/m*3 15.4 C 0 km/h
3012 30-07-2011 02:37:04 15.3 C 9.4 g/m*3 15.3 C 0 km/h
3013 30-07-2011 02:49:04 15.4 C 9.33 g/m*3 15.4 C 0 km/h
3014 30-07-2011 03:01:04 15.2 C 9.22 g/m*3 15.2 C 0 km/h
3015 30-07-2011 03:13:04 15.1 C 9.03 g/m*3 15.1 C 0 km/h
3016 30-07-2011 03:25:04 15 C 8.98 g/m*3 15 C 0 km/h
3017 30-07-2011 03:37:04 14.9 C 9.05 g/m*3 14.9 C 0 km/h
3018 30-07-2011 03:49:04 14.6 C 9.01 g/m*3 14.6 C 0 km/h
3019 30-07-2011 04:01:04 14.5 C 9.08 g/m*3 14.5 C 0 km/h
3020 30-07-2011 04:13:04 14.5 C 8.95 g/m*3 14.5 C 0 km/h
3021 30-07-2011 04:25:04 14.1 C 8.98 g/m*3 14.1 C 0 km/h
3022 30-07-2011 04:37:04 13.7 C 9.47 g/m*3 13.7 C 0 km/h
3023 30-07-2011 04:49:04 13.5 C 9.71 g/m*3 13.5 C 0 km/h
3024 30-07-2011 05:01:04 13.3 C 9.7 g/m*3 13.3 C 0 km/h
3025 30-07-2011 05:13:04 13.3 C 9.82 g/m*3 13.3 C 0 km/h
Sensor: Nr:Datum:Temp:Abs-Feuchte:Windchill:Wind:
Aussen-T/F 3026 30-07-2011 05:25:04 13.3 C 9.82 g/m*3 13.3 C 0 km/h
3027 30-07-2011 05:37:04 13.3 C 9.82 g/m*3 13.3 C 0 km/h
3028 30-07-2011 05:49:04 13.4 C 9.88 g/m*3 13.4 C 0 km/h
3029 30-07-2011 06:01:04 13.3 C 9.7 g/m*3 13.3 C 0 km/h
3030 30-07-2011 06:13:04 13.4 C 9.65 g/m*3 13.4 C 0 km/h
3031 30-07-2011 06:25:05 13.5 C 9.47 g/m*3 13.5 C 0 km/h
3032 30-07-2011 06:37:05 13.5 C 9.47 g/m*3 13.5 C 0 km/h
3033 30-07-2011 06:49:05 13.5 C 9.24 g/m*3 13.5 C 0 km/h
3034 30-07-2011 07:01:05 13.6 C 9.3 g/m*3 13.6 C 0 km/h
3035 30-07-2011 07:13:05 13.7 C 9.24 g/m*3 13.7 C 0 km/h
3036 30-07-2011 07:25:05 13.5 C 9.12 g/m*3 13.5 C 0 km/h
3037 30-07-2011 07:37:05 13.6 C 9.18 g/m*3 13.6 C 0 km/h
3038 30-07-2011 07:49:05 13.8 C 9.29 g/m*3 13.8 C 0 km/h
3039 30-07-2011 08:01:02 13.9 C 9.23 g/m*3 13.9 C 0 km/h
3040 30-07-2011 08:13:02 13.8 C 9.17 g/m*3 13.8 C 0 km/h
3041 30-07-2011 08:25:02 14.1 C 9.22 g/m*3 14.1 C 0 km/h
3042 30-07-2011 08:37:01 14.1 C 8.98 g/m*3 14.1 C 0 km/h
3043 30-07-2011 08:49:02 14.1 C 8.86 g/m*3 14.1 C 0 km/h
3044 30-07-2011 09:01:01 14.2 C 9.16 g/m*3 14.2 C 0 km/h
3045 30-07-2011 09:13:01 14.7 C 9.19 g/m*3 14.7 C 0 km/h
3046 30-07-2011 09:25:02 14.8 C 8.87 g/m*3 14.8 C 0 km/h
3047 30-07-2011 09:37:02 15 C 8.85 g/m*3 15 C 0 km/h
3048 30-07-2011 09:49:02 15 C 8.85 g/m*3 15 C 0 km/h
3049 30-07-2011 10:01:02 15.2 C 8.83 g/m*3 15.2 C 0 km/h
3050 30-07-2011 10:13:02 15.5 C 8.59 g/m*3 15.5 C 0 km/h
Sensor: Nr:Datum:Temp:Abs-Feuchte:Windchill:Wind:
Aussen-T/F 3051 30-07-2011 10:25:02 15.1 C 8.64 g/m*3 15.1 C 0 km/h
3052 30-07-2011 10:37:03 14 C 8.93 g/m*3 14 C 0 km/h
3053 30-07-2011 10:49:02 14.6 C 9.26 g/m*3 14.6 C 0 km/h
3054 30-07-2011 11:01:02 15.4 C 8.93 g/m*3 15.4 C 0 km/h
3055 30-07-2011 11:13:02 16 C 8.45 g/m*3 16 C 0 km/h
3056 30-07-2011 11:25:02 15.6 C 8.38 g/m*3 15.6 C 0 km/h
3057 30-07-2011 11:37:02 15.1 C 8.13 g/m*3 15.1 C 0 km/h
3058 30-07-2011 11:49:02 15.2 C 8.05 g/m*3 15.2 C 0 km/h
3059 30-07-2011 12:01:02 15.9 C 7.99 g/m*3 15.9 C 0 km/h
3060 30-07-2011 12:13:02 16.5 C 8.14 g/m*3 16.5 C 0 km/h
3061 30-07-2011 12:25:03 16.6 C 7.91 g/m*3 16.6 C 0 km/h
3062 30-07-2011 12:37:02 16.4 C 7.82 g/m*3 16.4 C 0 km/h
3063 30-07-2011 12:49:02 16 C 7.63 g/m*3 16 C 0 km/h
3064 30-07-2011 13:01:02 15.9 C 7.72 g/m*3 15.9 C 0 km/h
3065 30-07-2011 13:13:02 15.8 C 7.81 g/m*3 15.8 C 0 km/h
3066 30-07-2011 13:25:02 16.3 C 7.35 g/m*3 16.3 C 0 km/h
3067 30-07-2011 13:37:02 16.4 C 7.54 g/m*3 16.4 C 0 km/h
3068 30-07-2011 13:49:02 16.2 C 7.86 g/m*3 16.2 C 0 km/h
3069 30-07-2011 14:01:01 15.7 C 7.76 g/m*3 15.7 C 0 km/h
3070 30-07-2011 14:13:01 16.2 C 7.86 g/m*3 16.2 C 0 km/h
3071 30-07-2011 14:25:02 16.2 C 7.72 g/m*3 16.2 C 0 km/h
3072 30-07-2011 14:37:02 16.2 C 7.86 g/m*3 16.2 C 0 km/h
3073 30-07-2011 14:49:02 16 C 7.9 g/m*3 16 C 0 km/h
3074 30-07-2011 15:01:02 15.5 C 7.93 g/m*3 15.5 C 0 km/h
3075 30-07-2011 15:13:02 15.4 C 8.01 g/m*3 15.4 C 0 km/h
Sensor: Nr:Datum:Temp:Abs-Feuchte:Windchill:Wind:
Aussen-T/F 3076 30-07-2011 15:25:02 15.8 C 8.08 g/m*3 15.8 C 0 km/h
3077 30-07-2011 15:37:02 16.8 C 7.72 g/m*3 16.8 C 0 km/h
3078 30-07-2011 15:49:01 16.4 C 7.54 g/m*3 16.4 C 0 km/h
3079 30-07-2011 16:01:02 16.8 C 8.01 g/m*3 16.8 C 0 km/h
3080 30-07-2011 16:13:02 16.9 C 7.91 g/m*3 16.9 C 0 km/h
3081 30-07-2011 16:25:01 16.4 C 7.68 g/m*3 16.4 C 0 km/h
3082 30-07-2011 16:37:02 16.9 C 7.77 g/m*3 16.9 C 0 km/h
3083 30-07-2011 16:49:02 16.9 C 7.77 g/m*3 16.9 C 0 km/h
3084 30-07-2011 17:01:02 16.1 C 7.68 g/m*3 16.1 C 0 km/h
3085 30-07-2011 17:13:03 16.1 C 7.81 g/m*3 16.1 C 0 km/h
3086 30-07-2011 17:25:02 15.9 C 7.99 g/m*3 15.9 C 0 km/h
3087 30-07-2011 17:37:02 15.9 C 7.99 g/m*3 15.9 C 0 km/h
3088 30-07-2011 17:49:02 15.9 C 7.99 g/m*3 15.9 C 0 km/h
3089 30-07-2011 18:01:03 16 C 8.04 g/m*3 16 C 0 km/h
3090 30-07-2011 18:13:03 16.4 C 8.1 g/m*3 16.4 C 0 km/h
3091 30-07-2011 18:25:02 16.2 C 8 g/m*3 16.2 C 0 km/h
3092 30-07-2011 18:37:02 16.2 C 7.72 g/m*3 16.2 C 0 km/h
3093 30-07-2011 18:49:02 16.6 C 8.05 g/m*3 16.6 C 0 km/h
3094 30-07-2011 19:01:03 16.4 C 7.68 g/m*3 16.4 C 0 km/h
3095 30-07-2011 19:13:03 16.1 C 7.68 g/m*3 16.1 C 0 km/h
3096 30-07-2011 19:25:02 15.9 C 7.85 g/m*3 15.9 C 0 km/h
3097 30-07-2011 19:37:03 15.7 C 7.76 g/m*3 15.7 C 0 km/h
3098 30-07-2011 19:49:02 15.7 C 7.89 g/m*3 15.7 C 0 km/h
3099 30-07-2011 20:01:02 15.6 C 7.85 g/m*3 15.6 C 0 km/h
3100 30-07-2011 20:13:03 15.4 C 7.88 g/m*3 15.4 C 0 km/h
Sensor: Nr:Datum:Temp:Abs-Feuchte:Windchill:Wind:
Aussen-T/F 3101 30-07-2011 20:25:02 15.3 C 7.97 g/m*3 15.3 C 0 km/h
3102 30-07-2011 20:37:02 15.3 C 8.1 g/m*3 15.3 C 0 km/h
3103 30-07-2011 20:49:03 15.2 C 8.05 g/m*3 15.2 C 0 km/h
3104 30-07-2011 21:01:03 15 C 7.95 g/m*3 15 C 0 km/h
3105 30-07-2011 21:13:03 14.9 C 8.03 g/m*3 14.9 C 0 km/h
3106 30-07-2011 21:25:02 14.8 C 7.98 g/m*3 14.8 C 0 km/h
3107 30-07-2011 21:37:03 14.7 C 8.06 g/m*3 14.7 C 0 km/h
3108 30-07-2011 21:49:03 14.7 C 8.06 g/m*3 14.7 C 0 km/h
3109 30-07-2011 22:02:04 14.6 C 8.01 g/m*3 14.6 C 0 km/h
3110 30-07-2011 22:14:04 14.6 C 8.13 g/m*3 14.6 C 0 km/h
3111 30-07-2011 22:26:04 14.5 C 8.21 g/m*3 14.5 C 0 km/h
3112 30-07-2011 22:38:04 14.4 C 8.28 g/m*3 14.4 C 0 km/h
3113 30-07-2011 22:50:04 14.2 C 8.43 g/m*3 14.2 C 0 km/h
3114 30-07-2011 23:02:04 14.2 C 8.43 g/m*3 14.2 C 0 km/h
3115 30-07-2011 23:14:04 14.3 C 8.6 g/m*3 14.3 C 0 km/h
3116 30-07-2011 23:26:04 14.1 C 8.5 g/m*3 14.1 C 0 km/h
3117 30-07-2011 23:38:04 14 C 8.56 g/m*3 14 C 0 km/h
3118 30-07-2011 23:50:04 14 C 8.56 g/m*3 14 C 0 km/h
3119 31-07-2011 00:02:04 14.1 C 8.62 g/m*3 14.1 C 0 km/h
3120 31-07-2011 00:14:04 14.1 C 8.62 g/m*3 14.1 C 0 km/h
3121 31-07-2011 00:26:04 14.1 C 8.5 g/m*3 14.1 C 0 km/h
3122 31-07-2011 00:38:04 14.3 C 8.6 g/m*3 14.3 C 0 km/h
3123 31-07-2011 00:50:04 14.3 C 8.48 g/m*3 14.3 C 0 km/h
3124 31-07-2011 01:02:04 14.3 C 8.48 g/m*3 14.3 C 0 km/h
3125 31-07-2011 01:14:04 14.3 C 8.6 g/m*3 14.3 C 0 km/h
Sensor: Nr:Datum:Temp:Abs-Feuchte:Windchill:Wind:
Aussen-T/F 3126 31-07-2011 01:26:04 14 C 8.44 g/m*3 14 C 0 km/h
3127 31-07-2011 01:38:04 14.1 C 8.5 g/m*3 14.1 C 0 km/h
3128 31-07-2011 01:50:04 14 C 8.56 g/m*3 14 C 0 km/h
3129 31-07-2011 02:02:04 13.9 C 8.63 g/m*3 13.9 C 0 km/h
3130 31-07-2011 02:14:05 14 C 8.68 g/m*3 14 C 0 km/h
3131 31-07-2011 02:26:05 13.8 C 8.82 g/m*3 13.8 C 0 km/h
3132 31-07-2011 02:38:05 13.9 C 8.75 g/m*3 13.9 C 0 km/h
3133 31-07-2011 02:50:05 13.9 C 8.75 g/m*3 13.9 C 0 km/h
3134 31-07-2011 03:02:05 13.8 C 8.7 g/m*3 13.8 C 0 km/h
3135 31-07-2011 03:14:05 13.8 C 8.7 g/m*3 13.8 C 0 km/h
3136 31-07-2011 03:26:05 13.7 C 8.64 g/m*3 13.7 C 0 km/h
3137 31-07-2011 03:38:05 13.7 C 8.53 g/m*3 13.7 C 0 km/h
3138 31-07-2011 03:50:05 13.7 C 8.53 g/m*3 13.7 C 0 km/h
3139 31-07-2011 04:02:05 13.7 C 8.53 g/m*3 13.7 C 0 km/h
3140 31-07-2011 04:14:05 13.6 C 8.47 g/m*3 13.6 C 0 km/h
3141 31-07-2011 04:26:05 13.5 C 8.54 g/m*3 13.5 C 0 km/h
3142 31-07-2011 04:38:05 13.4 C 8.6 g/m*3 13.4 C 0 km/h
3143 31-07-2011 04:50:05 13.4 C 8.6 g/m*3 13.4 C 0 km/h
3144 31-07-2011 05:02:05 13.4 C 8.72 g/m*3 13.4 C 0 km/h
3145 31-07-2011 05:14:05 13.5 C 8.66 g/m*3 13.5 C 0 km/h
3146 31-07-2011 05:26:05 13.5 C 8.66 g/m*3 13.5 C 0 km/h
3147 31-07-2011 05:38:05 13.5 C 8.66 g/m*3 13.5 C 0 km/h
3148 31-07-2011 05:50:05 13.4 C 8.6 g/m*3 13.4 C 0 km/h
3149 31-07-2011 06:02:05 13.4 C 8.6 g/m*3 13.4 C 0 km/h
3150 31-07-2011 06:14:05 13.5 C 8.66 g/m*3 13.5 C 0 km/h
Sensor: Nr:Datum:Temp:Abs-Feuchte:Windchill:Wind:
Aussen-T/F 3151 31-07-2011 06:26:05 13.4 C 8.6 g/m*3 13.4 C 0 km/h
3152 31-07-2011 06:38:06 13.5 C 8.66 g/m*3 13.5 C 0 km/h
3153 31-07-2011 06:50:06 13.4 C 8.6 g/m*3 13.4 C 0 km/h
3154 31-07-2011 07:02:06 13.5 C 8.66 g/m*3 13.5 C 0 km/h
3155 31-07-2011 07:14:06 13.5 C 8.54 g/m*3 13.5 C 0 km/h
3156 31-07-2011 07:26:06 13.5 C 8.54 g/m*3 13.5 C 0 km/h
3157 31-07-2011 07:38:06 13.5 C 8.42 g/m*3 13.5 C 0 km/h
3158 31-07-2011 07:50:06 13.5 C 8.42 g/m*3 13.5 C 0 km/h
3159 31-07-2011 08:02:06 13.8 C 8.34 g/m*3 13.8 C 0 km/h
3160 31-07-2011 08:14:06 14 C 7.96 g/m*3 14 C 0 km/h
3161 31-07-2011 08:26:06 14.1 C 7.89 g/m*3 14.1 C 0 km/h
3162 31-07-2011 08:38:06 14.7 C 7.81 g/m*3 14.7 C 0 km/h
3163 31-07-2011 08:50:02 14.6 C 7.51 g/m*3 14.6 C 0 km/h
3164 31-07-2011 09:02:03 14.6 C 7.13 g/m*3 14.6 C 0 km/h
3165 31-07-2011 09:14:03 14.7 C 7.18 g/m*3 14.7 C 0 km/h
3166 31-07-2011 09:26:02 14.6 C 7.13 g/m*3 14.6 C 0 km/h
3167 31-07-2011 09:38:02 15.3 C 7.18 g/m*3 15.3 C 0 km/h
3168 31-07-2011 09:50:02 15.5 C 7.01 g/m*3 15.5 C 0 km/h
3169 31-07-2011 10:02:03 15.9 C 6.91 g/m*3 15.9 C 0 km/h
3170 31-07-2011 10:14:03 15.6 C 6.65 g/m*3 15.6 C 0 km/h
3171 31-07-2011 10:26:03 15.5 C 6.61 g/m*3 15.5 C 0 km/h
3172 31-07-2011 10:38:03 16 C 6.54 g/m*3 16 C 0 km/h
3173 31-07-2011 10:50:02 15.9 C 6.37 g/m*3 15.9 C 0 km/h
3174 31-07-2011 11:02:05 16.3 C 6.52 g/m*3 16.3 C 0 km/h
3175 31-07-2011 11:14:05 16.1 C 6.58 g/m*3 16.1 C 0 km/h
Sensor: Nr:Datum:Temp:Abs-Feuchte:Windchill:Wind:
Aussen-T/F 3176 31-07-2011 11:26:02 15.9 C 6.77 g/m*3 15.9 C 0 km/h
3177 31-07-2011 11:38:02 16.2 C 6.48 g/m*3 16.2 C 0 km/h
3178 31-07-2011 11:50:01 16.4 C 6.42 g/m*3 16.4 C 0 km/h
3179 31-07-2011 12:02:02 16.9 C 6.47 g/m*3 16.9 C 0 km/h
3180 31-07-2011 12:14:02 17 C 6.51 g/m*3 17 C 0 km/h
3181 31-07-2011 12:26:02 17.4 C 6.37 g/m*3 17.4 C 0 km/h
3182 31-07-2011 12:38:02 16.9 C 6.33 g/m*3 16.9 C 0 km/h
3183 31-07-2011 12:50:01 17.3 C 6.33 g/m*3 17.3 C 0 km/h
3184 31-07-2011 13:02:02 18.1 C 6.33 g/m*3 18.1 C 0 km/h
3185 31-07-2011 13:14:02 18.3 C 6.57 g/m*3 18.3 C 0 km/h
3186 31-07-2011 13:26:02 17.5 C 6.11 g/m*3 17.5 C 0 km/h
3187 31-07-2011 13:38:01 17.8 C 6.53 g/m*3 17.8 C 0 km/h
3188 31-07-2011 13:50:02 18.1 C 6.33 g/m*3 18.1 C 0 km/h
3189 31-07-2011 14:02:01 17.6 C 6.6 g/m*3 17.6 C 0 km/h
3190 31-07-2011 14:14:01 17.9 C 6.72 g/m*3 17.9 C 0 km/h
3191 31-07-2011 14:26:02 18.3 C 6.41 g/m*3 18.3 C 0 km/h
3192 31-07-2011 14:38:01 18.1 C 6.8 g/m*3 18.1 C 0 km/h
3193 31-07-2011 14:50:01 18.1 C 6.64 g/m*3 18.1 C 0 km/h
3194 31-07-2011 15:02:01 17.7 C 6.34 g/m*3 17.7 C 0 km/h
3195 31-07-2011 15:14:01 18.3 C 6.41 g/m*3 18.3 C 0 km/h
3196 31-07-2011 15:26:01 17.9 C 6.57 g/m*3 17.9 C 0 km/h
3197 31-07-2011 15:38:01 17.6 C 6.45 g/m*3 17.6 C 0 km/h
3198 31-07-2011 15:50:01 17.8 C 6.53 g/m*3 17.8 C 0 km/h
3199 31-07-2011 16:02:01 18.3 C 6.57 g/m*3 18.3 C 0 km/h
3200 31-07-2011 16:14:01 18.1 C 6.49 g/m*3 18.1 C 0 km/h
Sensor: Nr:Datum:Temp:Abs-Feuchte:Windchill:Wind:
Aussen-T/F 3201 31-07-2011 16:26:02 17.7 C 6.64 g/m*3 17.7 C 0 km/h
3202 31-07-2011 16:38:01 17.9 C 6.72 g/m*3 17.9 C 0 km/h
3203 31-07-2011 16:50:03 17.9 C 6.87 g/m*3 17.9 C 0 km/h
3204 31-07-2011 17:02:02 18 C 6.91 g/m*3 18 C 0 km/h
3205 31-07-2011 17:14:02 17.7 C 6.79 g/m*3 17.7 C 0 km/h
3206 31-07-2011 17:26:02 17.5 C 6.86 g/m*3 17.5 C 0 km/h
3207 31-07-2011 17:38:02 17.5 C 6.71 g/m*3 17.5 C 0 km/h
3208 31-07-2011 17:50:02 17.3 C 6.63 g/m*3 17.3 C 0 km/h
3209 31-07-2011 18:02:01 16.8 C 6.72 g/m*3 16.8 C 0 km/h
3210 31-07-2011 18:14:01 17.2 C 6.74 g/m*3 17.2 C 0 km/h
3211 31-07-2011 18:26:02 17.2 C 6.59 g/m*3 17.2 C 0 km/h
3212 31-07-2011 18:38:02 17.1 C 6.7 g/m*3 17.1 C 0 km/h
3213 31-07-2011 18:50:02 16.8 C 6.72 g/m*3 16.8 C 0 km/h
3214 31-07-2011 19:02:03 16.9 C 6.76 g/m*3 16.9 C 0 km/h
3215 31-07-2011 19:14:03 16.7 C 6.82 g/m*3 16.7 C 0 km/h
3216 31-07-2011 19:26:02 16.6 C 6.92 g/m*3 16.6 C 0 km/h
3217 31-07-2011 19:38:02 16.5 C 7.02 g/m*3 16.5 C 0 km/h
3218 31-07-2011 19:50:01 16.4 C 7.12 g/m*3 16.4 C 0 km/h
3219 31-07-2011 20:02:02 16.3 C 7.21 g/m*3 16.3 C 0 km/h
3220 31-07-2011 20:14:02 16.1 C 6.99 g/m*3 16.1 C 0 km/h
3221 31-07-2011 20:26:01 16 C 7.08 g/m*3 16 C 0 km/h
3222 31-07-2011 20:38:02 15.8 C 7.13 g/m*3 15.8 C 0 km/h
3223 31-07-2011 20:50:01 15.7 C 7.23 g/m*3 15.7 C 0 km/h
3224 31-07-2011 21:02:02 15.4 C 7.62 g/m*3